Provisional Data: Little Muncy Creek near Moreland, PA


Please select a monitoring station.
Please select start date.
Please select start date.

Toggle Unit: C/F Toggle Unit: C/F
Sample Time Temperature (C) Temperature (F) Specific Conductivity (mS/cm) pH   Turbidity (NTU+) DO (mg/L)
8/9/2021 12:00:00 AM 0 32 0 7.46 1.77 7.53
8/9/2021 12:15:00 AM 0 32 0 7.45 1.68 7.56
8/9/2021 12:30:00 AM 0 32 0 7.45 1.88 7.57
8/9/2021 12:45:00 AM 0 32 0 7.44 2.01 7.59
8/9/2021 1:00:00 AM 0 32 0 7.44 2.23 7.57
8/9/2021 1:15:00 AM 0 32 0 7.44 1.54 7.56
8/9/2021 1:30:00 AM 0 32 0 7.44 1.61 7.59
8/9/2021 1:45:00 AM 0 32 0 7.43 1.56 7.62
8/9/2021 2:00:00 AM 0 32 0 7.43 2.05 7.6
8/9/2021 2:15:00 AM 0 32 0 7.43 1.8 7.65
8/9/2021 2:30:00 AM 0 32 0 7.43 2.06 7.6
8/9/2021 2:45:00 AM 0 32 0 7.43 1.5 7.65
8/9/2021 3:00:00 AM 0 32 0 7.42 1.78 7.64
8/9/2021 3:15:00 AM 0 32 0 7.41 1.66 7.67
8/9/2021 3:30:00 AM 0 32 0 7.42 1.97 7.67
8/9/2021 3:45:00 AM 0 32 0 7.41 1.54 7.66
8/9/2021 4:00:00 AM 0 32 0 7.41 1.64 7.7
8/9/2021 4:15:00 AM 0 32 0 7.41 3.25 7.72
8/9/2021 4:30:00 AM 0 32 0 7.41 2.19 7.69
8/9/2021 4:45:00 AM 0 32 0 7.4 1.75 7.7
8/9/2021 5:00:00 AM 0 32 0 7.4 1.37 7.7
8/9/2021 5:15:00 AM 0 32 0 7.4 1.71 7.74
8/9/2021 5:30:00 AM 0 32 0 7.4 2.09 7.72
8/9/2021 5:45:00 AM 0 32 0 7.4 1.89 7.73
8/9/2021 6:00:00 AM 0 32 0 7.4 1.75 7.73
8/9/2021 6:15:00 AM 0 32 0 7.4 2.01 7.77
8/9/2021 6:30:00 AM 0 32 0 7.4 1.75 7.8
8/9/2021 6:45:00 AM 0 32 0 7.41 1.64 7.85
8/9/2021 7:00:00 AM 0 32 0 7.43 1.81 7.96
8/9/2021 7:15:00 AM 0 32 0 7.43 2 8.06
8/9/2021 7:30:00 AM 0 32 0 7.46 1.58 8.16
8/9/2021 7:45:00 AM 0 32 0 7.47 1.68 8.34
8/9/2021 8:00:00 AM 0 32 0 7.5 1.74 8.43
8/9/2021 8:15:00 AM 0 32 0 7.52 1.51 8.53
8/9/2021 8:30:00 AM 0 32 0 7.54 1.66 8.69
8/9/2021 8:45:00 AM 0 32 0 7.57 1.6 8.78
8/9/2021 9:00:00 AM 0 32 0 7.6 1.79 8.9
8/9/2021 9:15:00 AM 0 32 0 7.63 1.56 9.05
8/9/2021 9:30:00 AM 0 32 0 7.68 1.66 9.2
8/9/2021 9:45:00 AM 0 32 0 7.71 1.25 9.31
8/9/2021 10:00:00 AM 0 32 0 7.77 1.61 9.43
8/9/2021 10:15:00 AM 0 32 0 7.8 1.35 9.56
8/9/2021 10:30:00 AM 0 32 0 7.86 1.57 9.67
8/9/2021 10:45:00 AM 0 32 0 7.94 1.56 9.88
8/9/2021 11:00:00 AM 0 32 0 8 1.57 9.99
8/9/2021 11:15:00 AM 0 32 0 8.08 1.27 10.09
8/9/2021 11:30:00 AM 0 32 0 8.13 1.31 10.18
8/9/2021 11:45:00 AM 0 32 0 8.18 1.36 10.23
8/9/2021 12:00:00 PM 0 32 0 8.24 1.42 10.28
8/9/2021 12:15:00 PM 0 32 0 8.31 1.54 10.36
8/9/2021 12:30:00 PM 0 32 0 8.37 1.28 10.49
8/9/2021 12:45:00 PM 0 32 0 8.43 1.21 10.55
8/9/2021 1:00:00 PM 0 32 0 8.51 1.53 10.66
8/9/2021 1:15:00 PM 0 32 0 8.55 1.54 10.68
8/9/2021 1:30:00 PM 0 32 0 8.58 1.42 10.74
8/9/2021 1:45:00 PM 0 32 0 8.63 1.36 10.77
8/9/2021 2:00:00 PM 0 32 0 8.67 1.59 10.81
8/9/2021 2:15:00 PM 0 32 0 8.7 1.31 10.82
8/9/2021 2:30:00 PM 0 32 0 8.72 1.39 10.77
8/9/2021 2:45:00 PM 0 32 0 8.72 1.22 10.72
8/9/2021 3:00:00 PM 0 32 0 8.76 1.17 10.79
8/9/2021 3:15:00 PM 0 32 0 8.79 1.12 10.75
8/9/2021 3:30:00 PM 0 32 0 8.8 1.23 10.77
8/9/2021 3:45:00 PM 0 32 0 8.8 1.41 10.69
8/9/2021 4:00:00 PM 0 32 0 8.81 1.4 10.66
8/9/2021 4:15:00 PM 0 32 0 8.78 1.21 10.47
8/9/2021 4:30:00 PM 0 32 0 8.77 1.12 10.4
8/9/2021 4:45:00 PM 0 32 0 8.72 1.33 10.15
8/9/2021 5:00:00 PM 0 32 0 8.65 1.17 9.96
8/9/2021 5:15:00 PM 0 32 0 8.61 1.17 9.82
8/9/2021 5:30:00 PM 0 32 0 8.54 1.36 9.68
8/9/2021 5:45:00 PM 0 32 0 8.46 1.35 9.47
8/9/2021 6:00:00 PM 0 32 0 8.4 1.38 9.39
8/9/2021 6:15:00 PM 0 32 0 8.32 1.24 9.25
8/9/2021 6:30:00 PM 0 32 0 8.25 1.19 9.1
8/9/2021 6:45:00 PM 0 32 0 8.15 1.24 8.95
8/9/2021 7:00:00 PM 0 32 0 8.05 1.31 8.73
8/9/2021 7:15:00 PM 0 32 0 7.96 1.13 8.59
8/9/2021 7:30:00 PM 0 32 0 7.9 1.3 8.44
8/9/2021 7:45:00 PM 0 32 0 7.84 1.37 8.32
8/9/2021 8:00:00 PM 0 32 0 7.78 1.5 8.18
8/9/2021 8:15:00 PM 0 32 0 7.73 1.48 8.06
8/9/2021 8:30:00 PM 0 32 0 7.69 1.23 7.91
8/9/2021 8:45:00 PM 0 32 0 7.65 1.37 7.81
8/9/2021 9:00:00 PM 0 32 0 7.62 1.56 7.73
8/9/2021 9:15:00 PM 0 32 0 7.6 1.47 7.66
8/9/2021 9:30:00 PM 0 32 0 7.58 1.72 7.61
8/9/2021 9:45:00 PM 0 32 0 7.56 1.37 7.55
8/9/2021 10:00:00 PM 0 32 0 7.54 1.46 7.51
8/9/2021 10:15:00 PM 0 32 0 7.53 1.84 7.5
8/9/2021 10:30:00 PM 0 32 0 7.51 1.7 7.46
8/9/2021 10:45:00 PM 0 32 0 7.5 1.41 7.45
8/9/2021 11:00:00 PM 0 32 0 7.49 1.61 7.48
8/9/2021 11:15:00 PM 0 32 0 7.48 1.56 7.43
8/9/2021 11:30:00 PM 0 32 0 7.47 1.87 7.38
8/9/2021 11:45:00 PM 0 32 0 7.46 1.71 7.4
8/10/2021 12:00:00 AM 0 32 0 7.45 1.72 7.41
8/10/2021 12:15:00 AM 0 32 0 7.44 1.4 7.37
8/10/2021 12:30:00 AM 0 32 0 7.44 1.53 7.38
8/10/2021 12:45:00 AM 0 32 0 7.44 1.53 7.43
8/10/2021 1:00:00 AM 0 32 0 7.44 1.82 7.39
8/10/2021 1:15:00 AM 0 32 0 7.42 1.65 7.41
8/10/2021 1:30:00 AM 0 32 0 7.43 1.87 7.4
8/10/2021 1:45:00 AM 0 32 0 7.43 1.75 7.4
8/10/2021 2:00:00 AM 0 32 0 7.42 1.81 7.4
8/10/2021 2:15:00 AM 0 32 0 7.42 1.73 7.39
8/10/2021 2:30:00 AM 0 32 0 7.42 2.24 7.43
8/10/2021 2:45:00 AM 0 32 0 7.42 1.59 7.44
8/10/2021 3:00:00 AM 0 32 0 7.42 2.23 7.43
8/10/2021 3:15:00 AM 0 32 0 7.4 1.9 7.43
8/10/2021 3:30:00 AM 0 32 0 7.41 1.61 7.47
8/10/2021 3:45:00 AM 0 32 0 7.4 1.61 7.45
8/10/2021 4:00:00 AM 0 32 0 7.4 1.78 7.47
8/10/2021 4:15:00 AM 0 32 0 7.4 1.8 7.51
8/10/2021 4:30:00 AM 0 32 0 7.39 1.77 7.46
8/10/2021 4:45:00 AM 0 32 0 7.4 1.89 7.48
8/10/2021 5:00:00 AM 0 32 0 7.39 1.98 7.55
8/10/2021 5:15:00 AM 0 32 0 7.4 1.88 7.53
8/10/2021 5:30:00 AM 0 32 0 7.39 1.67 7.52
8/10/2021 5:45:00 AM 0 32 0 7.4 2.02 7.53
8/10/2021 6:00:00 AM 0 32 0 7.39 1.91 7.53
8/10/2021 6:15:00 AM 0 32 0 7.38 2.04 7.56
8/10/2021 6:30:00 AM 0 32 0 7.39 1.87 7.55
8/10/2021 6:45:00 AM 0 32 0 7.39 2.24 7.61
8/10/2021 7:00:00 AM 0 32 0 7.4 1.95 7.64
8/10/2021 7:15:00 AM 0 32 0 7.4 2 7.75
8/10/2021 7:30:00 AM 0 32 0 7.42 1.8 7.82
8/10/2021 7:45:00 AM 0 32 0 7.41 1.64 7.78
8/10/2021 8:00:00 AM 0 32 0 7.44 2.06 7.94
8/10/2021 8:15:00 AM 0 32 0 7.45 1.67 8.02
8/10/2021 8:30:00 AM 0 32 0 7.47 1.86 8.16
8/10/2021 8:45:00 AM 0 32 0 7.49 1.71 8.2
8/10/2021 9:00:00 AM 0 32 0 7.51 1.51 8.36
8/10/2021 9:15:00 AM 0 32 0 7.55 1.73 8.52
8/10/2021 9:30:00 AM 0 32 0 7.56 2.04 8.66
8/10/2021 9:45:00 AM 0 32 0 7.6 1.86 8.77
8/10/2021 10:00:00 AM 0 32 0 7.64 1.91 8.85
8/10/2021 10:15:00 AM 0 32 0 7.64 1.86 8.77
8/10/2021 10:30:00 AM 0 32 0 7.64 1.71 8.71
8/10/2021 10:45:00 AM 0 32 0 7.64 1.55 8.69
8/10/2021 11:00:00 AM 0 32 0 7.64 1.43 8.68
8/10/2021 11:15:00 AM 0 32 0 7.66 1.47 8.86
8/10/2021 11:30:00 AM 0 32 0 7.69 1.56 8.98
8/10/2021 11:45:00 AM 0 32 0 7.74 1.56 9.17
8/10/2021 12:00:00 PM 0 32 0 7.79 1.72 9.39
8/10/2021 12:15:00 PM 0 32 0 7.87 1.4 9.53
8/10/2021 12:30:00 PM 0 32 0 7.93 2.04 9.66
8/10/2021 12:45:00 PM 0 32 0 8.02 1.5 9.84
8/10/2021 1:00:00 PM 0 32 0 8.09 1.24 9.98
8/10/2021 1:15:00 PM 0 32 0 8.2 1.53 10.15
8/10/2021 1:30:00 PM 0 32 0 8.29 1.69 10.34
8/10/2021 1:45:00 PM 0 32 0 8.35 1.29 10.39
8/10/2021 2:00:00 PM 0 32 0 8.41 1.27 10.44
8/10/2021 2:15:00 PM 0 32 0 8.46 1.47 10.43
8/10/2021 2:30:00 PM 0 32 0 8.5 1.42 10.45
8/10/2021 2:45:00 PM 0 32 0 8.53 1.36 10.5
8/10/2021 3:00:00 PM 0 32 0 8.53 1.45 10.42
8/10/2021 3:15:00 PM 0 32 0 8.48 1.47 10.13
8/10/2021 3:30:00 PM 0 32 0 8.39 1.45 9.87
8/10/2021 3:45:00 PM 0 32 0 8.31 1.3 9.65
8/10/2021 4:00:00 PM 0 32 0 8.2 1.21 9.42
8/10/2021 4:15:00 PM 0 32 0 8.11 1.24 9.23
8/10/2021 4:30:00 PM 0 32 0 8.06 1.32 9.24
8/10/2021 4:45:00 PM 0 32 0 8.1 1.41 9.36
8/10/2021 5:00:00 PM 0 32 0 8.16 1.29 9.47
8/10/2021 5:15:00 PM 0 32 0 8.21 1.55 9.55
8/10/2021 5:30:00 PM 0 32 0 8.24 1.46 9.57
8/10/2021 5:45:00 PM 0 32 0 8.24 1.46 9.55
8/10/2021 6:00:00 PM 0 32 0 8.18 1.51 9.36
8/10/2021 6:15:00 PM 0 32 0 8.11 1.34 9.18
8/10/2021 6:30:00 PM 0 32 0 8.04 1.16 9.01
8/10/2021 6:45:00 PM 0 32 0 8.01 1.45 8.97
8/10/2021 7:00:00 PM 0 32 0 7.98 1.39 8.94
8/10/2021 7:15:00 PM 0 32 0 7.95 1.39 8.81
8/10/2021 7:30:00 PM 0 32 0 7.9 1.53 8.68
8/10/2021 7:45:00 PM 0 32 0 7.83 1.24 8.52
8/10/2021 8:00:00 PM 0 32 0 7.79 1.48 8.37
8/10/2021 8:15:00 PM 0 32 0 7.74 1.46 8.22
8/10/2021 8:30:00 PM 0 32 0 7.7 1.27 8.06
8/10/2021 8:45:00 PM 0 32 0 7.67 1.47 7.96
8/10/2021 9:00:00 PM 0 32 0 7.64 1.5 7.86
8/10/2021 9:15:00 PM 0 32 0 7.62 1.31 7.83
8/10/2021 9:30:00 PM 0 32 0 7.6 1.64 7.78
8/10/2021 9:45:00 PM 0 32 0 7.57 1.56 7.73
8/10/2021 10:00:00 PM 0 32 0 7.55 1.58 7.65
8/10/2021 10:15:00 PM 0 32 0 7.54 1.75 7.67
8/10/2021 10:30:00 PM 0 32 0 7.53 1.55 7.62
8/10/2021 10:45:00 PM 0 32 0 7.52 2.15 7.57
8/10/2021 11:00:00 PM 0 32 0 7.51 1.83 7.59
8/10/2021 11:15:00 PM 0 32 0 7.5 8.65 7.82
8/10/2021 11:30:00 PM 0 32 0 7.5 2.76 7.68
8/10/2021 11:45:00 PM 0 32 0 7.5 2.11 7.67
8/11/2021 12:00:00 AM 0 32 0 7.48 2.58 7.61
8/11/2021 12:15:00 AM 0 32 0 7.48 2.65 7.56
8/11/2021 12:30:00 AM 0 32 0 7.46 2.77 7.58
8/11/2021 12:45:00 AM 0 32 0 7.47 3.54 7.62
8/11/2021 1:00:00 AM 0 32 0 7.45 3.04 7.58
8/11/2021 1:15:00 AM 0 32 0 7.45 2.89 7.58
8/11/2021 1:30:00 AM 0 32 0 7.45 2.56 7.57
8/11/2021 1:45:00 AM 0 32 0 7.45 3.38 7.56
8/11/2021 2:00:00 AM 0 32 0 7.44 3.68 7.58
8/11/2021 2:15:00 AM 0 32 0 7.45 3.89 7.58
8/11/2021 2:30:00 AM 0 32 0 7.45 3.64 7.67
8/11/2021 2:45:00 AM 0 32 0 7.46 3.51 7.66
8/11/2021 3:00:00 AM 0 32 0 7.45 3.51 7.67
8/11/2021 3:15:00 AM 0 32 0 7.45 3.42 7.57
8/11/2021 3:30:00 AM 0 32 0 7.45 3.55 7.65
8/11/2021 3:45:00 AM 0 32 0 7.45 3.34 7.62
8/11/2021 4:00:00 AM 0 32 0 7.45 3.27 7.65
8/11/2021 4:15:00 AM 0 32 0 7.46 4.17 7.64
8/11/2021 4:30:00 AM 0 32 0 7.46 3.6 7.61
8/11/2021 4:45:00 AM 0 32 0 7.45 5.72 7.56
8/11/2021 5:00:00 AM 0 32 0 7.45 3.56 7.58
8/11/2021 5:15:00 AM 0 32 0 7.46 4.57 7.62
8/11/2021 5:30:00 AM 0 32 0 7.45 4.1 7.63
8/11/2021 5:45:00 AM 0 32 0 7.45 3.88 7.63
8/11/2021 6:00:00 AM 0 32 0 7.45 3.87 7.65
8/11/2021 6:15:00 AM 0 32 0 7.45 3.51 7.62
8/11/2021 6:30:00 AM 0 32 0 7.45 3.43 7.63
8/11/2021 6:45:00 AM 0 32 0 7.45 3.16 7.67
8/11/2021 7:00:00 AM 0 32 0 7.46 3.7 7.7
8/11/2021 7:15:00 AM 0 32 0 7.44 3.42 7.73
8/11/2021 7:30:00 AM 0 32 0 7.46 3.14 7.76
8/11/2021 7:45:00 AM 0 32 0 7.47 3.25 7.85
8/11/2021 8:00:00 AM 0 32 0 7.48 3.49 7.87
8/11/2021 8:15:00 AM 0 32 0 7.49 2.69 8.02
8/11/2021 8:30:00 AM 0 32 0 7.51 2.91 8.2
8/11/2021 8:45:00 AM 0 32 0 7.54 2.8 8.31
8/11/2021 9:00:00 AM 0 32 0 7.55 2.56 8.35
8/11/2021 9:15:00 AM 0 32 0 7.56 2.71 8.4
8/11/2021 9:30:00 AM 0 32 0 7.58 2.63 8.55
8/11/2021 9:45:00 AM 0 32 0 7.61 2.33 8.7
8/11/2021 10:00:00 AM 0 32 0 7.63 2.48 8.77
8/11/2021 10:15:00 AM 0 32 0 7.69 2.5 9.01
8/11/2021 10:30:00 AM 0 32 0 7.73 2.38 9.08
8/11/2021 10:45:00 AM 0 32 0 7.72 2.44 9.02
8/11/2021 11:00:00 AM 0 32 0 7.74 2.91 9.07
8/11/2021 11:15:00 AM 0 32 0 7.76 2.17 9.14
8/11/2021 11:30:00 AM 0 32 0 7.82 2.78 9.34
8/11/2021 11:45:00 AM 0 32 0 7.87 2.25 9.49
8/11/2021 12:00:00 PM 0 32 0 7.92 2.48 9.62
8/11/2021 12:15:00 PM 0 32 0 7.98 2.23 9.76
8/11/2021 12:30:00 PM 0 32 0 8.06 2.35 9.88
8/11/2021 12:45:00 PM 0 32 0 8.12 2.09 9.96
8/11/2021 1:00:00 PM 0 32 0 8.16 2.61 10.06
8/11/2021 1:15:00 PM 0 32 0 8.21 2.61 10.06
8/11/2021 1:30:00 PM 0 32 0 8.22 2.05 10.03
8/11/2021 1:45:00 PM 0 32 0 8.27 3.45 10.11
8/11/2021 2:00:00 PM 0 32 0 8.32 1.96 10.11
8/11/2021 2:15:00 PM 0 32 0 8.26 2.25 9.94
8/11/2021 2:30:00 PM 0 32 0 8.33 1.95 10.08
8/11/2021 2:45:00 PM 0 32 0 8.34 6.7 10.02
8/11/2021 3:00:00 PM 0 32 0 8.37 1.77 10.04
8/11/2021 3:15:00 PM 0 32 0 8.37 1.9 10
8/11/2021 3:30:00 PM 0 32 0 8.37 1.95 9.94
8/11/2021 3:45:00 PM 0 32 0 8.41 1.9 10.02
8/11/2021 4:00:00 PM 0 32 0 8.4 1.68 9.96
8/11/2021 4:15:00 PM 0 32 0 8.4 1.81 9.89
8/11/2021 4:30:00 PM 0 32 0 8.39 9.04 9.83
8/11/2021 4:45:00 PM 0 32 0 8.35 1.72 9.66
8/11/2021 5:00:00 PM 0 32 0 8.26 1.7 9.38
8/11/2021 5:15:00 PM 0 32 0 8.12 1.48 9.1
8/11/2021 5:30:00 PM 0 32 0 8.04 1.94 8.91
8/11/2021 5:45:00 PM 0 32 0 7.95 1.46 8.64
8/11/2021 6:00:00 PM 0 32 0 7.88 1.45 8.49
8/11/2021 6:15:00 PM 0 32 0 7.83 1.53 8.33
8/11/2021 6:30:00 PM 0 32 0 7.78 1.51 8.2
8/11/2021 6:45:00 PM 0 32 0 7.74 1.6 8.09
8/11/2021 7:00:00 PM 0 32 0 7.72 1.65 8.08
8/11/2021 7:15:00 PM 0 32 0 7.7 1.53 8.05
8/11/2021 7:30:00 PM 0 32 0 7.68 1.47 7.97
8/11/2021 7:45:00 PM 0 32 0 7.66 1.58 7.91
8/11/2021 8:00:00 PM 0 32 0 7.65 1.55 7.85
8/11/2021 8:15:00 PM 0 32 0 7.63 1.59 7.78
8/11/2021 8:30:00 PM 0 32 0 7.6 1.98 7.71
8/11/2021 8:45:00 PM 0 32 0 7.57 1.74 7.61
8/11/2021 9:00:00 PM 0 32 0 7.57 1.58 7.57
8/11/2021 9:15:00 PM 0 32 0 7.55 1.7 7.51
8/11/2021 9:30:00 PM 0 32 0 7.54 1.94 7.53
8/11/2021 9:45:00 PM 0 32 0 7.53 2.13 7.5
8/11/2021 10:00:00 PM 0 32 0 7.51 1.85 7.47
8/11/2021 10:15:00 PM 0 32 0 7.51 2.05 7.48
8/11/2021 10:30:00 PM 0 32 0 7.5 1.72 7.48
8/11/2021 10:45:00 PM 0 32 0 7.5 1.85 7.45
8/11/2021 11:00:00 PM 0 32 0 7.49 2.06 7.43
8/11/2021 11:15:00 PM 0 32 0 7.48 1.63 7.45
8/11/2021 11:30:00 PM 0 32 0 7.48 1.91 7.4
8/11/2021 11:45:00 PM 0 32 0 7.48 2.05 7.44
8/12/2021 12:00:00 AM 0 32 0 7.47 1.78 7.44
8/12/2021 12:15:00 AM 0 32 0 7.46 1.78 7.41
8/12/2021 12:30:00 AM 0 32 0 7.47 1.87 7.41
8/12/2021 12:45:00 AM 0 32 0 7.46 2.11 7.39
8/12/2021 1:00:00 AM 0 32 0 7.46 1.94 7.47
8/12/2021 1:15:00 AM 0 32 0 7.45 2.04 7.45
8/12/2021 1:30:00 AM 0 32 0 7.44 1.88 7.39
8/12/2021 1:45:00 AM 0 32 0 7.45 2.12 7.46
8/12/2021 2:00:00 AM 0 32 0 7.45 1.75 7.5
8/12/2021 2:15:00 AM 0 32 0 7.45 2.14 7.48
8/12/2021 2:30:00 AM 0 32 0 7.45 2.03 7.5
8/12/2021 2:45:00 AM 0 32 0 7.45 2.07 7.49
8/12/2021 3:00:00 AM 0 32 0 7.44 1.69 7.48
8/12/2021 3:15:00 AM 0 32 0 7.44 2.05 7.51
8/12/2021 3:30:00 AM 0 32 0 7.44 1.86 7.51
8/12/2021 3:45:00 AM 0 32 0 7.44 2.17 7.5
8/12/2021 4:00:00 AM 0 32 0 7.43 2.33 7.5
8/12/2021 4:15:00 AM 0 32 0 7.43 2.31 7.57
8/12/2021 4:30:00 AM 0 32 0 7.43 1.75 7.54
8/12/2021 4:45:00 AM 0 32 0 7.42 1.93 7.52
8/12/2021 5:00:00 AM 0 32 0 7.43 1.86 7.56
8/12/2021 5:15:00 AM 0 32 0 7.44 2.13 7.59
8/12/2021 5:30:00 AM 0 32 0 7.43 2.2 7.61
8/12/2021 5:45:00 AM 0 32 0 7.43 2.21 7.59
8/12/2021 6:00:00 AM 0 32 0 7.42 1.82 7.57
8/12/2021 6:15:00 AM 0 32 0 7.42 2.11 7.62
8/12/2021 6:30:00 AM 0 32 0 7.43 2.54 7.66
8/12/2021 6:45:00 AM 0 32 0 7.42 2.06 7.62
8/12/2021 7:00:00 AM 0 32 0 7.42 2.04 7.72
8/12/2021 7:15:00 AM 0 32 0 7.45 1.96 7.81
8/12/2021 7:30:00 AM 0 32 0 7.45 1.88 7.92
8/12/2021 7:45:00 AM 0 32 0 7.47 1.87 8
8/12/2021 8:00:00 AM 0 32 0 7.47 1.9 8.04
8/12/2021 8:15:00 AM 0 32 0 7.49 2.34 8.17
8/12/2021 8:30:00 AM 0 32 0 7.51 1.84 8.27
8/12/2021 8:45:00 AM 0 32 0 7.54 1.74 8.43
8/12/2021 9:00:00 AM 0 32 0 7.56 1.49 8.57
8/12/2021 9:15:00 AM 0 32 0 7.59 1.87 8.69
8/12/2021 9:30:00 AM 0 32 0 7.62 1.7 8.81
8/12/2021 9:45:00 AM 0 32 0 7.65 1.57 8.93
8/12/2021 10:00:00 AM 0 32 0 7.68 1.65 9
8/12/2021 10:15:00 AM 0 32 0 7.72 2.19 9.07
8/12/2021 10:30:00 AM 0 32 0 7.77 1.59 9.26
8/12/2021 10:45:00 AM 0 32 0 7.82 1.54 9.39
8/12/2021 11:00:00 AM 0 32 0 7.86 1.67 9.49
8/12/2021 11:15:00 AM 0 32 0 7.9 1.83 9.57
8/12/2021 11:30:00 AM 0 32 0 7.94 1.48 9.64
8/12/2021 11:45:00 AM 0 32 0 7.99 1.95 9.71
8/12/2021 12:00:00 PM 0 32 0 8.02 1.42 9.7
8/12/2021 12:15:00 PM 0 32 0 8.08 1.66 9.83
8/12/2021 12:30:00 PM 0 32 0 8.14 1.57 9.98
8/12/2021 12:45:00 PM 0 32 0 8.21 1.56 10.04
8/12/2021 1:00:00 PM 0 32 0 8.26 1.55 10.11
8/12/2021 1:15:00 PM 25.06 77.108 0.125 8.25 6.31 9.57
8/12/2021 1:30:00 PM 24.98 76.964 0.125 8.26 1.07 9.72
8/12/2021 1:45:00 PM 24.92 76.856 0.125 8.26 0.98 9.63
8/12/2021 2:00:00 PM 24.93 76.874 0.125 8.23 1.3 9.53
8/12/2021 2:15:00 PM 24.93 76.874 0.125 8.24 1.06 9.48
8/12/2021 2:30:00 PM 24.74 76.532 0.126 8.02 1.01 9.17
8/12/2021 2:45:00 PM 24.67 76.406 0.125 8.11 1.03 9.16
8/12/2021 3:00:00 PM 24.62 76.316 0.125 8.13 0.98 9.16
8/12/2021 3:15:00 PM 24.49 76.082 0.125 8.05 1.04 8.99
8/12/2021 3:30:00 PM 24.77 76.586 0.125 8.15 1.09 9.23
8/12/2021 3:45:00 PM 25.03 77.054 0.125 8.18 0.87 9.26
8/12/2021 4:00:00 PM 25.17 77.306 0.125 8.2 1.22 9.28
8/12/2021 4:15:00 PM 25.27 77.486 0.125 8.23 0.89 9.3
8/12/2021 4:30:00 PM 25.26 77.468 0.125 8.24 0.93 9.25
8/12/2021 4:45:00 PM 25.14 77.252 0.126 8.2 1.22 9.12
8/12/2021 5:00:00 PM 24.99 76.982 0.126 8.15 1.06 9.02
8/12/2021 5:15:00 PM 24.87 76.766 0.126 8.11 0.96 8.91
8/12/2021 5:30:00 PM 24.74 76.532 0.126 8.03 0.93 8.76
8/12/2021 5:45:00 PM 24.65 76.37 0.126 7.97 0.96 8.65
8/12/2021 6:00:00 PM 24.56 76.208 0.126 7.9 1.1 8.49
8/12/2021 6:15:00 PM 24.47 76.046 0.126 7.85 1.02 8.41
8/12/2021 6:30:00 PM 24.39 75.902 0.126 7.81 0.79 8.32
8/12/2021 6:45:00 PM 24.28 75.704 0.127 7.74 1.01 8.18
8/12/2021 7:00:00 PM 24.18 75.524 0.127 7.69 0.95 8.04
8/12/2021 7:15:00 PM 24.09 75.362 0.127 7.64 1.04 7.89
8/12/2021 7:30:00 PM 24.01 75.218 0.127 7.58 1.03 7.73
8/12/2021 7:45:00 PM 23.94 75.092 0.127 7.55 1.06 7.67
8/12/2021 8:00:00 PM 23.89 75.002 0.127 7.51 0.95 7.54
8/12/2021 8:15:00 PM 23.83 74.894 0.127 7.49 1.16 7.5
8/12/2021 8:30:00 PM 23.8 74.84 0.127 7.46 1.08 7.44
8/12/2021 8:45:00 PM 23.78 74.804 0.127 7.44 1.08 7.37
8/12/2021 9:00:00 PM 23.77 74.786 0.127 7.42 1.63 7.32
8/12/2021 9:15:00 PM 23.71 74.67799 0.12 7.41 4.55 7.41
8/12/2021 9:30:00 PM 23.65 74.57 0.124 7.4 1.98 7.35
8/12/2021 9:45:00 PM 23.58 74.444 0.112 7.38 6.49 7.43
8/12/2021 10:00:00 PM 23.49 74.282 0.113 7.38 3.99 7.5
8/12/2021 10:15:00 PM 23.49 74.282 0.12 7.38 2.89 7.4
8/12/2021 10:30:00 PM 23.43 74.174 0.119 7.35 4.43 7.36
8/12/2021 10:45:00 PM 23.42 74.156 0.12 7.35 6.18 7.3
8/12/2021 11:00:00 PM 23.39 74.102 0.12 7.33 3.61 7.28
8/12/2021 11:15:00 PM 23.38 74.084 0.12 7.34 4.03 7.27
8/12/2021 11:30:00 PM 23.36 74.048 0.12 7.34 4.78 7.27
8/12/2021 11:45:00 PM 23.33 73.994 0.121 7.34 5.95 7.25
8/13/2021 12:00:00 AM 23.31 73.958 0.124 7.34 7.35 7.23
8/13/2021 12:15:00 AM 23.28 73.904 0.126 7.34 7.47 7.23
8/13/2021 12:30:00 AM 23.22 73.796 0.129 7.35 6.89 7.25
8/13/2021 12:45:00 AM 23.14 73.652 0.133 7.36 7.76 7.27
8/13/2021 1:00:00 AM 23.06 73.508 0.135 7.36 9.66 7.28
8/13/2021 1:15:00 AM 22.95 73.31 0.136 7.36 9.79 7.3
8/13/2021 1:30:00 AM 22.85 73.13 0.136 7.37 9.55 7.35
8/13/2021 1:45:00 AM 22.77 72.986 0.135 7.37 7.95 7.39
8/13/2021 2:00:00 AM 22.69 72.842 0.135 7.37 7.42 7.42
8/13/2021 2:15:00 AM 22.6 72.68 0.134 7.38 8.2 7.46
8/13/2021 2:30:00 AM 22.53 72.554 0.133 7.36 7.19 7.48
8/13/2021 2:45:00 AM 22.46 72.42799 0.133 7.37 7.68 7.49
8/13/2021 3:00:00 AM 22.39 72.302 0.132 7.37 9.04 7.5
8/13/2021 3:15:00 AM 22.33 72.194 0.131 7.37 13.25 7.56
8/13/2021 3:30:00 AM 22.3 72.14 0.127 7.35 14.58 7.59
8/13/2021 3:45:00 AM 22.25 72.05 0.127 7.35 12.41 7.6
8/13/2021 4:00:00 AM 22.21 71.978 0.126 7.35 13.01 7.65
8/13/2021 4:15:00 AM 22.18 71.924 0.125 7.36 12.19 7.69
8/13/2021 4:30:00 AM 22.15 71.87 0.125 7.36 13.23 7.71
8/13/2021 4:45:00 AM 22.11 71.798 0.125 7.37 11.02 7.72
8/13/2021 5:00:00 AM 22.08 71.744 0.125 7.37 10.43 7.73
8/13/2021 5:15:00 AM 22.04 71.672 0.125 7.37 9.97 7.75
8/13/2021 5:30:00 AM 22.01 71.618 0.124 7.37 8.96 7.76
8/13/2021 5:45:00 AM 21.97 71.546 0.123 7.37 9.24 7.78
8/13/2021 6:00:00 AM 21.92 71.456 0.123 7.37 8.57 7.79
8/13/2021 6:15:00 AM 21.87 71.366 0.122 7.37 8.21 7.8
8/13/2021 6:30:00 AM 21.82 71.276 0.122 7.37 7.26 7.81
8/13/2021 6:45:00 AM 21.77 71.186 0.121 7.37 6.78 7.83
8/13/2021 7:00:00 AM 21.71 71.078 0.121 7.37 6.34 7.86
8/13/2021 7:15:00 AM 21.67 71.006 0.121 7.38 6.27 7.89
8/13/2021 7:30:00 AM 21.63 70.934 0.12 7.38 6.48 7.94
8/13/2021 7:45:00 AM 21.61 70.898 0.12 7.39 5.48 8.01
8/13/2021 8:00:00 AM 21.56 70.808 0.119 7.4 5.39 8.03
8/13/2021 8:15:00 AM 21.54 70.772 0.119 7.4 5.59 8.1
8/13/2021 8:30:00 AM 21.54 70.772 0.119 7.42 5.69 8.19
8/13/2021 8:45:00 AM 21.55 70.79 0.119 7.44 5.79 8.25
8/13/2021 9:00:00 AM 21.59 70.862 0.119 7.44 5.45 8.32
8/13/2021 9:15:00 AM 21.63 70.934 0.119 7.47 4.97 8.4
8/13/2021 9:30:00 AM 21.69 71.042 0.119 7.48 5.64 8.47
8/13/2021 9:45:00 AM 21.75 71.15 0.119 7.51 5.65 8.52
8/13/2021 10:00:00 AM 21.8 71.24 0.119 7.52 5.8 8.58
8/13/2021 10:15:00 AM 21.89 71.402 0.119 7.54 6.08 8.64
8/13/2021 10:30:00 AM 22.02 71.636 0.119 7.56 6.51 8.72
8/13/2021 10:45:00 AM 22.17 71.906 0.119 7.59 5.9 8.78
8/13/2021 11:00:00 AM 22.27 72.086 0.119 7.63 6.7 8.84
8/13/2021 11:15:00 AM 22.4 72.32 0.119 7.65 6.23 8.91
8/13/2021 11:30:00 AM 22.54 72.57201 0.119 7.68 6.94 8.97
8/13/2021 11:45:00 AM 22.65 72.77 0.118 7.69 6.93 8.99
8/13/2021 12:00:00 PM 22.8 73.04 0.118 7.72 6.96 9.03
8/13/2021 12:15:00 PM 22.99 73.382 0.118 7.75 6.51 9.05
8/13/2021 12:30:00 PM 23.24 73.832 0.118 7.8 6.65 9.16
8/13/2021 12:45:00 PM 23.44 74.192 0.118 7.82 6.48 9.19
8/13/2021 1:00:00 PM 23.66 74.588 0.118 7.86 6.77 9.24
8/13/2021 1:15:00 PM 23.89 75.002 0.118 7.92 6.72 9.33
8/13/2021 1:30:00 PM 24.12 75.416 0.118 7.95 6.48 9.34
8/13/2021 1:45:00 PM 24.31 75.758 0.118 7.99 7.46 9.36
8/13/2021 2:00:00 PM 24.54 76.172 0.119 8.01 6.93 9.37
8/13/2021 2:15:00 PM 24.71 76.478 0.119 8.05 7.15 9.37
8/13/2021 2:30:00 PM 24.88 76.784 0.12 8.08 7.41 9.39
8/13/2021 2:45:00 PM 25 77 0.12 8.1 8.14 9.39
8/13/2021 3:00:00 PM 25.15 77.27 0.121 8.11 8.27 9.35
8/13/2021 3:15:00 PM 25.11 77.198 0.121 8.1 8.66 9.28
8/13/2021 3:30:00 PM 24.92 76.856 0.122 8.04 8.66 9.07
8/13/2021 3:45:00 PM 24.89 76.802 0.123 8.02 8.73 9.04
8/13/2021 4:00:00 PM 24.8 76.64 0.123 7.95 8.94 8.86
8/13/2021 4:15:00 PM 24.88 76.784 0.124 7.96 8.75 8.91
8/13/2021 4:30:00 PM 24.9 76.82 0.124 7.97 9.46 8.89
8/13/2021 4:45:00 PM 24.8 76.64 0.125 7.91 9.45 8.72
8/13/2021 5:00:00 PM 24.64 76.352 0.126 7.83 9.42 8.49
8/13/2021 5:15:00 PM 24.49 76.082 0.126 7.74 8.86 8.27
8/13/2021 5:30:00 PM 24.39 75.902 0.126 7.69 10.12 8.08
8/13/2021 5:45:00 PM 24.29 75.722 0.122 7.63 10.11 7.96
8/13/2021 6:00:00 PM 24.24 75.632 0.123 7.61 9.72 7.92
8/13/2021 6:15:00 PM 24.19 75.542 0.124 7.59 8.94 7.88
8/13/2021 6:30:00 PM 24.16 75.488 0.124 7.56 9.19 7.8
8/13/2021 6:45:00 PM 24.08 75.344 0.124 7.52 9.43 7.69
8/13/2021 7:00:00 PM 24.04 75.272 0.124 7.49 9.24 7.63
8/13/2021 7:15:00 PM 24.01 75.218 0.124 7.49 9.07 7.61
8/13/2021 7:30:00 PM 23.97 75.146 0.123 7.47 10.26 7.56
8/13/2021 7:45:00 PM 23.93 75.074 0.122 7.45 11.93 7.57
8/13/2021 8:00:00 PM 23.89 75.002 0.123 7.45 13.17 7.56
8/13/2021 8:15:00 PM 23.85 74.93 0.125 7.43 21.72 7.53
8/13/2021 8:30:00 PM 23.77 74.786 0.128 7.44 24.15 7.55
8/13/2021 8:45:00 PM 23.53 74.354 0.129 7.43 28.25 7.55
8/13/2021 9:00:00 PM 23.28 73.904 0.128 7.45 26.33 7.6
8/13/2021 9:15:00 PM 23.11 73.598 0.127 7.45 28.36 7.64
8/13/2021 9:30:00 PM 22.99 73.382 0.126 7.47 33.79 7.62
8/13/2021 9:45:00 PM 22.9 73.22 0.126 7.47 47.41 7.65
8/13/2021 10:00:00 PM 22.82 73.076 0.126 7.48 62.13 7.65
8/13/2021 10:15:00 PM 22.76 72.968 0.125 7.48 68.62 7.66
8/13/2021 10:30:00 PM 22.7 72.86 0.125 7.48 65.93 7.67
8/13/2021 10:45:00 PM 22.65 72.77 0.127 7.53 62.85 7.67
8/13/2021 11:00:00 PM 22.61 72.698 0.129 7.57 60.84 7.69
8/13/2021 11:15:00 PM 22.55 72.59 0.129 7.58 61.44 7.7
8/13/2021 11:30:00 PM 22.48 72.464 0.128 7.58 65.11 7.73
8/13/2021 11:45:00 PM 22.41 72.338 0.128 7.56 75.12 7.74
8/14/2021 12:00:00 AM 22.34 72.212 0.127 7.54 84.41 7.75
8/14/2021 12:15:00 AM 22.27 72.086 0.127 7.51 86.69 7.75
8/14/2021 12:30:00 AM 22.21 71.978 0.126 7.51 76.59 7.76
8/14/2021 12:45:00 AM 22.14 71.852 0.125 7.49 71.59 7.78
8/14/2021 1:00:00 AM 22.07 71.726 0.123 7.48 57.8 7.83
8/14/2021 1:15:00 AM 22.01 71.618 0.123 7.47 50.32 7.85
8/14/2021 1:30:00 AM 21.95 71.51 0.122 7.44 46.47 7.86
8/14/2021 1:45:00 AM 21.89 71.402 0.122 7.45 35.21 7.88
8/14/2021 2:00:00 AM 21.84 71.312 0.121 7.43 31.3 7.89
8/14/2021 2:15:00 AM 21.78 71.204 0.121 7.42 29.16 7.89
8/14/2021 2:30:00 AM 21.73 71.114 0.12 7.41 26.28 7.9
8/14/2021 2:45:00 AM 21.68 71.024 0.12 7.41 24.02 7.89
8/14/2021 3:00:00 AM 21.64 70.952 0.121 7.41 23.25 7.89
8/14/2021 3:15:00 AM 21.59 70.862 0.121 7.41 23.06 7.89
8/14/2021 3:30:00 AM 21.55 70.79 0.121 7.41 23.83 7.89
8/14/2021 3:45:00 AM 21.51 70.718 0.121 7.39 22.42 7.89
8/14/2021 4:00:00 AM 21.47 70.646 0.121 7.4 22.09 7.9
8/14/2021 4:15:00 AM 21.43 70.574 0.121 7.4 20.38 7.88
8/14/2021 4:30:00 AM 21.39 70.502 0.121 7.4 22.07 7.91
8/14/2021 4:45:00 AM 21.35 70.43 0.121 7.4 22.48 7.92
8/14/2021 5:00:00 AM 21.32 70.376 0.121 7.4 20.84 7.93
8/14/2021 5:15:00 AM 21.28 70.304 0.122 7.39 20.67 7.93
8/14/2021 5:30:00 AM 21.25 70.25 0.122 7.39 20.82 7.94
8/14/2021 5:45:00 AM 21.21 70.17799 0.123 7.38 22.06 7.95
8/14/2021 6:00:00 AM 21.18 70.124 0.123 7.39 21.28 7.96
8/14/2021 6:15:00 AM 21.15 70.07 0.123 7.39 20.22 7.96
8/14/2021 6:30:00 AM 21.12 70.016 0.124 7.39 23.68 7.97
8/14/2021 6:45:00 AM 21.1 69.98 0.125 7.39 24.83 7.98
8/14/2021 7:00:00 AM 21.07 69.926 0.125 7.38 25.5 7.98
8/14/2021 7:15:00 AM 21.06 69.908 0.126 7.38 29.29 8.01
8/14/2021 7:30:00 AM 21.05 69.89 0.126 7.39 28.12 8.01
8/14/2021 7:45:00 AM 21.06 69.908 0.126 7.4 29.42 8.06
8/14/2021 8:00:00 AM 21.1 69.98 0.126 7.41 28.73 8.13
8/14/2021 8:15:00 AM 21.09 69.962 0.127 7.41 28.54 8.12
8/14/2021 8:30:00 AM 21.11 69.998 0.127 7.41 25.86 8.18
8/14/2021 8:45:00 AM 21.16 70.088 0.128 7.43 27.29 8.25
8/14/2021 9:00:00 AM 21.15 70.07 0.128 7.45 23.03 8.24
8/14/2021 9:15:00 AM 21.16 70.088 0.129 7.44 21.66 8.26
8/14/2021 9:30:00 AM 21.19 70.142 0.129 7.46 20.33 8.32
8/14/2021 9:45:00 AM 21.2 70.16 0.129 7.47 20.48 8.33
8/14/2021 10:00:00 AM 21.21 70.17799 0.13 7.47 18.9 8.35
8/14/2021 10:15:00 AM 21.24 70.232 0.13 7.49 15.7 8.42
8/14/2021 10:30:00 AM 21.36 70.448 0.13 7.52 14.96 8.55
8/14/2021 10:45:00 AM 21.44 70.592 0.13 7.54 14.04 8.6
8/14/2021 11:00:00 AM 21.43 70.574 0.13 7.55 13.19 8.6
8/14/2021 11:15:00 AM 21.36 70.448 0.131 7.54 12.08 8.49
8/14/2021 11:30:00 AM 21.33 70.394 0.131 7.53 10.78 8.45
8/14/2021 11:45:00 AM 21.33 70.394 0.131 7.54 10.72 8.45
8/14/2021 12:00:00 PM 21.34 70.412 0.131 7.54 10.27 8.5
8/14/2021 12:15:00 PM 21.38 70.484 0.13 7.57 9.91 8.6
8/14/2021 12:30:00 PM 21.53 70.754 0.13 7.61 9.02 8.76
8/14/2021 12:45:00 PM 21.56 70.808 0.13 7.65 8.76 8.81
8/14/2021 1:00:00 PM 21.57 70.826 0.13 7.67 8.99 8.86
8/14/2021 1:15:00 PM 21.59 70.862 0.13 7.69 8.15 8.92
8/14/2021 1:30:00 PM 21.59 70.862 0.13 7.71 8.28 8.94
8/14/2021 1:45:00 PM 21.59 70.862 0.13 7.71 7.48 8.92
8/14/2021 2:00:00 PM 21.65 70.97 0.13 7.74 7.16 9.01
8/14/2021 2:15:00 PM 21.7 71.06 0.13 7.76 7.32 9
8/14/2021 2:30:00 PM 21.78 71.204 0.13 7.79 7 9.1
8/14/2021 2:45:00 PM 21.8 71.24 0.13 7.8 6.99 9.11
8/14/2021 3:00:00 PM 21.92 71.456 0.13 7.84 6.7 9.17
8/14/2021 3:15:00 PM 22.02 71.636 0.13 7.87 6.18 9.21
8/14/2021 3:30:00 PM 22.18 71.924 0.13 7.9 5.83 9.24
8/14/2021 3:45:00 PM 22.29 72.122 0.13 7.93 6.28 9.28
8/14/2021 4:00:00 PM 22.34 72.212 0.13 7.92 5.68 9.24
8/14/2021 4:15:00 PM 22.31 72.158 0.13 7.9 5.73 9.16
8/14/2021 4:30:00 PM 22.31 72.158 0.13 7.88 5.45 9.07
8/14/2021 4:45:00 PM 22.29 72.122 0.13 7.85 5.35 8.99
8/14/2021 5:00:00 PM 22.23 72.014 0.13 7.82 5.29 8.87
8/14/2021 5:15:00 PM 22.18 71.924 0.13 7.77 4.48 8.76
8/14/2021 5:30:00 PM 22.12 71.816 0.13 7.75 5.07 8.67
8/14/2021 5:45:00 PM 22.08 71.744 0.131 7.72 4.63 8.59
8/14/2021 6:00:00 PM 22.04 71.672 0.131 7.68 4.54 8.52
8/14/2021 6:15:00 PM 22 71.6 0.131 7.67 4.46 8.44
8/14/2021 6:30:00 PM 21.96 71.528 0.131 7.63 4.34 8.37
8/14/2021 6:45:00 PM 21.93 71.474 0.131 7.62 4.2 8.3
8/14/2021 7:00:00 PM 21.91 71.438 0.13 7.6 3.77 8.24
8/14/2021 7:15:00 PM 21.89 71.402 0.13 7.59 4.17 8.2
8/14/2021 7:30:00 PM 21.87 71.366 0.13 7.57 3.92 8.17
8/14/2021 7:45:00 PM 21.84 71.312 0.13 7.56 3.67 8.12
8/14/2021 8:00:00 PM 21.8 71.24 0.13 7.53 3.73 8.08
8/14/2021 8:15:00 PM 21.77 71.186 0.13 7.53 3.61 8.03
8/14/2021 8:30:00 PM 21.72 71.096 0.13 7.52 3.94 7.99
8/14/2021 8:45:00 PM 21.68 71.024 0.13 7.49 3.8 7.96
8/14/2021 9:00:00 PM 21.63 70.934 0.13 7.49 4.35 7.94
8/14/2021 9:15:00 PM 21.57 70.826 0.13 7.48 5.38 7.92
8/14/2021 9:30:00 PM 21.51 70.718 0.13 7.47 3.74 7.91
8/14/2021 9:45:00 PM 21.45 70.61 0.13 7.47 3.97 7.91
8/14/2021 10:00:00 PM 21.39 70.502 0.13 7.47 3.87 7.91
8/14/2021 10:15:00 PM 21.34 70.412 0.13 7.46 4.18 7.9
8/14/2021 10:30:00 PM 21.27 70.286 0.13 7.45 3.94 7.91
8/14/2021 10:45:00 PM 21.21 70.17799 0.13 7.44 4.14 7.91
8/14/2021 11:00:00 PM 21.14 70.052 0.13 7.44 3.9 7.91
8/14/2021 11:15:00 PM 21.07 69.926 0.13 7.43 4.06 7.91
8/14/2021 11:30:00 PM 21.01 69.818 0.13 7.43 3.69 7.91
8/14/2021 11:45:00 PM 20.93 69.674 0.13 7.41 3.77 7.91
8/15/2021 12:00:00 AM 20.86 69.548 0.13 7.42 3.8 7.94
8/15/2021 12:15:00 AM 20.79 69.422 0.13 7.42 3.63 7.94
8/15/2021 12:30:00 AM 20.72 69.296 0.13 7.42 3.99 7.95
8/15/2021 12:45:00 AM 20.65 69.17 0.13 7.41 3.97 7.96
8/15/2021 1:00:00 AM 20.58 69.044 0.13 7.41 3.69 7.97
8/15/2021 1:15:00 AM 20.51 68.918 0.13 7.4 4.26 7.98
8/15/2021 1:30:00 AM 20.44 68.792 0.13 7.41 4.16 7.98
8/15/2021 1:45:00 AM 20.38 68.684 0.13 7.4 3.54 8
8/15/2021 2:00:00 AM 20.31 68.558 0.13 7.4 3.66 8
8/15/2021 2:15:00 AM 20.24 68.432 0.13 7.4 3.61 8.01
8/15/2021 2:30:00 AM 20.18 68.324 0.13 7.4 3.56 8.02
8/15/2021 2:45:00 AM 20.12 68.216 0.13 7.4 4.23 8.04
8/15/2021 3:00:00 AM 20.05 68.09 0.13 7.38 3.68 8.06
8/15/2021 3:15:00 AM 19.98 67.964 0.13 7.39 3.74 8.07
8/15/2021 3:30:00 AM 19.91 67.838 0.131 7.4 3.46 8.08
8/15/2021 3:45:00 AM 19.83 67.694 0.131 7.39 3.45 8.1
8/15/2021 4:00:00 AM 19.77 67.586 0.131 7.4 3.22 8.12
8/15/2021 4:15:00 AM 19.69 67.442 0.131 7.4 3.68 8.13
8/15/2021 4:30:00 AM 19.63 67.334 0.131 7.38 3.5 8.14
8/15/2021 4:45:00 AM 19.55 67.19 0.131 7.39 3.75 8.15
8/15/2021 5:00:00 AM 19.48 67.064 0.131 7.4 3.97 8.17
8/15/2021 5:15:00 AM 19.42 66.956 0.131 7.39 3.79 8.18
8/15/2021 5:30:00 AM 19.34 66.812 0.131 7.4 3.52 8.21
8/15/2021 5:45:00 AM 19.28 66.704 0.131 7.4 3.41 8.23
8/15/2021 6:00:00 AM 19.22 66.596 0.131 7.38 3.94 8.23
8/15/2021 6:15:00 AM 19.16 66.488 0.131 7.4 3.31 8.24
8/15/2021 6:30:00 AM 19.09 66.362 0.131 7.38 3.58 8.26
8/15/2021 6:45:00 AM 19.04 66.272 0.131 7.4 3.23 8.3
8/15/2021 7:00:00 AM 18.98 66.164 0.131 7.4 3.14 8.35
8/15/2021 7:15:00 AM 18.94 66.092 0.131 7.41 3.29 8.39
8/15/2021 7:30:00 AM 18.9 66.02 0.131 7.43 2.87 8.46
8/15/2021 7:45:00 AM 18.88 65.984 0.131 7.42 3.15 8.54
8/15/2021 8:00:00 AM 18.85 65.93 0.131 7.44 2.95 8.61
8/15/2021 8:15:00 AM 18.84 65.912 0.131 7.46 2.89 8.69
8/15/2021 8:30:00 AM 18.84 65.912 0.131 7.49 2.74 8.8
8/15/2021 8:45:00 AM 18.84 65.912 0.131 7.5 2.69 8.89
8/15/2021 9:00:00 AM 18.83 65.894 0.131 7.52 2.57 8.94
8/15/2021 9:15:00 AM 18.84 65.912 0.131 7.54 2.58 9.01
8/15/2021 9:30:00 AM 18.86 65.948 0.131 7.55 2.34 9.11
8/15/2021 9:45:00 AM 18.9 66.02 0.131 7.6 2.51 9.24
8/15/2021 10:00:00 AM 18.97 66.146 0.131 7.63 2.24 9.35
8/15/2021 10:15:00 AM 19.07 66.326 0.131 7.66 2.45 9.44
8/15/2021 10:30:00 AM 19.28 66.704 0.131 7.71 2.19 9.56
8/15/2021 10:45:00 AM 19.36 66.848 0.131 7.73 2.19 9.62
8/15/2021 11:00:00 AM 19.47 67.046 0.13 7.77 2.11 9.71
8/15/2021 11:15:00 AM 19.61 67.298 0.13 7.81 2.11 9.74
8/15/2021 11:30:00 AM 19.85 67.73 0.13 7.83 2.11 9.78
8/15/2021 11:45:00 AM 20.01 68.018 0.13 7.87 2.01 9.82
8/15/2021 12:00:00 PM 20.08 68.144 0.13 7.89 1.91 9.84
8/15/2021 12:15:00 PM 20.35 68.63 0.13 7.95 2.1 9.94
8/15/2021 12:30:00 PM 20.56 69.008 0.13 7.99 2.64 9.98
8/15/2021 12:45:00 PM 20.79 69.422 0.13 8.03 2.22 10.04
8/15/2021 1:00:00 PM 20.88 69.584 0.13 8.07 1.96 10.04
8/15/2021 1:15:00 PM 21.07 69.926 0.13 8.1 1.84 10.08
8/15/2021 1:30:00 PM 21.23 70.214 0.13 8.15 1.93 10.13
8/15/2021 1:45:00 PM 21.34 70.412 0.129 8.18 2.07 10.13
8/15/2021 2:00:00 PM 21.54 70.772 0.129 8.22 1.86 10.14
8/15/2021 2:15:00 PM 21.64 70.952 0.129 8.24 2.08 10.14
8/15/2021 2:30:00 PM 21.78 71.204 0.129 8.27 1.95 10.16
8/15/2021 2:45:00 PM 21.87 71.366 0.129 8.28 2.04 10.12
8/15/2021 3:00:00 PM 21.77 71.186 0.129 8.29 1.89 10.07
8/15/2021 3:15:00 PM 21.8 71.24 0.129 8.31 1.76 10.08
8/15/2021 3:30:00 PM 21.84 71.312 0.129 8.32 1.8 10.04
8/15/2021 3:45:00 PM 21.79 71.222 0.129 8.29 1.87 9.95
8/15/2021 4:00:00 PM 21.71 71.078 0.129 8.27 1.71 9.85
8/15/2021 4:15:00 PM 21.66 70.988 0.129 8.26 1.83 9.79
8/15/2021 4:30:00 PM 21.62 70.916 0.129 8.23 1.89 9.7
8/15/2021 4:45:00 PM 21.6 70.88 0.129 8.21 1.85 9.65
8/15/2021 5:00:00 PM 21.6 70.88 0.129 8.19 1.71 9.56
8/15/2021 5:15:00 PM 21.58 70.844 0.129 8.17 1.69 9.54
8/15/2021 5:30:00 PM 21.56 70.808 0.129 8.15 2.06 9.47
8/15/2021 5:45:00 PM 21.57 70.826 0.129 8.12 1.69 9.41
8/15/2021 6:00:00 PM 21.58 70.844 0.129 8.11 1.52 9.37
8/15/2021 6:15:00 PM 21.54 70.772 0.129 8.05 1.72 9.25
8/15/2021 6:30:00 PM 21.47 70.646 0.129 7.99 1.73 9.11
8/15/2021 6:45:00 PM 21.42 70.556 0.129 7.93 1.67 8.98
8/15/2021 7:00:00 PM 21.38 70.484 0.129 7.87 1.69 8.85
8/15/2021 7:15:00 PM 21.35 70.43 0.129 7.83 1.56 8.75
8/15/2021 7:30:00 PM 21.32 70.376 0.129 7.77 1.68 8.64
8/15/2021 7:45:00 PM 21.28 70.304 0.129 7.74 1.55 8.52
8/15/2021 8:00:00 PM 21.25 70.25 0.129 7.68 1.68 8.4
8/15/2021 8:15:00 PM 21.2 70.16 0.129 7.66 1.73 8.31
8/15/2021 8:30:00 PM 21.17 70.106 0.129 7.62 1.72 8.21
8/15/2021 8:45:00 PM 21.13 70.034 0.13 7.59 2.02 8.16
8/15/2021 9:00:00 PM 21.09 69.962 0.13 7.56 2.09 8.1
8/15/2021 9:15:00 PM 21.04 69.872 0.13 7.55 1.8 8.06
8/15/2021 9:30:00 PM 21 69.8 0.13 7.54 1.87 8.03
8/15/2021 9:45:00 PM 20.96 69.728 0.13 7.52 1.96 8
8/15/2021 10:00:00 PM 20.91 69.638 0.13 7.51 1.97 7.98
8/15/2021 10:15:00 PM 20.86 69.548 0.13 7.48 2.08 7.96
8/15/2021 10:30:00 PM 20.81 69.458 0.13 7.48 1.95 7.94
8/15/2021 10:45:00 PM 20.77 69.386 0.13 7.47 1.82 7.94
8/15/2021 11:00:00 PM 20.73 69.314 0.13 7.46 2.12 7.93
8/15/2021 11:15:00 PM 20.68 69.224 0.13 7.45 2 7.94
8/15/2021 11:30:00 PM 20.63 69.134 0.13 7.44 2.13 7.94
8/15/2021 11:45:00 PM 20.59 69.062 0.13 7.44 2.11 7.93
8/16/2021 12:00:00 AM 20.54 68.972 0.13 7.44 2.75 7.94
8/16/2021 12:15:00 AM 20.5 68.9 0.13 7.43 2.01 7.93
8/16/2021 12:30:00 AM 20.45 68.81 0.13 7.42 2.47 7.94
8/16/2021 12:45:00 AM 20.41 68.738 0.13 7.42 2.3 7.93
8/16/2021 1:00:00 AM 20.36 68.648 0.13 7.42 2.12 7.93
8/16/2021 1:15:00 AM 20.32 68.576 0.13 7.41 2.16 7.94
8/16/2021 1:30:00 AM 20.28 68.504 0.13 7.39 2.2 7.93
8/16/2021 1:45:00 AM 20.25 68.45 0.13 7.41 2.38 7.92
8/16/2021 2:00:00 AM 20.2 68.36 0.13 7.41 2.23 7.94
8/16/2021 2:15:00 AM 20.17 68.306 0.13 7.41 2.08 7.94
8/16/2021 2:30:00 AM 20.13 68.234 0.13 7.39 2.16 7.96
8/16/2021 2:45:00 AM 20.1 68.18 0.13 7.4 2.37 7.96
8/16/2021 3:00:00 AM 20.07 68.126 0.13 7.39 2.5 7.93
8/16/2021 3:15:00 AM 20.04 68.07201 0.13 7.37 2.26 7.95
8/16/2021 3:30:00 AM 20.01 68.018 0.13 7.39 2.11 7.96
8/16/2021 3:45:00 AM 19.99 67.982 0.13 7.38 2.13 7.97
8/16/2021 4:00:00 AM 19.95 67.91 0.13 7.39 2.11 7.96
8/16/2021 4:15:00 AM 19.92 67.856 0.13 7.39 2.08 7.98
8/16/2021 4:30:00 AM 19.89 67.802 0.13 7.38 2.14 7.99
8/16/2021 4:45:00 AM 19.87 67.766 0.13 7.38 2.23 8
8/16/2021 5:00:00 AM 19.84 67.712 0.13 7.38 2.11 8
8/16/2021 5:15:00 AM 19.82 67.676 0.13 7.38 2.59 8.02
8/16/2021 5:30:00 AM 19.78 67.604 0.13 7.36 2.13 8.02
8/16/2021 5:45:00 AM 19.76 67.568 0.13 7.37 2.42 8.02
8/16/2021 6:00:00 AM 19.73 67.514 0.13 7.37 2.14 8.02
8/16/2021 6:15:00 AM 19.7 67.46 0.13 7.38 2.43 8.03
8/16/2021 6:30:00 AM 19.68 67.424 0.13 7.36 2.29 8.02
8/16/2021 6:45:00 AM 19.65 67.37 0.13 7.38 1.93 8.05
8/16/2021 7:00:00 AM 19.63 67.334 0.13 7.39 2.03 8.08
8/16/2021 7:15:00 AM 19.62 67.316 0.13 7.39 1.78 8.11
8/16/2021 7:30:00 AM 19.6 67.28 0.13 7.38 2.27 8.15
8/16/2021 7:45:00 AM 19.6 67.28 0.13 7.41 1.94 8.27
8/16/2021 8:00:00 AM 19.61 67.298 0.13 7.43 1.82 8.32
8/16/2021 8:15:00 AM 19.61 67.298 0.13 7.44 1.78 8.41
8/16/2021 8:30:00 AM 19.6 67.28 0.13 7.45 1.89 8.45
8/16/2021 8:45:00 AM 19.6 67.28 0.13 7.46 1.94 8.53
8/16/2021 9:00:00 AM 19.62 67.316 0.13 7.48 1.7 8.64
8/16/2021 9:15:00 AM 19.65 67.37 0.13 7.51 1.59 8.79
8/16/2021 9:30:00 AM 19.69 67.442 0.13 7.54 2.01 8.89
8/16/2021 9:45:00 AM 19.73 67.514 0.13 7.57 1.94 9.03
8/16/2021 10:00:00 AM 19.79 67.622 0.13 7.61 1.63 9.17
8/16/2021 10:15:00 AM 19.86 67.748 0.13 7.66 1.67 9.31
8/16/2021 10:30:00 AM 19.94 67.892 0.13 7.71 1.49 9.43
8/16/2021 10:45:00 AM 20.03 68.054 0.13 7.76 1.63 9.54
8/16/2021 11:00:00 AM 20.12 68.216 0.13 7.79 1.52 9.65
8/16/2021 11:15:00 AM 20.18 68.324 0.13 7.85 1.59 9.68
8/16/2021 11:30:00 AM 20.26 68.468 0.129 7.9 1.73 9.79
8/16/2021 11:45:00 AM 20.3 68.54 0.129 7.94 1.4 9.85
8/16/2021 12:00:00 PM 20.37 68.666 0.129 7.98 1.42 9.91
8/16/2021 12:15:00 PM 20.46 68.828 0.129 8.03 1.29 9.99
8/16/2021 12:30:00 PM 20.49 68.882 0.129 8.05 1.63 9.95
8/16/2021 12:45:00 PM 20.49 68.882 0.129 8.05 1.34 9.9
8/16/2021 1:00:00 PM 20.49 68.882 0.129 8.06 1.51 9.89
8/16/2021 1:15:00 PM 20.49 68.882 0.129 8.04 1.45 9.82
8/16/2021 1:30:00 PM 20.51 68.918 0.129 8.02 1.35 9.76
8/16/2021 1:45:00 PM 20.62 69.116 0.129 8.1 1.31 9.92
8/16/2021 2:00:00 PM 20.7 69.26 0.129 8.11 1.42 9.87
8/16/2021 2:15:00 PM 20.75 69.35 0.129 8.15 1.52 9.96
8/16/2021 2:30:00 PM 20.8 69.44 0.129 8.19 1.44 9.98
8/16/2021 2:45:00 PM 20.84 69.512 0.129 8.2 1.13 9.98
8/16/2021 3:00:00 PM 20.9 69.62 0.129 8.24 1.46 10.01
8/16/2021 3:15:00 PM 20.96 69.728 0.129 8.26 1.41 10.06
8/16/2021 3:30:00 PM 21.03 69.854 0.129 8.28 1.4 10.07
8/16/2021 3:45:00 PM 21.02 69.836 0.129 8.26 1.39 9.97
8/16/2021 4:00:00 PM 21.03 69.854 0.129 8.26 1.28 9.94
8/16/2021 4:15:00 PM 21.04 69.872 0.129 8.24 1.32 9.87
8/16/2021 4:30:00 PM 21.09 69.962 0.129 8.27 1.18 9.93
8/16/2021 4:45:00 PM 21.12 70.016 0.129 8.26 2.49 9.87
8/16/2021 5:00:00 PM 21.17 70.106 0.129 8.27 1.22 9.92
8/16/2021 5:15:00 PM 21.2 70.16 0.129 8.28 1.15 9.86
8/16/2021 5:30:00 PM 21.19 70.142 0.129 8.24 7.58 9.74
8/16/2021 5:45:00 PM 21.17 70.106 0.129 8.17 1.07 9.59
8/16/2021 6:00:00 PM 21.16 70.088 0.129 8.12 1.31 9.48
8/16/2021 6:15:00 PM 21.16 70.088 0.129 8.06 1.26 9.34
8/16/2021 6:30:00 PM 21.14 70.052 0.129 7.98 1.26 9.16
8/16/2021 6:45:00 PM 21.12 70.016 0.129 7.91 1.68 9.02
8/16/2021 7:00:00 PM 21.1 69.98 0.129 7.84 1.18 8.87
8/16/2021 7:15:00 PM 21.09 69.962 0.13 7.79 1.19 8.75
8/16/2021 7:30:00 PM 21.08 69.944 0.13 7.74 1.27 8.62
8/16/2021 7:45:00 PM 21.06 69.908 0.13 7.69 1.48 8.5
8/16/2021 8:00:00 PM 21.05 69.89 0.13 7.65 1.34 8.36
8/16/2021 8:15:00 PM 21.03 69.854 0.13 7.61 1.21 8.29
8/16/2021 8:30:00 PM 21.02 69.836 0.13 7.58 1.66 8.22
8/16/2021 8:45:00 PM 21.01 69.818 0.13 7.56 1.62 8.15
8/16/2021 9:00:00 PM 21 69.8 0.13 7.54 1.37 8.11
8/16/2021 9:15:00 PM 20.98 69.764 0.13 7.51 1.59 8.05
8/16/2021 9:30:00 PM 20.97 69.746 0.13 7.49 1.43 8
8/16/2021 9:45:00 PM 20.95 69.71 0.13 7.48 1.77 7.99
8/16/2021 10:00:00 PM 20.94 69.692 0.13 7.47 1.71 7.97
8/16/2021 10:15:00 PM 20.92 69.656 0.13 7.46 1.7 7.93
8/16/2021 10:30:00 PM 20.9 69.62 0.13 7.44 1.73 7.92
8/16/2021 10:45:00 PM 20.89 69.602 0.13 7.44 1.45 7.9
8/16/2021 11:00:00 PM 20.87 69.566 0.13 7.43 1.52 7.87
8/16/2021 11:15:00 PM 20.84 69.512 0.13 7.42 1.66 7.88
8/16/2021 11:30:00 PM 20.82 69.476 0.13 7.42 1.73 7.87
8/16/2021 11:45:00 PM 20.81 69.458 0.13 7.41 1.99 7.86
8/17/2021 12:00:00 AM 20.79 69.422 0.13 7.4 1.42 7.86
8/17/2021 12:15:00 AM 20.77 69.386 0.13 7.4 1.59 7.85
8/17/2021 12:30:00 AM 20.75 69.35 0.13 7.38 1.54 7.85
8/17/2021 12:45:00 AM 20.73 69.314 0.13 7.39 1.76 7.85
8/17/2021 1:00:00 AM 20.72 69.296 0.13 7.38 1.6 7.84
8/17/2021 1:15:00 AM 20.7 69.26 0.13 7.38 1.88 7.83
8/17/2021 1:30:00 AM 20.69 69.242 0.13 7.39 2.3 7.83
8/17/2021 1:45:00 AM 20.67 69.206 0.13 7.38 1.92 7.83
8/17/2021 2:00:00 AM 20.65 69.17 0.13 7.38 1.93 7.84
8/17/2021 2:15:00 AM 20.64 69.152 0.13 7.37 1.76 7.84
8/17/2021 2:30:00 AM 20.62 69.116 0.13 7.38 1.64 7.84
8/17/2021 2:45:00 AM 20.61 69.098 0.13 7.38 2.02 7.85
8/17/2021 3:00:00 AM 20.59 69.062 0.13 7.36 4.75 7.83
8/17/2021 3:15:00 AM 20.58 69.044 0.13 7.37 2.35 7.83
8/17/2021 3:30:00 AM 20.57 69.026 0.13 7.37 2.08 7.84
8/17/2021 3:45:00 AM 20.55 68.99 0.13 7.37 2.02 7.86
8/17/2021 4:00:00 AM 20.54 68.972 0.13 7.37 1.73 7.85
8/17/2021 4:15:00 AM 20.53 68.954 0.13 7.36 1.86 7.85
8/17/2021 4:30:00 AM 20.52 68.936 0.13 7.37 1.77 7.87
8/17/2021 4:45:00 AM 20.51 68.918 0.13 7.35 2.15 7.86
8/17/2021 5:00:00 AM 20.5 68.9 0.129 7.37 2.8 7.88
8/17/2021 5:15:00 AM 20.49 68.882 0.13 7.36 2.47 7.88
8/17/2021 5:30:00 AM 20.48 68.864 0.13 7.37 2.93 7.88
8/17/2021 5:45:00 AM 20.47 68.846 0.13 7.37 1.83 7.87
8/17/2021 6:00:00 AM 20.46 68.828 0.13 7.37 1.62 7.87
8/17/2021 6:15:00 AM 20.45 68.81 0.13 7.34 1.88 7.84
8/17/2021 6:30:00 AM 20.45 68.81 0.13 7.37 1.7 7.89
8/17/2021 6:45:00 AM 20.44 68.792 0.13 7.36 2.43 7.86
8/17/2021 7:00:00 AM 20.44 68.792 0.13 7.38 1.82 7.91
8/17/2021 7:15:00 AM 20.44 68.792 0.13 7.35 1.71 7.93
8/17/2021 7:30:00 AM 20.43 68.774 0.13 7.38 2 7.96
8/17/2021 7:45:00 AM 20.44 68.792 0.13 7.39 1.86 8
8/17/2021 8:00:00 AM 20.44 68.792 0.13 7.41 1.9 8.06
8/17/2021 8:15:00 AM 20.45 68.81 0.13 7.4 1.69 8.08
8/17/2021 8:30:00 AM 20.45 68.81 0.13 7.41 1.9 8.1
8/17/2021 8:45:00 AM 20.44 68.792 0.13 7.41 2.73 8.1
8/17/2021 9:00:00 AM 20.45 68.81 0.129 7.42 1.91 8.15
8/17/2021 9:15:00 AM 20.45 68.81 0.128 7.43 2.01 8.19
8/17/2021 9:30:00 AM 20.44 68.792 0.129 7.42 1.59 8.21
8/17/2021 9:45:00 AM 20.46 68.828 0.128 7.44 2.19 8.3
8/17/2021 10:00:00 AM 20.48 68.864 0.129 7.47 2.04 8.4
8/17/2021 10:15:00 AM 20.57 69.026 0.128 7.5 2.56 8.66
8/17/2021 10:30:00 AM 20.64 69.152 0.128 7.54 1.78 8.79
8/17/2021 10:45:00 AM 20.66 69.188 0.128 7.57 2.12 8.83
8/17/2021 11:00:00 AM 20.64 69.152 0.128 7.57 2.04 8.81
8/17/2021 11:15:00 AM 20.62 69.116 0.128 7.55 2.13 8.71
8/17/2021 11:30:00 AM 20.6 69.08 0.128 7.54 3.08 8.68
8/17/2021 11:45:00 AM 20.57 69.026 0.128 7.54 6.28 8.64
8/17/2021 12:00:00 PM 20.54 68.972 0.126 7.53 7.61 8.66
8/17/2021 12:15:00 PM 20.56 69.008 0.125 7.54 8.47 8.7
8/17/2021 12:30:00 PM 20.52 68.936 0.126 7.53 9.84 8.68
8/17/2021 12:45:00 PM 20.5 68.9 0.127 7.57 12.2 8.73
8/17/2021 1:00:00 PM 20.47 68.846 0.127 7.57 12.79 8.73
8/17/2021 1:15:00 PM 20.49 68.882 0.127 7.59 18.52 8.75
8/17/2021 1:30:00 PM 20.52 68.936 0.125 7.58 24.04 8.76
8/17/2021 1:45:00 PM 20.59 69.062 0.124 7.6 24.51 8.78
8/17/2021 2:00:00 PM 20.6 69.08 0.123 7.61 22.31 8.77
8/17/2021 2:15:00 PM 20.63 69.134 0.122 7.61 23.27 8.76
8/17/2021 2:30:00 PM 20.69 69.242 0.122 7.62 24.8 8.75
8/17/2021 2:45:00 PM 20.77 69.386 0.121 7.63 27.97 8.76
8/17/2021 3:00:00 PM 20.77 69.386 0.119 7.61 32.28 8.67
8/17/2021 3:15:00 PM 20.82 69.476 0.118 7.6 32.88 8.67
8/17/2021 3:30:00 PM 20.87 69.566 0.116 7.61 38.77 8.67
8/17/2021 3:45:00 PM 20.9 69.62 0.115 7.61 30.99 8.67
8/17/2021 4:00:00 PM 20.93 69.674 0.114 7.6 26.79 8.66
8/17/2021 4:15:00 PM 20.95 69.71 0.113 7.6 25.87 8.66
8/17/2021 4:30:00 PM 20.99 69.782 0.111 7.59 22.29 8.68
8/17/2021 4:45:00 PM 21.02 69.836 0.11 7.57 22.72 8.69
8/17/2021 5:00:00 PM 21.04 69.872 0.11 7.6 19.33 8.66
8/17/2021 5:15:00 PM 21.06 69.908 0.11 7.59 19.28 8.65
8/17/2021 5:30:00 PM 21.07 69.926 0.11 7.58 17.53 8.62
8/17/2021 5:45:00 PM 21.09 69.962 0.11 7.58 15.78 8.59
8/17/2021 6:00:00 PM 21.12 70.016 0.11 7.57 14.39 8.57
8/17/2021 6:15:00 PM 21.13 70.034 0.111 7.57 15.02 8.55
8/17/2021 6:30:00 PM 21.14 70.052 0.111 7.56 14.61 8.52
8/17/2021 6:45:00 PM 21.13 70.034 0.111 7.55 12.64 8.49
8/17/2021 7:00:00 PM 21.12 70.016 0.111 7.53 13.29 8.45
8/17/2021 7:15:00 PM 21.11 69.998 0.111 7.49 14.46 8.41
8/17/2021 7:30:00 PM 21.09 69.962 0.111 7.51 16.52 8.38
8/17/2021 7:45:00 PM 21.07 69.926 0.11 7.49 16.58 8.34
8/17/2021 8:00:00 PM 21.04 69.872 0.11 7.48 23.69 8.31
8/17/2021 8:15:00 PM 21 69.8 0.11 7.47 20.75 8.28
8/17/2021 8:30:00 PM 20.97 69.746 0.11 7.46 28.83 8.26
8/17/2021 8:45:00 PM 20.95 69.71 0.11 7.44 22.25 8.24
8/17/2021 9:00:00 PM 20.92 69.656 0.11 7.44 20.91 8.23
8/17/2021 9:15:00 PM 20.89 69.602 0.11 7.43 20.58 8.21
8/17/2021 9:30:00 PM 20.87 69.566 0.111 7.42 18.27 8.21
8/17/2021 9:45:00 PM 20.84 69.512 0.111 7.38 18.42 8.2
8/17/2021 10:00:00 PM 20.82 69.476 0.111 7.41 15.7 8.19
8/17/2021 10:15:00 PM 20.8 69.44 0.111 7.38 16.1 8.19
8/17/2021 10:30:00 PM 20.78 69.404 0.111 7.4 14.81 8.19
8/17/2021 10:45:00 PM 20.76 69.368 0.111 7.4 15.68 8.18
8/17/2021 11:00:00 PM 20.75 69.35 0.112 7.39 14.93 8.18
8/17/2021 11:15:00 PM 20.73 69.314 0.112 7.39 13.96 8.19
8/17/2021 11:30:00 PM 20.72 69.296 0.112 7.37 13.84 8.19
8/17/2021 11:45:00 PM 20.7 69.26 0.112 7.38 13.49 8.19
8/18/2021 12:00:00 AM 20.68 69.224 0.112 7.36 12.84 8.19
8/18/2021 12:15:00 AM 20.67 69.206 0.112 7.37 11.56 8.19
8/18/2021 12:30:00 AM 20.65 69.17 0.112 7.37 10.61 8.18
8/18/2021 12:45:00 AM 20.63 69.134 0.112 7.36 12.07 8.19
8/18/2021 1:00:00 AM 20.62 69.116 0.112 7.36 12.75 8.18
8/18/2021 1:15:00 AM 20.6 69.08 0.112 7.36 12.49 8.19
8/18/2021 1:30:00 AM 20.58 69.044 0.112 7.32 10.1 8.19
8/18/2021 1:45:00 AM 20.57 69.026 0.113 7.35 9.68 8.2
8/18/2021 2:00:00 AM 20.55 68.99 0.113 7.35 10.77 8.21
8/18/2021 2:15:00 AM 20.54 68.972 0.113 7.34 9.54 8.2
8/18/2021 2:30:00 AM 20.52 68.936 0.113 7.34 8.78 8.2
8/18/2021 2:45:00 AM 20.51 68.918 0.113 7.34 9.49 8.2
8/18/2021 3:00:00 AM 20.49 68.882 0.113 7.34 8.59 8.21
8/18/2021 3:15:00 AM 20.48 68.864 0.114 7.34 8.56 8.21
8/18/2021 3:30:00 AM 20.46 68.828 0.114 7.34 8.44 8.21
8/18/2021 3:45:00 AM 20.45 68.81 0.114 7.33 8.13 8.2
8/18/2021 4:00:00 AM 20.44 68.792 0.114 7.34 8.42 8.21
8/18/2021 4:15:00 AM 20.42 68.756 0.114 7.34 8.02 8.21
8/18/2021 4:30:00 AM 20.4 68.72 0.114 7.34 8.37 8.22
8/18/2021 4:45:00 AM 20.4 68.72 0.114 7.34 7.43 8.22
8/18/2021 5:00:00 AM 20.38 68.684 0.114 7.33 7.96 8.21
8/18/2021 5:15:00 AM 20.37 68.666 0.114 7.34 7.12 8.22
8/18/2021 5:30:00 AM 20.36 68.648 0.115 7.33 7.4 8.22
8/18/2021 5:45:00 AM 20.35 68.63 0.115 7.35 7.17 8.22
8/18/2021 6:00:00 AM 20.34 68.612 0.115 7.34 6.75 8.23
8/18/2021 6:15:00 AM 20.33 68.594 0.115 7.34 6.56 8.22
8/18/2021 6:30:00 AM 20.32 68.576 0.115 7.34 6.66 8.22
8/18/2021 6:45:00 AM 20.31 68.558 0.115 7.34 6.33 8.23
8/18/2021 7:00:00 AM 20.3 68.54 0.115 7.34 6.7 8.25
8/18/2021 7:15:00 AM 20.29 68.522 0.115 7.33 6.16 8.25
8/18/2021 7:30:00 AM 20.29 68.522 0.115 7.35 5.89 8.28
8/18/2021 7:45:00 AM 20.29 68.522 0.115 7.35 6.61 8.3
8/18/2021 8:00:00 AM 20.3 68.54 0.115 7.34 5.49 8.33
8/18/2021 8:15:00 AM 20.31 68.558 0.115 7.37 5.83 8.36
8/18/2021 8:30:00 AM 20.32 68.576 0.115 7.39 4.98 8.42
8/18/2021 8:45:00 AM 20.34 68.612 0.115 7.38 5 8.46
8/18/2021 9:00:00 AM 20.34 68.612 0.115 7.41 5.08 8.49
8/18/2021 9:15:00 AM 20.37 68.666 0.115 7.43 4.7 8.57
8/18/2021 9:30:00 AM 20.4 68.72 0.116 7.45 5.29 8.62
8/18/2021 9:45:00 AM 20.41 68.738 0.116 7.46 4.82 8.61
8/18/2021 10:00:00 AM 20.43 68.774 0.116 7.47 5.12 8.67
8/18/2021 10:15:00 AM 20.45 68.81 0.116 7.48 5.39 8.69
8/18/2021 10:30:00 AM 20.47 68.846 0.116 7.5 5.31 8.74
8/18/2021 10:45:00 AM 20.52 68.936 0.116 7.52 5.27 8.83
8/18/2021 11:00:00 AM 20.56 69.008 0.116 7.55 4.84 8.87
8/18/2021 11:15:00 AM 20.74 69.332 0.116 7.57 4.53 9
8/18/2021 11:30:00 AM 20.92 69.656 0.116 7.63 4.81 9.11
8/18/2021 11:45:00 AM 20.98 69.764 0.116 7.66 4.49 9.17
8/18/2021 12:00:00 PM 20.98 69.764 0.116 7.68 4.43 9.17
8/18/2021 12:15:00 PM 20.96 69.728 0.116 7.67 4.12 9.14
8/18/2021 12:30:00 PM 21.06 69.908 0.116 7.72 4.91 9.23
8/18/2021 12:45:00 PM 21.16 70.088 0.116 7.75 3.93 9.28
8/18/2021 1:00:00 PM 21.21 70.17799 0.117 7.79 3.73 9.31
8/18/2021 1:15:00 PM 21.31 70.358 0.117 7.82 3.67 9.34
8/18/2021 1:30:00 PM 21.42 70.556 0.117 7.84 3.61 9.35
8/18/2021 1:45:00 PM 21.65 70.97 0.117 7.86 3.31 9.37
8/18/2021 2:00:00 PM 21.73 71.114 0.117 7.9 3.33 9.38
8/18/2021 2:15:00 PM 21.71 71.078 0.117 7.89 3.37 9.31
8/18/2021 2:30:00 PM 21.76 71.168 0.117 7.88 3.16 9.29
8/18/2021 2:45:00 PM 21.84 71.312 0.117 7.9 3.19 9.27
8/18/2021 3:00:00 PM 21.81 71.258 0.117 7.85 3.25 9.13
8/18/2021 3:15:00 PM 21.77 71.186 0.117 7.82 3.15 9
8/18/2021 3:30:00 PM 21.83 71.294 0.117 7.82 3.11 9.02
8/18/2021 3:45:00 PM 21.84 71.312 0.118 7.79 2.73 8.88
8/18/2021 4:00:00 PM 21.83 71.294 0.118 7.74 2.85 8.74
8/18/2021 4:15:00 PM 21.84 71.312 0.118 7.73 2.99 8.72
8/18/2021 4:30:00 PM 21.84 71.312 0.118 7.71 2.75 8.66
8/18/2021 4:45:00 PM 21.83 71.294 0.118 7.68 2.86 8.56
8/18/2021 5:00:00 PM 21.81 71.258 0.118 7.65 3.12 8.47
8/18/2021 5:15:00 PM 21.79 71.222 0.118 7.62 3.26 8.39
8/18/2021 5:30:00 PM 21.79 71.222 0.117 7.6 3.61 8.33
8/18/2021 5:45:00 PM 21.8 71.24 0.115 7.57 3.21 8.29
8/18/2021 6:00:00 PM 21.84 71.312 0.11 7.57 6.58 8.26
8/18/2021 6:15:00 PM 21.82 71.276 0.108 7.52 6.46 8.27
8/18/2021 6:30:00 PM 21.71 71.078 0.11 7.47 12.78 8.22
8/18/2021 6:45:00 PM 21.74 71.132 0.111 7.48 23.33 8.19
8/18/2021 7:00:00 PM 22.37 72.266 0.119 7.51 365.41 7.83
8/18/2021 7:15:00 PM 22.01 71.618 0.11 7.69 705.76 8.1
8/18/2021 7:30:00 PM 21.93 71.474 0.111 7.74 755.62 8.17
8/18/2021 7:45:00 PM 21.84 71.312 0.107 7.6 529.31 8.16
8/18/2021 8:00:00 PM 21.77 71.186 0.103 7.49 388.63 8.14
8/18/2021 8:15:00 PM 21.63 70.934 0.102 7.47 361.49 8.15
8/18/2021 8:30:00 PM 21.54 70.772 0.098 7.38 349.99 8.1
8/18/2021 8:45:00 PM 21.45 70.61 0.094 7.32 468.12 8.02
8/18/2021 9:00:00 PM 21.26 70.268 0.094 7.24 648.96 7.98
8/18/2021 9:15:00 PM 21.28 70.304 0.089 7.14 756.71 7.97
8/18/2021 9:30:00 PM 21.37 70.466 0.085 7.09 808.58 7.98
8/18/2021 9:45:00 PM 21.38 70.484 0.081 7.03 722.45 8.01
8/18/2021 10:00:00 PM 21.36 70.448 0.076 6.98 608.79 8.07
8/18/2021 10:15:00 PM 21.31 70.358 0.074 6.96 520.58 8.11
8/18/2021 10:30:00 PM 21.23 70.214 0.072 6.9 438.49 8.14
8/18/2021 10:45:00 PM 21.14 70.052 0.071 6.87 384 8.17
8/18/2021 11:00:00 PM 21.04 69.872 0.069 6.87 334.11 8.21
8/18/2021 11:15:00 PM 20.95 69.71 0.068 6.88 288.93 8.23
8/18/2021 11:30:00 PM 20.87 69.566 0.068 6.88 258.76 8.25
8/18/2021 11:45:00 PM 20.81 69.458 0.069 6.91 229.03 8.25
8/19/2021 12:00:00 AM 20.76 69.368 0.07 6.93 205.07 8.26
8/19/2021 12:15:00 AM 20.71 69.278 0.071 6.94 180.67 8.28
8/19/2021 12:30:00 AM 20.67 69.206 0.072 6.92 160.63 8.29
8/19/2021 12:45:00 AM 20.63 69.134 0.073 6.89 146.49 8.3
8/19/2021 1:00:00 AM 20.58 69.044 0.074 6.9 132.96 8.31
8/19/2021 1:15:00 AM 20.52 68.936 0.074 6.92 118.53 8.33
8/19/2021 1:30:00 AM 20.46 68.828 0.075 6.88 104.79 8.35
8/19/2021 1:45:00 AM 20.4 68.72 0.076 6.91 109.21 8.36
8/19/2021 2:00:00 AM 20.33 68.594 0.077 6.93 90.35 8.38
8/19/2021 2:15:00 AM 20.26 68.468 0.077 6.91 81.19 8.39
8/19/2021 2:30:00 AM 20.19 68.342 0.078 6.95 75.17 8.41
8/19/2021 2:45:00 AM 20.13 68.234 0.078 6.91 70.88 8.43
8/19/2021 3:00:00 AM 20.06 68.108 0.079 6.94 66.64 8.45
8/19/2021 3:15:00 AM 20 68 0.079 6.94 63.06 8.47
8/19/2021 3:30:00 AM 19.94 67.892 0.079 6.97 59.67 8.49
8/19/2021 3:45:00 AM 19.88 67.784 0.08 6.98 56.2 8.5
8/19/2021 4:00:00 AM 19.83 67.694 0.08 6.92 55.26 8.51
8/19/2021 4:15:00 AM 19.78 67.604 0.08 6.97 53.13 8.52
8/19/2021 4:30:00 AM 19.73 67.514 0.081 6.95 50.15 8.53
8/19/2021 4:45:00 AM 19.68 67.424 0.081 6.98 49.1 8.54
8/19/2021 5:00:00 AM 19.64 67.352 0.082 6.99 46.31 8.55
8/19/2021 5:15:00 AM 19.6 67.28 0.082 6.99 44.83 8.55
8/19/2021 5:30:00 AM 19.56 67.208 0.082 6.96 43.73 8.56
8/19/2021 5:45:00 AM 19.52 67.136 0.083 7 41.88 8.56
8/19/2021 6:00:00 AM 19.48 67.064 0.083 7 42.27 8.57
8/19/2021 6:15:00 AM 19.44 66.992 0.083 7 40.18 8.58
8/19/2021 6:30:00 AM 19.4 66.92 0.083 7 38.9 8.59
8/19/2021 6:45:00 AM 19.37 66.866 0.083 7 37.96 8.6
8/19/2021 7:00:00 AM 19.33 66.794 0.084 7.01 36.93 8.62
8/19/2021 7:15:00 AM 19.3 66.74 0.084 6.97 35.98 8.62
8/19/2021 7:30:00 AM 19.27 66.686 0.084 7.01 32.9 8.63
8/19/2021 7:45:00 AM 19.24 66.632 0.085 7.01 35.05 8.65
8/19/2021 8:00:00 AM 19.21 66.578 0.084 7.01 34.63 8.65
8/19/2021 8:15:00 AM 19.19 66.542 0.085 7.04 33.65 8.66
8/19/2021 8:30:00 AM 19.18 66.524 0.085 7.04 31.47 8.67
8/19/2021 8:45:00 AM 19.17 66.506 0.085 7.05 31.83 8.69
8/19/2021 9:00:00 AM 19.17 66.506 0.086 7.05 30.03 8.7
8/19/2021 9:15:00 AM 19.17 66.506 0.086 7.05 30.1 8.71
8/19/2021 9:30:00 AM 19.17 66.506 0.086 7.03 29.22 8.72
8/19/2021 9:45:00 AM 19.18 66.524 0.086 7.07 28.24 8.73
8/19/2021 10:00:00 AM 19.18 66.524 0.087 7.08 26.83 8.74
8/19/2021 10:15:00 AM 19.19 66.542 0.087 7.08 26.71 8.75
8/19/2021 10:30:00 AM 19.2 66.56 0.087 7.05 25.63 8.75
8/19/2021 10:45:00 AM 19.24 66.632 0.087 7.09 25.06 8.77
8/19/2021 11:00:00 AM 19.27 66.686 0.087 7.05 24.8 8.76
8/19/2021 11:15:00 AM 19.31 66.758 0.087 7.08 23.83 8.77
8/19/2021 11:30:00 AM 19.36 66.848 0.087 7.11 23.68 8.77
8/19/2021 11:45:00 AM 19.37 66.866 0.087 7.11 23.18 8.77
8/19/2021 12:00:00 PM 19.39 66.902 0.088 7.11 22.85 8.76
8/19/2021 12:15:00 PM 19.46 67.028 0.088 7.12 22.1 8.77
8/19/2021 12:30:00 PM 19.48 67.064 0.088 7.1 22.75 8.77
8/19/2021 12:45:00 PM 19.46 67.028 0.089 7.12 22.21 8.77
8/19/2021 1:00:00 PM 19.42 66.956 0.089 7.11 22.08 8.77
8/19/2021 1:15:00 PM 19.38 66.884 0.089 7.1 21.25 8.78
8/19/2021 1:30:00 PM 19.33 66.794 0.089 7.12 21.6 8.79
8/19/2021 1:45:00 PM 19.28 66.704 0.089 7.11 21.57 8.79
8/19/2021 2:00:00 PM 19.22 66.596 0.089 7.1 20.7 8.79
8/19/2021 2:15:00 PM 19.18 66.524 0.089 7.09 20.36 8.8
8/19/2021 2:30:00 PM 19.2 66.56 0.089 7.08 19.64 8.82
8/19/2021 2:45:00 PM 19.26 66.668 0.089 7.1 19.76 8.83
8/19/2021 3:00:00 PM 19.25 66.65 0.089 7.12 19.45 8.83
8/19/2021 3:15:00 PM 19.27 66.686 0.089 7.13 19.46 8.84
8/19/2021 3:30:00 PM 19.29 66.722 0.089 7.11 18.61 8.84
8/19/2021 3:45:00 PM 19.28 66.704 0.089 7.13 19.16 8.84
8/19/2021 4:00:00 PM 19.27 66.686 0.089 7.12 18.45 8.84
8/19/2021 4:15:00 PM 19.29 66.722 0.089 7.15 17.5 8.85
8/19/2021 4:30:00 PM 19.3 66.74 0.089 7.14 16.83 8.84
8/19/2021 4:45:00 PM 19.32 66.776 0.089 7.14 17.2 8.83
8/19/2021 5:00:00 PM 19.31 66.758 0.089 7.14 16.75 8.82
8/19/2021 5:15:00 PM 19.26 66.668 0.089 7.12 16.74 8.81
8/19/2021 5:30:00 PM 19.22 66.596 0.089 7.14 16.88 8.81
8/19/2021 5:45:00 PM 19.2 66.56 0.089 7.13 16.63 8.81
8/19/2021 6:00:00 PM 19.17 66.506 0.09 7.14 15.29 8.8
8/19/2021 6:15:00 PM 19.15 66.47 0.09 7.13 16.1 8.79
8/19/2021 6:30:00 PM 19.13 66.434 0.09 7.14 15.5 8.79
8/19/2021 6:45:00 PM 19.1 66.38 0.09 7.14 16.96 8.78
8/19/2021 7:00:00 PM 19.06 66.308 0.09 7.13 14.75 8.78
8/19/2021 7:15:00 PM 19.01 66.218 0.09 7.13 14.75 8.77
8/19/2021 7:30:00 PM 18.97 66.146 0.09 7.14 20.73 8.76
8/19/2021 7:45:00 PM 18.93 66.074 0.09 7.14 15.55 8.75
8/19/2021 8:00:00 PM 18.89 66.002 0.09 7.13 15.43 8.75
8/19/2021 8:15:00 PM 18.85 65.93 0.09 7.12 14.58 8.75
8/19/2021 8:30:00 PM 18.81 65.858 0.09 7.13 14.75 8.75
8/19/2021 8:45:00 PM 18.77 65.786 0.091 7.13 14.28 8.76
8/19/2021 9:00:00 PM 18.74 65.732 0.091 7.08 14.9 8.76
8/19/2021 9:15:00 PM 18.7 65.66 0.091 7.12 14.38 8.77
8/19/2021 9:30:00 PM 18.66 65.588 0.091 7.1 14.55 8.77
8/19/2021 9:45:00 PM 18.63 65.534 0.091 7.12 14.74 8.78
8/19/2021 10:00:00 PM 18.59 65.462 0.091 7.11 15.61 8.79
8/19/2021 10:15:00 PM 18.55 65.39 0.092 7.11 14.34 8.8
8/19/2021 10:30:00 PM 18.51 65.318 0.092 7.12 14.05 8.8
8/19/2021 10:45:00 PM 18.48 65.264 0.092 7.11 13.5 8.81
8/19/2021 11:00:00 PM 18.44 65.192 0.092 7.11 13.84 8.82
8/19/2021 11:15:00 PM 18.41 65.138 0.092 7.1 13.17 8.83
8/19/2021 11:30:00 PM 18.38 65.084 0.092 7.11 13.71 8.83
8/19/2021 11:45:00 PM 18.34 65.012 0.092 7.1 12.5 8.84
8/20/2021 12:00:00 AM 18.31 64.958 0.093 7.11 12.81 8.84
8/20/2021 12:15:00 AM 18.27 64.886 0.093 7.11 12.95 8.85
8/20/2021 12:30:00 AM 18.24 64.832 0.093 7.07 12.43 8.85
8/20/2021 12:45:00 AM 18.21 64.778 0.093 7.08 12.48 8.85
8/20/2021 1:00:00 AM 18.18 64.724 0.093 7.1 12.31 8.85
8/20/2021 1:15:00 AM 18.15 64.67 0.093 7.11 11.72 8.86
8/20/2021 1:30:00 AM 18.12 64.616 0.093 7.08 11.77 8.87
8/20/2021 1:45:00 AM 18.09 64.562 0.093 7.12 11.67 8.88
8/20/2021 2:00:00 AM 18.07 64.526 0.094 7.12 11.77 8.88
8/20/2021 2:15:00 AM 18.04 64.472 0.094 7.11 11.42 8.9
8/20/2021 2:30:00 AM 18.01 64.418 0.094 7.12 11.57 8.91
8/20/2021 2:45:00 AM 17.98 64.364 0.094 7.12 10.93 8.91
8/20/2021 3:00:00 AM 17.96 64.328 0.094 7.11 10.78 8.92
8/20/2021 3:15:00 AM 17.93 64.274 0.094 7.12 11.18 8.92
8/20/2021 3:30:00 AM 17.91 64.238 0.094 7.13 11.15 8.92
8/20/2021 3:45:00 AM 17.89 64.202 0.094 7.09 10.65 8.94
8/20/2021 4:00:00 AM 17.87 64.166 0.094 7.12 10.71 8.94
8/20/2021 4:15:00 AM 17.84 64.112 0.094 7.1 11.15 8.94
8/20/2021 4:30:00 AM 17.82 64.076 0.094 7.13 10.12 8.95
8/20/2021 4:45:00 AM 17.8 64.04 0.094 7.11 10.49 8.95
8/20/2021 5:00:00 AM 17.78 64.004 0.094 7.12 10.08 8.95
8/20/2021 5:15:00 AM 17.76 63.968 0.094 7.08 10.02 8.95
8/20/2021 5:30:00 AM 17.74 63.932 0.094 7.13 9.86 8.96
8/20/2021 5:45:00 AM 17.72 63.896 0.094 7.12 9.79 8.96
8/20/2021 6:00:00 AM 17.7 63.86 0.095 7.08 10.06 8.97
8/20/2021 6:15:00 AM 17.68 63.824 0.095 7.11 9.75 8.96
8/20/2021 6:30:00 AM 17.67 63.806 0.095 7.12 9.46 8.97
8/20/2021 6:45:00 AM 17.65 63.77 0.095 7.11 9.56 8.97
8/20/2021 7:00:00 AM 17.63 63.734 0.095 7.11 9.59 8.98
8/20/2021 7:15:00 AM 17.62 63.716 0.095 7.13 8.92 8.98
8/20/2021 7:30:00 AM 17.61 63.698 0.095 7.1 9.19 9.01
8/20/2021 7:45:00 AM 17.61 63.698 0.095 7.13 8.74 9.02
8/20/2021 8:00:00 AM 17.61 63.698 0.095 7.14 8.35 9.03
8/20/2021 8:15:00 AM 17.61 63.698 0.095 7.15 8.22 9.04
8/20/2021 8:30:00 AM 17.61 63.698 0.095 7.1 8.65 9.05
8/20/2021 8:45:00 AM 17.62 63.716 0.095 7.16 8.45 9.08
8/20/2021 9:00:00 AM 17.63 63.734 0.095 7.15 7.54 9.09
8/20/2021 9:15:00 AM 17.65 63.77 0.095 7.17 7.57 9.1
8/20/2021 9:30:00 AM 17.68 63.824 0.095 7.18 7.37 9.12
8/20/2021 9:45:00 AM 17.71 63.878 0.095 7.2 6.89 9.14
8/20/2021 10:00:00 AM 17.73 63.914 0.095 7.21 7.56 9.15
8/20/2021 10:15:00 AM 17.77 63.986 0.095 7.22 7.13 9.16
8/20/2021 10:30:00 AM 17.82 64.076 0.095 7.23 7.2 9.18
8/20/2021 10:45:00 AM 17.9 64.22 0.095 7.2 6.82 9.19
8/20/2021 11:00:00 AM 17.96 64.328 0.095 7.26 6.72 9.2
8/20/2021 11:15:00 AM 17.99 64.382 0.095 7.27 6.57 9.18
8/20/2021 11:30:00 AM 18.05 64.49 0.095 7.28 6.8 9.19
8/20/2021 11:45:00 AM 18.11 64.598 0.095 7.23 6.04 9.19
8/20/2021 12:00:00 PM 18.17 64.706 0.095 7.28 6.19 9.17
8/20/2021 12:15:00 PM 18.22 64.796 0.095 7.3 6.04 9.17
8/20/2021 12:30:00 PM 18.28 64.904 0.095 7.31 6.08 9.17
8/20/2021 12:45:00 PM 18.34 65.012 0.095 7.3 6.26 9.18
8/20/2021 1:00:00 PM 18.39 65.102 0.095 7.32 5.98 9.17
8/20/2021 1:15:00 PM 18.46 65.228 0.095 7.33 6.23 9.16
8/20/2021 1:30:00 PM 18.56 65.408 0.095 7.33 5.95 9.16
8/20/2021 1:45:00 PM 18.65 65.57 0.095 7.34 6.14 9.15
8/20/2021 2:00:00 PM 18.74 65.732 0.095 7.35 5.79 9.13
8/20/2021 2:15:00 PM 18.77 65.786 0.095 7.35 6.5 9.12
8/20/2021 2:30:00 PM 18.85 65.93 0.095 7.33 6.21 9.1
8/20/2021 2:45:00 PM 18.93 66.074 0.095 7.36 5.88 9.1
8/20/2021 3:00:00 PM 18.97 66.146 0.095 7.35 5.87 9.08
8/20/2021 3:15:00 PM 19.07 66.326 0.095 7.36 5.77 9.09
8/20/2021 3:30:00 PM 19.23 66.614 0.095 7.37 5.74 9.08
8/20/2021 3:45:00 PM 19.28 66.704 0.095 7.37 6.22 9.06
8/20/2021 4:00:00 PM 19.29 66.722 0.095 7.38 5.68 9.04
8/20/2021 4:15:00 PM 19.33 66.794 0.095 7.37 5.83 9
8/20/2021 4:30:00 PM 19.43 66.974 0.095 7.37 5.54 8.99
8/20/2021 4:45:00 PM 19.52 67.136 0.095 7.38 5.73 8.95
8/20/2021 5:00:00 PM 19.59 67.262 0.095 7.37 6.38 8.93
8/20/2021 5:15:00 PM 19.61 67.298 0.095 7.36 5.75 8.9
8/20/2021 5:30:00 PM 19.65 67.37 0.095 7.36 6.03 8.89
8/20/2021 5:45:00 PM 19.67 67.406 0.095 7.35 5.92 8.85
8/20/2021 6:00:00 PM 19.66 67.388 0.095 7.36 5.82 8.82
8/20/2021 6:15:00 PM 19.66 67.388 0.095 7.35 5.93 8.79
8/20/2021 6:30:00 PM 19.64 67.352 0.095 7.35 5.99 8.76
8/20/2021 6:45:00 PM 19.62 67.316 0.096 7.32 5.73 8.74
8/20/2021 7:00:00 PM 19.6 67.28 0.096 7.33 6.09 8.72
8/20/2021 7:15:00 PM 19.57 67.226 0.096 7.32 5.43 8.7
8/20/2021 7:30:00 PM 19.54 67.172 0.096 7.29 5.87 8.68
8/20/2021 7:45:00 PM 19.5 67.1 0.096 7.31 5.61 8.67
8/20/2021 8:00:00 PM 19.47 67.046 0.096 7.3 6.09 8.66
8/20/2021 8:15:00 PM 19.43 66.974 0.096 7.29 5.75 8.65
8/20/2021 8:30:00 PM 19.39 66.902 0.096 7.27 6.06 8.65
8/20/2021 8:45:00 PM 19.35 66.83 0.096 7.26 6.05 8.65
8/20/2021 9:00:00 PM 19.3 66.74 0.096 7.27 6.11 8.65
8/20/2021 9:15:00 PM 19.26 66.668 0.096 7.27 6.25 8.65
8/20/2021 9:30:00 PM 19.21 66.578 0.096 7.26 6.28 8.65
8/20/2021 9:45:00 PM 19.17 66.506 0.096 7.21 6.28 8.66
8/20/2021 10:00:00 PM 19.14 66.452 0.096 7.26 6.2 8.66
8/20/2021 10:15:00 PM 19.11 66.398 0.097 7.26 6.64 8.66
8/20/2021 10:30:00 PM 19.07 66.326 0.097 7.24 6.28 8.66
8/20/2021 10:45:00 PM 19.04 66.272 0.097 7.26 6.3 8.66
8/20/2021 11:00:00 PM 19 66.2 0.097 7.26 6.44 8.67
8/20/2021 11:15:00 PM 18.96 66.128 0.097 7.24 5.72 8.67
8/20/2021 11:30:00 PM 18.92 66.056 0.097 7.23 6.21 8.68
8/20/2021 11:45:00 PM 18.88 65.984 0.097 7.26 5.79 8.68
8/21/2021 12:00:00 AM 18.83 65.894 0.097 7.25 6 8.69
8/21/2021 12:15:00 AM 18.78 65.804 0.097 7.25 6.08 8.7
8/21/2021 12:30:00 AM 18.74 65.732 0.097 7.26 5.75 8.72
8/21/2021 12:45:00 AM 18.69 65.642 0.097 7.25 6.09 8.73
8/21/2021 1:00:00 AM 18.65 65.57 0.097 7.25 5.8 8.74
8/21/2021 1:15:00 AM 18.62 65.516 0.098 7.23 6.13 8.75
8/21/2021 1:30:00 AM 18.58 65.444 0.098 7.25 5.58 8.76
8/21/2021 1:45:00 AM 18.55 65.39 0.098 7.25 5.63 8.76
8/21/2021 2:00:00 AM 18.51 65.318 0.098 7.21 6.94 8.77
8/21/2021 2:15:00 AM 18.47 65.246 0.098 7.26 5.74 8.78
8/21/2021 2:30:00 AM 18.43 65.174 0.098 7.23 5.26 8.79
8/21/2021 2:45:00 AM 18.4 65.12 0.098 7.25 5.75 8.79
8/21/2021 3:00:00 AM 18.36 65.048 0.098 7.25 5.6 8.79
8/21/2021 3:15:00 AM 18.32 64.976 0.098 7.25 6.15 8.8
8/21/2021 3:30:00 AM 18.28 64.904 0.098 7.23 5.74 8.81
8/21/2021 3:45:00 AM 18.24 64.832 0.098 7.24 5.44 8.81
8/21/2021 4:00:00 AM 18.21 64.778 0.098 7.22 5.51 8.82
8/21/2021 4:15:00 AM 18.18 64.724 0.098 7.24 6.05 8.82
8/21/2021 4:30:00 AM 18.14 64.652 0.098 7.24 5.71 8.83
8/21/2021 4:45:00 AM 18.12 64.616 0.098 7.25 5.73 8.85
8/21/2021 5:00:00 AM 18.09 64.562 0.098 7.25 5.34 8.85
8/21/2021 5:15:00 AM 18.07 64.526 0.098 7.24 5.36 8.86
8/21/2021 5:30:00 AM 18.04 64.472 0.098 7.25 5.27 8.86
8/21/2021 5:45:00 AM 18.02 64.436 0.099 7.22 5.19 8.87
8/21/2021 6:00:00 AM 18 64.4 0.099 7.24 5.08 8.88
8/21/2021 6:15:00 AM 17.97 64.346 0.099 7.24 5.41 8.89
8/21/2021 6:30:00 AM 17.95 64.31 0.099 7.25 5.39 8.89
8/21/2021 6:45:00 AM 17.94 64.292 0.099 7.24 5.29 8.9
8/21/2021 7:00:00 AM 17.92 64.256 0.099 7.25 5.32 8.92
8/21/2021 7:15:00 AM 17.91 64.238 0.099 7.25 5.41 8.93
8/21/2021 7:30:00 AM 17.9 64.22 0.099 7.26 4.71 8.94
8/21/2021 7:45:00 AM 17.9 64.22 0.099 7.25 4.68 8.96
8/21/2021 8:00:00 AM 17.9 64.22 0.099 7.26 4.7 8.98
8/21/2021 8:15:00 AM 17.9 64.22 0.099 7.27 4.65 8.99
8/21/2021 8:30:00 AM 17.9 64.22 0.099 7.25 4.47 9.01
8/21/2021 8:45:00 AM 17.91 64.238 0.099 7.29 4.32 9.04
8/21/2021 9:00:00 AM 17.94 64.292 0.099 7.29 4.46 9.07
8/21/2021 9:15:00 AM 17.96 64.328 0.099 7.3 4 9.08
8/21/2021 9:30:00 AM 17.99 64.382 0.099 7.32 4.35 9.11
8/21/2021 9:45:00 AM 18.02 64.436 0.099 7.27 4.16 9.12
8/21/2021 10:00:00 AM 18.08 64.544 0.099 7.34 4.03 9.16
8/21/2021 10:15:00 AM 18.14 64.652 0.099 7.31 4.14 9.17
8/21/2021 10:30:00 AM 18.25 64.85 0.099 7.34 3.93 9.17
8/21/2021 10:45:00 AM 18.31 64.958 0.099 7.36 3.88 9.18
8/21/2021 11:00:00 AM 18.37 65.066 0.099 7.37 3.95 9.19
8/21/2021 11:15:00 AM 18.53 65.354 0.099 7.39 3.56 9.21
8/21/2021 11:30:00 AM 18.53 65.354 0.099 7.39 3.52 9.19
8/21/2021 11:45:00 AM 18.74 65.732 0.099 7.4 3.69 9.18
8/21/2021 12:00:00 PM 18.78 65.804 0.099 7.4 3.56 9.16
8/21/2021 12:15:00 PM 18.79 65.82201 0.099 7.4 3.58 9.13
8/21/2021 12:30:00 PM 18.96 66.128 0.099 7.41 3.64 9.15
8/21/2021 12:45:00 PM 19.06 66.308 0.099 7.42 3.42 9.13
8/21/2021 1:00:00 PM 19.07 66.326 0.099 7.42 3.52 9.11
8/21/2021 1:15:00 PM 19.09 66.362 0.099 7.43 3.44 9.12
8/21/2021 1:30:00 PM 19.28 66.704 0.099 7.44 3.5 9.14
8/21/2021 1:45:00 PM 19.43 66.974 0.099 7.44 3.57 9.14
8/21/2021 2:00:00 PM 19.59 67.262 0.099 7.46 3.53 9.13
8/21/2021 2:15:00 PM 19.71 67.478 0.099 7.45 3.32 9.09
8/21/2021 2:30:00 PM 19.77 67.586 0.099 7.47 3.28 9.08
8/21/2021 2:45:00 PM 19.74 67.532 0.099 7.46 3.45 9.07
8/21/2021 3:00:00 PM 19.98 67.964 0.099 7.47 3.37 9.07
8/21/2021 3:15:00 PM 20.11 68.198 0.099 7.47 3.59 9.01
8/21/2021 3:30:00 PM 20.09 68.162 0.099 7.47 3.4 8.96
8/21/2021 3:45:00 PM 20.17 68.306 0.099 7.46 3.69 8.94
8/21/2021 4:00:00 PM 20.36 68.648 0.099 7.48 3.6 8.94
8/21/2021 4:15:00 PM 20.45 68.81 0.099 7.47 3.32 8.91
8/21/2021 4:30:00 PM 20.5 68.9 0.099 7.47 3.3 8.86
8/21/2021 4:45:00 PM 20.54 68.972 0.099 7.46 3.57 8.82
8/21/2021 5:00:00 PM 20.6 69.08 0.099 7.46 4.09 8.78
8/21/2021 5:15:00 PM 20.63 69.134 0.099 7.44 3.46 8.72
8/21/2021 5:30:00 PM 20.67 69.206 0.099 7.44 3.29 8.72
8/21/2021 5:45:00 PM 20.69 69.242 0.099 7.44 3.25 8.69
8/21/2021 6:00:00 PM 20.69 69.242 0.099 7.44 3.73 8.69
8/21/2021 6:15:00 PM 20.68 69.224 0.099 7.43 3.21 8.66
8/21/2021 6:30:00 PM 20.62 69.116 0.099 7.42 3.43 8.61
8/21/2021 6:45:00 PM 20.56 69.008 0.099 7.39 3.66 8.59
8/21/2021 7:00:00 PM 20.5 68.9 0.099 7.39 3.7 8.57
8/21/2021 7:15:00 PM 20.43 68.774 0.099 7.39 3.6 8.55
8/21/2021 7:30:00 PM 20.37 68.666 0.099 7.35 3.69 8.53
8/21/2021 7:45:00 PM 20.29 68.522 0.099 7.36 3.45 8.51
8/21/2021 8:00:00 PM 20.22 68.396 0.1 7.3 3.83 8.5
8/21/2021 8:15:00 PM 20.14 68.252 0.1 7.33 3.77 8.49
8/21/2021 8:30:00 PM 20.07 68.126 0.1 7.33 3.71 8.49
8/21/2021 8:45:00 PM 20.02 68.036 0.1 7.32 3.74 8.49
8/21/2021 9:00:00 PM 19.97 67.946 0.1 7.31 3.93 8.49
8/21/2021 9:15:00 PM 19.93 67.874 0.1 7.31 3.87 8.5
8/21/2021 9:30:00 PM 19.89 67.802 0.1 7.29 3.68 8.5
8/21/2021 9:45:00 PM 19.85 67.73 0.1 7.3 3.94 8.49
8/21/2021 10:00:00 PM 19.82 67.676 0.1 7.28 4.03 8.5
8/21/2021 10:15:00 PM 19.79 67.622 0.1 7.27 4.23 8.5
8/21/2021 10:30:00 PM 19.77 67.586 0.1 7.29 4.45 8.5
8/21/2021 10:45:00 PM 19.74 67.532 0.1 7.29 3.9 8.51
8/21/2021 11:00:00 PM 19.72 67.496 0.1 7.27 3.98 8.51
8/21/2021 11:15:00 PM 19.7 67.46 0.1 7.26 3.93 8.52
8/21/2021 11:30:00 PM 19.68 67.424 0.101 7.27 3.81 8.52
8/21/2021 11:45:00 PM 19.65 67.37 0.101 7.28 4.02 8.51
8/22/2021 12:00:00 AM 19.63 67.334 0.101 7.28 3.91 8.51
8/22/2021 12:15:00 AM 19.61 67.298 0.101 7.24 3.87 8.52
8/22/2021 12:30:00 AM 19.59 67.262 0.101 7.27 3.93 8.52
8/22/2021 12:45:00 AM 19.57 67.226 0.101 7.27 4.01 8.52
8/22/2021 1:00:00 AM 19.55 67.19 0.101 7.26 3.92 8.52
8/22/2021 1:15:00 AM 19.52 67.136 0.101 7.28 3.91 8.53
8/22/2021 1:30:00 AM 19.49 67.082 0.101 7.27 3.91 8.54
8/22/2021 1:45:00 AM 19.47 67.046 0.101 7.27 3.72 8.54
8/22/2021 2:00:00 AM 19.44 66.992 0.101 7.27 3.93 8.55
8/22/2021 2:15:00 AM 19.41 66.938 0.101 7.28 3.99 8.56
8/22/2021 2:30:00 AM 19.37 66.866 0.102 7.26 3.94 8.57
8/22/2021 2:45:00 AM 19.34 66.812 0.102 7.27 3.95 8.57
8/22/2021 3:00:00 AM 19.31 66.758 0.102 7.27 3.6 8.58
8/22/2021 3:15:00 AM 19.28 66.704 0.102 7.27 4 8.59
8/22/2021 3:30:00 AM 19.24 66.632 0.102 7.28 3.73 8.6
8/22/2021 3:45:00 AM 19.21 66.578 0.102 7.27 3.76 8.6
8/22/2021 4:00:00 AM 19.18 66.524 0.102 7.28 3.86 8.61
8/22/2021 4:15:00 AM 19.15 66.47 0.102 7.27 3.72 8.61
8/22/2021 4:30:00 AM 19.12 66.416 0.102 7.27 3.75 8.62
8/22/2021 4:45:00 AM 19.1 66.38 0.102 7.27 3.75 8.63
8/22/2021 5:00:00 AM 19.07 66.326 0.102 7.27 3.56 8.63
8/22/2021 5:15:00 AM 19.04 66.272 0.102 7.26 4.27 8.64
8/22/2021 5:30:00 AM 19.01 66.218 0.102 7.27 3.74 8.64
8/22/2021 5:45:00 AM 18.98 66.164 0.102 7.27 3.52 8.64
8/22/2021 6:00:00 AM 18.96 66.128 0.102 7.27 4.19 8.65
8/22/2021 6:15:00 AM 18.93 66.074 0.103 7.27 3.74 8.65
8/22/2021 6:30:00 AM 18.91 66.038 0.103 7.27 3.6 8.65
8/22/2021 6:45:00 AM 18.89 66.002 0.103 7.27 3.6 8.66
8/22/2021 7:00:00 AM 18.86 65.948 0.103 7.27 3.89 8.67
8/22/2021 7:15:00 AM 18.84 65.912 0.103 7.27 3.65 8.69
8/22/2021 7:30:00 AM 18.83 65.894 0.103 7.27 3.36 8.71
8/22/2021 7:45:00 AM 18.83 65.894 0.103 7.26 3.37 8.73
8/22/2021 8:00:00 AM 18.82 65.876 0.103 7.28 3.36 8.77
8/22/2021 8:15:00 AM 18.82 65.876 0.103 7.28 3.23 8.79
8/22/2021 8:30:00 AM 18.82 65.876 0.103 7.26 3.01 8.82
8/22/2021 8:45:00 AM 18.82 65.876 0.103 7.29 3.25 8.84
8/22/2021 9:00:00 AM 18.82 65.876 0.103 7.3 2.99 8.85
8/22/2021 9:15:00 AM 18.82 65.876 0.103 7.3 2.99 8.86
8/22/2021 9:30:00 AM 18.83 65.894 0.103 7.32 3.1 8.89
8/22/2021 9:45:00 AM 18.84 65.912 0.103 7.33 3.27 8.93
8/22/2021 10:00:00 AM 18.87 65.966 0.103 7.35 2.72 8.95
8/22/2021 10:15:00 AM 18.9 66.02 0.103 7.36 2.79 9
8/22/2021 10:30:00 AM 18.95 66.11 0.103 7.37 2.88 9.01
8/22/2021 10:45:00 AM 18.95 66.11 0.103 7.38 2.8 9.03
8/22/2021 11:00:00 AM 18.99 66.182 0.103 7.4 2.84 9.06
8/22/2021 11:15:00 AM 19.02 66.236 0.103 7.4 2.71 9.06
8/22/2021 11:30:00 AM 19.05 66.29 0.103 7.42 2.82 9.08
8/22/2021 11:45:00 AM 19.06 66.308 0.103 7.42 2.81 9.07
8/22/2021 12:00:00 PM 19.08 66.344 0.103 7.43 2.8 9.08
8/22/2021 12:15:00 PM 19.09 66.362 0.103 7.42 2.46 9.07
8/22/2021 12:30:00 PM 19.11 66.398 0.103 7.43 2.46 9.05
8/22/2021 12:45:00 PM 19.13 66.434 0.103 7.4 2.47 9.04
8/22/2021 1:00:00 PM 19.14 66.452 0.103 7.41 2.38 9.02
8/22/2021 1:15:00 PM 19.16 66.488 0.103 7.42 2.57 9.01
8/22/2021 1:30:00 PM 19.18 66.524 0.103 7.43 2.5 9.02
8/22/2021 1:45:00 PM 19.2 66.56 0.103 7.42 2.62 9.01
8/22/2021 2:00:00 PM 19.21 66.578 0.103 7.43 2.65 8.99
8/22/2021 2:15:00 PM 19.22 66.596 0.103 7.42 2.55 8.97
8/22/2021 2:30:00 PM 19.24 66.632 0.103 7.43 2.79 8.99
8/22/2021 2:45:00 PM 19.25 66.65 0.103 7.4 2.64 8.97
8/22/2021 3:00:00 PM 19.25 66.65 0.102 7.41 2.69 8.91
8/22/2021 3:15:00 PM 19.26 66.668 0.103 7.42 2.47 8.92
8/22/2021 3:30:00 PM 19.26 66.668 0.103 7.41 2.46 8.91
8/22/2021 3:45:00 PM 19.27 66.686 0.103 7.42 2.77 8.92
8/22/2021 4:00:00 PM 19.29 66.722 0.103 7.41 2.67 8.92
8/22/2021 4:15:00 PM 19.3 66.74 0.103 7.4 2.61 8.9
8/22/2021 4:30:00 PM 19.31 66.758 0.103 7.41 2.69 8.91
8/22/2021 4:45:00 PM 19.32 66.776 0.103 7.42 2.81 8.89
8/22/2021 5:00:00 PM 19.33 66.794 0.103 7.43 2.86 8.86
8/22/2021 5:15:00 PM 19.34 66.812 0.104 7.42 2.9 8.84
8/22/2021 5:30:00 PM 19.34 66.812 0.105 7.42 2.82 8.82
8/22/2021 5:45:00 PM 19.33 66.794 0.105 7.42 2.9 8.81
8/22/2021 6:00:00 PM 19.31 66.758 0.105 7.41 3 8.79
8/22/2021 6:15:00 PM 19.3 66.74 0.105 7.41 2.92 8.8
8/22/2021 6:30:00 PM 19.28 66.704 0.105 7.4 3 8.78
8/22/2021 6:45:00 PM 19.27 66.686 0.105 7.4 2.88 8.78
8/22/2021 7:00:00 PM 19.26 66.668 0.105 7.38 2.95 8.76
8/22/2021 7:15:00 PM 19.24 66.632 0.105 7.38 2.8 8.74
8/22/2021 7:30:00 PM 19.22 66.596 0.105 7.37 2.92 8.71
8/22/2021 7:45:00 PM 19.21 66.578 0.105 7.37 2.84 8.7
8/22/2021 8:00:00 PM 19.19 66.542 0.105 7.33 3.22 8.68
8/22/2021 8:15:00 PM 19.18 66.524 0.105 7.35 3.19 8.67
8/22/2021 8:30:00 PM 19.16 66.488 0.105 7.33 3.4 8.66
8/22/2021 8:45:00 PM 19.15 66.47 0.105 7.29 3.25 8.65
8/22/2021 9:00:00 PM 19.14 66.452 0.105 7.32 2.95 8.64
8/22/2021 9:15:00 PM 19.13 66.434 0.105 7.32 3.32 8.63
8/22/2021 9:30:00 PM 19.12 66.416 0.105 7.3 3.53 8.63
8/22/2021 9:45:00 PM 19.11 66.398 0.104 7.31 3.34 8.62
8/22/2021 10:00:00 PM 19.1 66.38 0.104 7.29 3.5 8.62
8/22/2021 10:15:00 PM 19.09 66.362 0.104 7.3 3.23 8.62
8/22/2021 10:30:00 PM 19.07 66.326 0.104 7.3 3.59 8.62
8/22/2021 10:45:00 PM 19.06 66.308 0.104 7.3 3.1 8.62
8/22/2021 11:00:00 PM 19.04 66.272 0.104 7.29 3.31 8.62
8/22/2021 11:15:00 PM 19.03 66.254 0.104 7.29 3.68 8.62
8/22/2021 11:30:00 PM 19.01 66.218 0.104 7.29 3.37 8.62
8/22/2021 11:45:00 PM 19 66.2 0.104 7.29 3.17 8.61
8/23/2021 12:00:00 AM 18.99 66.182 0.104 7.29 3.34 8.62
8/23/2021 12:15:00 AM 18.98 66.164 0.104 7.29 3.27 8.62
8/23/2021 12:30:00 AM 18.96 66.128 0.104 7.3 3.59 8.62
8/23/2021 12:45:00 AM 18.95 66.11 0.104 7.25 3.42 8.62
8/23/2021 1:00:00 AM 18.93 66.074 0.104 7.29 3.32 8.62
8/23/2021 1:15:00 AM 18.92 66.056 0.104 7.3 4.08 8.63
8/23/2021 1:30:00 AM 18.91 66.038 0.104 7.3 3.76 8.63
8/23/2021 1:45:00 AM 18.91 66.038 0.104 7.31 3.47 8.63
8/23/2021 2:00:00 AM 18.92 66.056 0.103 7.31 4.13 8.64
8/23/2021 2:15:00 AM 18.92 66.056 0.103 7.3 4.89 8.64
8/23/2021 2:30:00 AM 18.92 66.056 0.103 7.31 5.21 8.63
8/23/2021 2:45:00 AM 18.92 66.056 0.104 7.31 7.22 8.63
8/23/2021 3:00:00 AM 18.93 66.074 0.106 7.32 7.92 8.62
8/23/2021 3:15:00 AM 18.96 66.128 0.108 7.33 11.37 8.61
8/23/2021 3:30:00 AM 19.03 66.254 0.11 7.35 19.05 8.6
8/23/2021 3:45:00 AM 19.02 66.236 0.11 7.35 21.41 8.62
8/23/2021 4:00:00 AM 19 66.2 0.11 7.34 22.19 8.62
8/23/2021 4:15:00 AM 19 66.2 0.11 7.35 26.42 8.61
8/23/2021 4:30:00 AM 19.01 66.218 0.111 7.3 21.58 8.61
8/23/2021 4:45:00 AM 19.01 66.218 0.111 7.34 19.23 8.6
8/23/2021 5:00:00 AM 18.99 66.182 0.111 7.34 19.18 8.6
8/23/2021 5:15:00 AM 18.97 66.146 0.11 7.32 17.84 8.59
8/23/2021 5:30:00 AM 18.93 66.074 0.109 7.32 18.59 8.6
8/23/2021 5:45:00 AM 18.91 66.038 0.107 7.31 23.48 8.6
8/23/2021 6:00:00 AM 18.88 65.984 0.106 7.31 17.47 8.61
8/23/2021 6:15:00 AM 18.86 65.948 0.106 7.32 24.19 8.62
8/23/2021 6:30:00 AM 18.84 65.912 0.105 7.31 15.92 8.63
8/23/2021 6:45:00 AM 18.82 65.876 0.105 7.25 15.7 8.63
8/23/2021 7:00:00 AM 18.81 65.858 0.104 7.29 18.81 8.65
8/23/2021 7:15:00 AM 18.8 65.84 0.104 7.31 14.09 8.66
8/23/2021 7:30:00 AM 18.79 65.82201 0.103 7.28 12.03 8.67
8/23/2021 7:45:00 AM 18.78 65.804 0.103 7.31 13.12 8.68
8/23/2021 8:00:00 AM 18.78 65.804 0.103 7.32 11.2 8.7
8/23/2021 8:15:00 AM 18.79 65.82201 0.103 7.32 10.71 8.71
8/23/2021 8:30:00 AM 18.82 65.876 0.103 7.32 9.84 8.75
8/23/2021 8:45:00 AM 18.84 65.912 0.103 7.3 9.83 8.75
8/23/2021 9:00:00 AM 18.88 65.984 0.103 7.34 9.15 8.77
8/23/2021 9:15:00 AM 18.92 66.056 0.103 7.32 11 8.79
8/23/2021 9:30:00 AM 19 66.2 0.103 7.35 8.79 8.83
8/23/2021 9:45:00 AM 19.06 66.308 0.103 7.36 7.53 8.85
8/23/2021 10:00:00 AM 19.14 66.452 0.103 7.38 8.41 8.86
8/23/2021 10:15:00 AM 19.21 66.578 0.103 7.39 7.21 8.89
8/23/2021 10:30:00 AM 19.27 66.686 0.103 7.4 7.18 8.9
8/23/2021 10:45:00 AM 19.3 66.74 0.103 7.41 7.64 8.91
8/23/2021 11:00:00 AM 19.34 66.812 0.103 7.38 9.51 8.89
8/23/2021 11:15:00 AM 19.43 66.974 0.103 7.41 9.26 8.92
8/23/2021 11:30:00 AM 19.54 67.172 0.103 7.41 6.76 8.93
8/23/2021 11:45:00 AM 19.58 67.244 0.103 7.44 7 8.93
8/23/2021 12:00:00 PM 19.68 67.424 0.103 7.4 6.65 8.93
8/23/2021 12:15:00 PM 19.87 67.766 0.103 7.46 6.5 8.97
8/23/2021 12:30:00 PM 19.89 67.802 0.104 7.45 5.75 8.93
8/23/2021 12:45:00 PM 20.11 68.198 0.104 7.48 5.47 8.97
8/23/2021 1:00:00 PM 20.22 68.396 0.104 7.48 5.45 8.95
8/23/2021 1:15:00 PM 20.32 68.576 0.104 7.49 5.45 8.96
8/23/2021 1:30:00 PM 20.49 68.882 0.104 7.5 5.49 8.97
8/23/2021 1:45:00 PM 20.46 68.828 0.104 7.5 4.96 8.91
8/23/2021 2:00:00 PM 20.44 68.792 0.104 7.49 4.66 8.84
8/23/2021 2:15:00 PM 20.48 68.864 0.104 7.49 4.75 8.84
8/23/2021 2:30:00 PM 20.64 69.152 0.104 7.5 4.78 8.86
8/23/2021 2:45:00 PM 20.64 69.152 0.104 7.49 5.15 8.8
8/23/2021 3:00:00 PM 20.67 69.206 0.103 7.49 4.93 8.77
8/23/2021 3:15:00 PM 20.75 69.35 0.1 7.48 7.91 8.67
8/23/2021 3:30:00 PM 20.81 69.458 0.099 7.44 12.92 8.66
8/23/2021 3:45:00 PM 21.01 69.818 0.102 7.42 146.93 8.59
8/23/2021 4:00:00 PM 21.17 70.106 0.108 7.48 86.72 8.56
8/23/2021 4:15:00 PM 21.25 70.25 0.108 7.45 39.88 8.54
8/23/2021 4:30:00 PM 21.43 70.574 0.108 7.42 36.53 8.44
8/23/2021 4:45:00 PM 21.47 70.646 0.107 7.39 32.6 8.43
8/23/2021 5:00:00 PM 21.48 70.664 0.107 7.37 24.87 8.39
8/23/2021 5:15:00 PM 21.53 70.754 0.109 7.34 29.64 8.31
8/23/2021 5:30:00 PM 21.64 70.952 0.109 7.31 28.43 8.27
8/23/2021 5:45:00 PM 21.69 71.042 0.109 7.33 25.81 8.26
8/23/2021 6:00:00 PM 21.68 71.024 0.11 7.28 20.43 8.24
8/23/2021 6:15:00 PM 21.66 70.988 0.11 7.32 18.11 8.26
8/23/2021 6:30:00 PM 21.6 70.88 0.11 7.32 14.96 8.26
8/23/2021 6:45:00 PM 21.52 70.736 0.111 7.32 13.85 8.25
8/23/2021 7:00:00 PM 21.44 70.592 0.11 7.3 11.69 8.25
8/23/2021 7:15:00 PM 21.37 70.466 0.111 7.29 11.13 8.24
8/23/2021 7:30:00 PM 21.31 70.358 0.111 7.28 10.38 8.24
8/23/2021 7:45:00 PM 21.23 70.214 0.111 7.28 9.24 8.23
8/23/2021 8:00:00 PM 21.16 70.088 0.111 7.28 9.32 8.22
8/23/2021 8:15:00 PM 21.08 69.944 0.111 7.27 399.36 8.22
8/23/2021 8:30:00 PM 21 69.8 0.112 7.27 7.56 8.21
8/23/2021 8:45:00 PM 20.91 69.638 0.111 7.25 7.37 8.2
8/23/2021 9:00:00 PM 20.84 69.512 0.112 7.21 7.91 8.21
8/23/2021 9:15:00 PM 20.77 69.386 0.112 7.23 7.08 8.22
8/23/2021 9:30:00 PM 20.7 69.26 0.112 7.24 7.54 8.23
8/23/2021 9:45:00 PM 20.64 69.152 0.112 7.24 6.57 8.25
8/23/2021 10:00:00 PM 20.58 69.044 0.112 7.24 6.14 8.25
8/23/2021 10:15:00 PM 20.52 68.936 0.112 7.23 6.31 8.26
8/23/2021 10:30:00 PM 20.46 68.828 0.111 7.2 6.07 8.27
8/23/2021 10:45:00 PM 20.41 68.738 0.111 7.19 5.47 8.28
8/23/2021 11:00:00 PM 20.36 68.648 0.111 7.23 5.54 8.29
8/23/2021 11:15:00 PM 20.31 68.558 0.112 7.22 5.26 8.29
8/23/2021 11:30:00 PM 20.25 68.45 0.112 7.22 5.36 8.3
8/23/2021 11:45:00 PM 20.2 68.36 0.112 7.22 5.38 8.31
8/24/2021 12:00:00 AM 20.16 68.288 0.112 7.22 4.93 8.33
8/24/2021 12:15:00 AM 20.11 68.198 0.112 7.21 5.09 8.34
8/24/2021 12:30:00 AM 20.07 68.126 0.112 7.22 5.12 8.35
8/24/2021 12:45:00 AM 20.03 68.054 0.112 7.22 4.94 8.36
8/24/2021 1:00:00 AM 19.99 67.982 0.112 7.23 5.21 8.38
8/24/2021 1:15:00 AM 19.95 67.91 0.112 7.21 5.07 8.39
8/24/2021 1:30:00 AM 19.91 67.838 0.112 7.23 5.1 8.4
8/24/2021 1:45:00 AM 19.87 67.766 0.112 7.23 4.62 8.41
8/24/2021 2:00:00 AM 19.82 67.676 0.112 7.23 4.66 8.42
8/24/2021 2:15:00 AM 19.79 67.622 0.112 7.23 4.85 8.43
8/24/2021 2:30:00 AM 19.74 67.532 0.112 7.23 4.73 8.43
8/24/2021 2:45:00 AM 19.7 67.46 0.112 7.19 4.75 8.44
8/24/2021 3:00:00 AM 19.66 67.388 0.113 7.24 4.33 8.45
8/24/2021 3:15:00 AM 19.63 67.334 0.113 7.2 4.27 8.45
8/24/2021 3:30:00 AM 19.59 67.262 0.113 7.24 4.59 8.46
8/24/2021 3:45:00 AM 19.55 67.19 0.113 7.24 4.6 8.46
8/24/2021 4:00:00 AM 19.52 67.136 0.113 7.24 5.23 8.47
8/24/2021 4:15:00 AM 19.48 67.064 0.113 7.21 4.62 8.49
8/24/2021 4:30:00 AM 19.44 66.992 0.113 7.25 4.42 8.49
8/24/2021 4:45:00 AM 19.4 66.92 0.113 7.25 4.26 8.51
8/24/2021 5:00:00 AM 19.37 66.866 0.113 7.25 4 8.52
8/24/2021 5:15:00 AM 19.33 66.794 0.113 7.2 4.26 8.53
8/24/2021 5:30:00 AM 19.29 66.722 0.113 7.23 3.94 8.55
8/24/2021 5:45:00 AM 19.26 66.668 0.113 7.25 3.97 8.55
8/24/2021 6:00:00 AM 19.22 66.596 0.113 7.25 3.97 8.56
8/24/2021 6:15:00 AM 19.19 66.542 0.113 7.25 4.1 8.56
8/24/2021 6:30:00 AM 19.15 66.47 0.113 7.25 3.84 8.57
8/24/2021 6:45:00 AM 19.12 66.416 0.113 7.25 4.09 8.59
8/24/2021 7:00:00 AM 19.08 66.344 0.113 7.25 4.19 8.6
8/24/2021 7:15:00 AM 19.06 66.308 0.113 7.25 4.02 8.62
8/24/2021 7:30:00 AM 19.03 66.254 0.113 7.26 3.79 8.65
8/24/2021 7:45:00 AM 19.01 66.218 0.113 7.26 3.64 8.68
8/24/2021 8:00:00 AM 18.99 66.182 0.113 7.26 3.57 8.72
8/24/2021 8:15:00 AM 18.98 66.164 0.113 7.27 3.36 8.74
8/24/2021 8:30:00 AM 18.97 66.146 0.113 7.25 3.38 8.77
8/24/2021 8:45:00 AM 18.98 66.164 0.113 7.28 3.26 8.81
8/24/2021 9:00:00 AM 18.99 66.182 0.113 7.29 3.05 8.84
8/24/2021 9:15:00 AM 19.01 66.218 0.113 7.3 3.11 8.88
8/24/2021 9:30:00 AM 19.04 66.272 0.113 7.31 3.06 8.91
8/24/2021 9:45:00 AM 19.08 66.344 0.113 7.3 2.85 8.95
8/24/2021 10:00:00 AM 19.13 66.434 0.113 7.32 2.85 8.97
8/24/2021 10:15:00 AM 19.22 66.596 0.113 7.35 2.9 9.01
8/24/2021 10:30:00 AM 19.27 66.686 0.113 7.36 2.89 9.03
8/24/2021 10:45:00 AM 19.37 66.866 0.113 7.38 2.88 9.06
8/24/2021 11:00:00 AM 19.48 67.064 0.113 7.38 2.81 9.07
8/24/2021 11:15:00 AM 19.59 67.262 0.113 7.41 2.72 9.08
8/24/2021 11:30:00 AM 19.69 67.442 0.113 7.4 2.79 9.11
8/24/2021 11:45:00 AM 19.77 67.586 0.112 7.42 2.8 9.12
8/24/2021 12:00:00 PM 19.8 67.64 0.112 7.43 2.74 9.12
8/24/2021 12:15:00 PM 20.02 68.036 0.112 7.43 2.69 9.14
8/24/2021 12:30:00 PM 20.23 68.414 0.112 7.46 2.72 9.15
8/24/2021 12:45:00 PM 20.37 68.666 0.112 7.44 3.08 9.15
8/24/2021 1:00:00 PM 20.55 68.99 0.112 7.48 2.76 9.16
8/24/2021 1:15:00 PM 20.74 69.332 0.112 7.49 2.71 9.16
8/24/2021 1:30:00 PM 20.86 69.548 0.112 7.48 2.48 9.12
8/24/2021 1:45:00 PM 20.99 69.782 0.112 7.5 2.67 9.12
8/24/2021 2:00:00 PM 21.15 70.07 0.112 7.51 2.78 9.12
8/24/2021 2:15:00 PM 21.29 70.32201 0.112 7.52 2.71 9.11
8/24/2021 2:30:00 PM 21.35 70.43 0.112 7.52 2.84 9.07
8/24/2021 2:45:00 PM 21.45 70.61 0.112 7.52 2.75 9.04
8/24/2021 3:00:00 PM 21.52 70.736 0.112 7.52 2.9 9
8/24/2021 3:15:00 PM 21.58 70.844 0.112 7.49 2.86 8.97
8/24/2021 3:30:00 PM 21.65 70.97 0.112 7.51 2.7 8.95
8/24/2021 3:45:00 PM 21.7 71.06 0.112 7.52 3.04 8.91
8/24/2021 4:00:00 PM 21.76 71.168 0.112 7.51 2.69 8.87
8/24/2021 4:15:00 PM 21.79 71.222 0.111 7.51 2.76 8.83
8/24/2021 4:30:00 PM 21.83 71.294 0.111 7.5 2.77 8.78
8/24/2021 4:45:00 PM 21.85 71.33 0.111 7.48 2.57 8.72
8/24/2021 5:00:00 PM 21.87 71.366 0.111 7.47 2.75 8.67
8/24/2021 5:15:00 PM 21.87 71.366 0.111 7.46 2.56 8.62
8/24/2021 5:30:00 PM 21.87 71.366 0.111 7.43 2.63 8.58
8/24/2021 5:45:00 PM 21.86 71.348 0.111 7.44 2.73 8.54
8/24/2021 6:00:00 PM 21.85 71.33 0.111 7.42 2.83 8.5
8/24/2021 6:15:00 PM 21.82 71.276 0.111 7.41 3.03 8.46
8/24/2021 6:30:00 PM 21.8 71.24 0.111 7.4 2.7 8.43
8/24/2021 6:45:00 PM 21.77 71.186 0.111 7.39 2.83 8.4
8/24/2021 7:00:00 PM 21.74 71.132 0.111 7.34 2.85 8.37
8/24/2021 7:15:00 PM 21.71 71.078 0.111 7.36 2.77 8.34
8/24/2021 7:30:00 PM 21.66 70.988 0.111 7.36 2.78 8.32
8/24/2021 7:45:00 PM 21.62 70.916 0.111 7.35 2.76 8.28
8/24/2021 8:00:00 PM 21.57 70.826 0.111 7.34 2.5 8.26
8/24/2021 8:15:00 PM 21.51 70.718 0.111 7.32 2.9 8.24
8/24/2021 8:30:00 PM 21.46 70.628 0.111 7.32 2.77 8.23
8/24/2021 8:45:00 PM 21.4 70.52 0.112 7.32 2.9 8.23
8/24/2021 9:00:00 PM 21.34 70.412 0.112 7.31 2.69 8.22
8/24/2021 9:15:00 PM 21.28 70.304 0.112 7.29 2.92 8.22
8/24/2021 9:30:00 PM 21.21 70.17799 0.112 7.29 2.95 8.22
8/24/2021 9:45:00 PM 21.15 70.07 0.112 7.24 2.98 8.22
8/24/2021 10:00:00 PM 21.09 69.962 0.112 7.28 2.89 8.23
8/24/2021 10:15:00 PM 21.02 69.836 0.112 7.28 2.92 8.23
8/24/2021 10:30:00 PM 20.96 69.728 0.112 7.27 2.87 8.23
8/24/2021 10:45:00 PM 20.89 69.602 0.112 7.28 3.15 8.24
8/24/2021 11:00:00 PM 20.83 69.494 0.112 7.27 2.83 8.25
8/24/2021 11:15:00 PM 20.77 69.386 0.112 7.26 3.11 8.26
8/24/2021 11:30:00 PM 20.71 69.278 0.112 7.27 3.17 8.27
8/24/2021 11:45:00 PM 20.66 69.188 0.112 7.27 3.09 8.29
8/25/2021 12:00:00 AM 20.6 69.08 0.112 7.26 2.91 8.3
8/25/2021 12:15:00 AM 20.54 68.972 0.112 7.25 3.2 8.31
8/25/2021 12:30:00 AM 20.49 68.882 0.112 7.27 3.22 8.33
8/25/2021 12:45:00 AM 20.44 68.792 0.112 7.27 3.17 8.33
8/25/2021 1:00:00 AM 20.39 68.702 0.113 7.27 3.28 8.34
8/25/2021 1:15:00 AM 20.34 68.612 0.113 7.26 3.14 8.35
8/25/2021 1:30:00 AM 20.29 68.522 0.113 7.26 3.17 8.35
8/25/2021 1:45:00 AM 20.24 68.432 0.113 7.26 3.24 8.35
8/25/2021 2:00:00 AM 20.19 68.342 0.113 7.27 3.15 8.37
8/25/2021 2:15:00 AM 20.14 68.252 0.113 7.26 2.93 8.38
8/25/2021 2:30:00 AM 20.1 68.18 0.113 7.27 3.04 8.39
8/25/2021 2:45:00 AM 20.05 68.09 0.113 7.26 3.08 8.4
8/25/2021 3:00:00 AM 20.01 68.018 0.113 7.26 3.06 8.41
8/25/2021 3:15:00 AM 19.96 67.92799 0.113 7.25 3.28 8.42
8/25/2021 3:30:00 AM 19.91 67.838 0.113 7.26 3.15 8.43
8/25/2021 3:45:00 AM 19.87 67.766 0.113 7.26 3.04 8.44
8/25/2021 4:00:00 AM 19.84 67.712 0.113 7.26 3.2 8.45
8/25/2021 4:15:00 AM 19.79 67.622 0.113 7.26 3.08 8.46
8/25/2021 4:30:00 AM 19.74 67.532 0.113 7.25 3.06 8.47
8/25/2021 4:45:00 AM 19.69 67.442 0.113 7.26 3.24 8.48
8/25/2021 5:00:00 AM 19.65 67.37 0.113 7.26 2.99 8.49
8/25/2021 5:15:00 AM 19.61 67.298 0.113 7.24 3.38 8.49
8/25/2021 5:30:00 AM 19.56 67.208 0.113 7.25 3.2 8.5
8/25/2021 5:45:00 AM 19.51 67.118 0.113 7.26 2.93 8.51
8/25/2021 6:00:00 AM 19.47 67.046 0.113 7.26 3.71 8.52
8/25/2021 6:15:00 AM 19.42 66.956 0.113 7.27 3.39 8.54
8/25/2021 6:30:00 AM 19.38 66.884 0.113 7.26 9.13 8.55
8/25/2021 6:45:00 AM 19.33 66.794 0.113 7.27 3.13 8.57
8/25/2021 7:00:00 AM 19.29 66.722 0.113 7.27 3.9 8.6
8/25/2021 7:15:00 AM 19.25 66.65 0.113 7.27 5.17 8.64
8/25/2021 7:30:00 AM 19.23 66.614 0.113 7.28 2.67 8.69
8/25/2021 7:45:00 AM 19.21 66.578 0.113 7.29 2.82 8.76
8/25/2021 8:00:00 AM 19.2 66.56 0.113 7.28 2.31 8.79
8/25/2021 8:15:00 AM 19.19 66.542 0.113 7.29 2.47 8.83
8/25/2021 8:30:00 AM 19.19 66.542 0.113 7.31 2.43 8.88
8/25/2021 8:45:00 AM 19.2 66.56 0.113 7.33 2.49 8.92
8/25/2021 9:00:00 AM 19.22 66.596 0.113 7.35 2.38 8.97
8/25/2021 9:15:00 AM 19.24 66.632 0.112 7.36 2.13 9.04
8/25/2021 9:30:00 AM 19.31 66.758 0.112 7.39 2.3 9.1
8/25/2021 9:45:00 AM 19.35 66.83 0.112 7.37 2.09 9.1
8/25/2021 10:00:00 AM 19.4 66.92 0.112 7.41 2.19 9.13
8/25/2021 10:15:00 AM 19.5 67.1 0.112 7.42 2.08 9.18
8/25/2021 10:30:00 AM 19.56 67.208 0.112 7.43 2.05 9.2
8/25/2021 10:45:00 AM 19.64 67.352 0.112 7.46 2.27 9.24
8/25/2021 11:00:00 AM 19.74 67.532 0.112 7.47 2.04 9.28
8/25/2021 11:15:00 AM 19.84 67.712 0.112 7.49 2.3 9.3
8/25/2021 11:30:00 AM 19.94 67.892 0.112 7.51 1.91 9.32
8/25/2021 11:45:00 AM 20.07 68.126 0.112 7.52 1.92 9.32
8/25/2021 12:00:00 PM 20.22 68.396 0.112 7.53 1.87 9.33
8/25/2021 12:15:00 PM 20.4 68.72 0.112 7.55 1.93 9.36
8/25/2021 12:30:00 PM 20.6 69.08 0.112 7.57 2.11 9.39
8/25/2021 12:45:00 PM 20.75 69.35 0.112 7.59 1.93 9.38
8/25/2021 1:00:00 PM 20.94 69.692 0.112 7.6 2.01 9.37
8/25/2021 1:15:00 PM 21.11 69.998 0.112 7.61 1.87 9.38
8/25/2021 1:30:00 PM 21.3 70.34 0.112 7.63 1.88 9.37
8/25/2021 1:45:00 PM 21.35 70.43 0.112 7.61 1.81 9.29
8/25/2021 2:00:00 PM 21.54 70.772 0.112 7.64 1.83 9.29
8/25/2021 2:15:00 PM 21.67 71.006 0.112 7.65 2.01 9.29
8/25/2021 2:30:00 PM 21.74 71.132 0.112 7.65 1.89 9.27
8/25/2021 2:45:00 PM 21.88 71.384 0.112 7.66 1.85 9.26
8/25/2021 3:00:00 PM 21.99 71.582 0.112 7.66 1.88 9.21
8/25/2021 3:15:00 PM 22.06 71.708 0.112 7.66 1.93 9.16
8/25/2021 3:30:00 PM 22.14 71.852 0.112 7.65 2.14 9.12
8/25/2021 3:45:00 PM 22.2 71.96 0.111 7.65 1.78 9.08
8/25/2021 4:00:00 PM 22.24 72.032 0.111 7.64 1.85 9.02
8/25/2021 4:15:00 PM 22.26 72.068 0.111 7.6 1.89 8.96
8/25/2021 4:30:00 PM 22.27 72.086 0.111 7.61 1.95 8.89
8/25/2021 4:45:00 PM 22.28 72.104 0.111 7.58 1.83 8.82
8/25/2021 5:00:00 PM 22.28 72.104 0.111 7.57 1.93 8.75
8/25/2021 5:15:00 PM 22.29 72.122 0.111 7.53 1.8 8.7
8/25/2021 5:30:00 PM 22.29 72.122 0.111 7.53 1.86 8.65
8/25/2021 5:45:00 PM 22.3 72.14 0.111 7.51 1.91 8.59
8/25/2021 6:00:00 PM 22.3 72.14 0.111 7.5 1.89 8.53
8/25/2021 6:15:00 PM 22.3 72.14 0.111 7.48 1.96 8.48
8/25/2021 6:30:00 PM 22.3 72.14 0.111 7.44 1.96 8.43
8/25/2021 6:45:00 PM 22.28 72.104 0.111 7.44 1.87 8.38
8/25/2021 7:00:00 PM 22.26 72.068 0.111 7.41 1.96 8.34
8/25/2021 7:15:00 PM 22.23 72.014 0.111 7.41 1.83 8.3
8/25/2021 7:30:00 PM 22.19 71.942 0.111 7.4 1.91 8.26
8/25/2021 7:45:00 PM 22.15 71.87 0.111 7.38 2.42 8.22
8/25/2021 8:00:00 PM 22.11 71.798 0.112 7.37 2 8.18
8/25/2021 8:15:00 PM 22.07 71.726 0.112 7.32 1.9 8.16
8/25/2021 8:30:00 PM 22.03 71.654 0.112 7.34 2.19 8.14
8/25/2021 8:45:00 PM 21.98 71.564 0.112 7.3 2.09 8.12
8/25/2021 9:00:00 PM 21.91 71.438 0.112 7.31 2.87 8.11
8/25/2021 9:15:00 PM 21.85 71.33 0.112 7.31 2.22 8.11
8/25/2021 9:30:00 PM 21.8 71.24 0.113 7.26 2.3 8.11
8/25/2021 9:45:00 PM 21.76 71.168 0.113 7.3 2.42 8.1
8/25/2021 10:00:00 PM 21.7 71.06 0.113 7.28 2.28 8.1
8/25/2021 10:15:00 PM 21.64 70.952 0.113 7.28 2.45 8.09
8/25/2021 10:30:00 PM 21.57 70.826 0.113 7.23 2.61 8.1
8/25/2021 10:45:00 PM 21.51 70.718 0.113 7.28 2.75 8.1
8/25/2021 11:00:00 PM 21.45 70.61 0.113 7.27 2.57 8.12
8/25/2021 11:15:00 PM 21.39 70.502 0.113 7.28 2.45 8.13
8/25/2021 11:30:00 PM 21.33 70.394 0.113 7.27 2.55 8.14
8/25/2021 11:45:00 PM 21.27 70.286 0.113 7.27 2.42 8.15
8/26/2021 12:00:00 AM 21.21 70.17799 0.113 7.27 2.47 8.16
8/26/2021 12:15:00 AM 21.15 70.07 0.113 7.27 2.31 8.18
8/26/2021 12:30:00 AM 21.1 69.98 0.113 7.28 2.41 8.18
8/26/2021 12:45:00 AM 21.04 69.872 0.113 7.27 2.54 8.2
8/26/2021 1:00:00 AM 20.98 69.764 0.113 7.27 2.55 8.2
8/26/2021 1:15:00 AM 20.93 69.674 0.113 7.27 3.2 8.21
8/26/2021 1:30:00 AM 20.87 69.566 0.113 7.27 2.44 8.21
8/26/2021 1:45:00 AM 20.82 69.476 0.113 7.27 2.43 8.23
8/26/2021 2:00:00 AM 20.77 69.386 0.113 7.25 2.44 8.24
8/26/2021 2:15:00 AM 20.73 69.314 0.113 7.28 2.43 8.25
8/26/2021 2:30:00 AM 20.68 69.224 0.113 7.28 2.44 8.27
8/26/2021 2:45:00 AM 20.63 69.134 0.114 7.28 2.63 8.27
8/26/2021 3:00:00 AM 20.59 69.062 0.114 7.28 2.57 8.28
8/26/2021 3:15:00 AM 20.54 68.972 0.114 7.27 2.42 8.29
8/26/2021 3:30:00 AM 20.5 68.9 0.114 7.28 2.68 8.29
8/26/2021 3:45:00 AM 20.46 68.828 0.114 7.28 2.28 8.3
8/26/2021 4:00:00 AM 20.42 68.756 0.114 7.28 2.43 8.31
8/26/2021 4:15:00 AM 20.38 68.684 0.114 7.28 2.32 8.32
8/26/2021 4:30:00 AM 20.33 68.594 0.114 7.28 2.29 8.32
8/26/2021 4:45:00 AM 20.3 68.54 0.114 7.28 2.57 8.33
8/26/2021 5:00:00 AM 20.25 68.45 0.114 7.27 3.1 8.33
8/26/2021 5:15:00 AM 20.21 68.378 0.114 7.28 2.26 8.34
8/26/2021 5:30:00 AM 20.17 68.306 0.114 7.28 2.51 8.35
8/26/2021 5:45:00 AM 20.13 68.234 0.114 7.28 2.33 8.36
8/26/2021 6:00:00 AM 20.08 68.144 0.114 7.28 2.41 8.38
8/26/2021 6:15:00 AM 20.04 68.07201 0.114 7.25 2.38 8.38
8/26/2021 6:30:00 AM 20 68 0.114 7.28 2.53 8.41
8/26/2021 6:45:00 AM 19.96 67.92799 0.114 7.26 2.16 8.42
8/26/2021 7:00:00 AM 19.93 67.874 0.114 7.28 2.49 8.44
8/26/2021 7:15:00 AM 19.9 67.82 0.114 7.28 2.21 8.5
8/26/2021 7:30:00 AM 19.87 67.766 0.114 7.29 2.12 8.54
8/26/2021 7:45:00 AM 19.85 67.73 0.114 7.3 2.16 8.6
8/26/2021 8:00:00 AM 19.84 67.712 0.114 7.31 2.25 8.65
8/26/2021 8:15:00 AM 19.83 67.694 0.114 7.32 2.08 8.73
8/26/2021 8:30:00 AM 19.83 67.694 0.114 7.34 2.03 8.77
8/26/2021 8:45:00 AM 19.84 67.712 0.114 7.34 2.14 8.83
8/26/2021 9:00:00 AM 19.86 67.748 0.114 7.37 1.92 8.87
8/26/2021 9:15:00 AM 19.89 67.802 0.114 7.37 2.3 8.94
8/26/2021 9:30:00 AM 19.93 67.874 0.114 7.38 1.96 8.98
8/26/2021 9:45:00 AM 19.97 67.946 0.114 7.42 1.96 9.03
8/26/2021 10:00:00 AM 20.03 68.054 0.114 7.43 1.94 9.08
8/26/2021 10:15:00 AM 20.15 68.27 0.114 7.45 1.98 9.14
8/26/2021 10:30:00 AM 20.24 68.432 0.114 7.49 1.9 9.18
8/26/2021 10:45:00 AM 20.34 68.612 0.114 7.51 1.91 9.24
8/26/2021 11:00:00 AM 20.45 68.81 0.114 7.53 1.95 9.27
8/26/2021 11:15:00 AM 20.56 69.008 0.114 7.55 2.12 9.31
8/26/2021 11:30:00 AM 20.64 69.152 0.114 7.56 1.85 9.32
8/26/2021 11:45:00 AM 20.76 69.368 0.114 7.59 2.07 9.34
8/26/2021 12:00:00 PM 20.91 69.638 0.114 7.61 1.84 9.34
8/26/2021 12:15:00 PM 21.09 69.962 0.113 7.63 1.61 9.4
8/26/2021 12:30:00 PM 21.26 70.268 0.113 7.66 1.72 9.41
8/26/2021 12:45:00 PM 21.48 70.664 0.113 7.68 1.63 9.42
8/26/2021 1:00:00 PM 21.66 70.988 0.113 7.7 1.63 9.43
8/26/2021 1:15:00 PM 21.88 71.384 0.113 7.74 1.76 9.47
8/26/2021 1:30:00 PM 22.05 71.69 0.113 7.75 1.58 9.45
8/26/2021 1:45:00 PM 22.17 71.906 0.113 7.77 1.59 9.44
8/26/2021 2:00:00 PM 22.29 72.122 0.113 7.79 1.62 9.42
8/26/2021 2:15:00 PM 22.38 72.284 0.113 7.79 1.47 9.41
8/26/2021 2:30:00 PM 22.48 72.464 0.113 7.8 1.6 9.39
8/26/2021 2:45:00 PM 22.58 72.644 0.113 7.82 1.73 9.38
8/26/2021 3:00:00 PM 22.65 72.77 0.113 7.78 1.65 9.33
8/26/2021 3:15:00 PM 22.75 72.95 0.113 7.82 1.64 9.3
8/26/2021 3:30:00 PM 22.83 73.094 0.113 7.81 1.6 9.25
8/26/2021 3:45:00 PM 22.87 73.166 0.113 7.8 1.71 9.18
8/26/2021 4:00:00 PM 22.91 73.238 0.113 7.79 1.56 9.14
8/26/2021 4:15:00 PM 22.95 73.31 0.113 7.78 1.74 9.06
8/26/2021 4:30:00 PM 22.97 73.346 0.113 7.76 1.55 9.02
8/26/2021 4:45:00 PM 22.96 73.328 0.113 7.73 1.56 8.93
8/26/2021 5:00:00 PM 22.97 73.346 0.113 7.7 1.68 8.84
8/26/2021 5:15:00 PM 22.97 73.346 0.113 7.67 1.78 8.76
8/26/2021 5:30:00 PM 22.97 73.346 0.113 7.66 1.83 8.7
8/26/2021 5:45:00 PM 22.98 73.364 0.113 7.64 1.76 8.68
8/26/2021 6:00:00 PM 23 73.4 0.113 7.62 1.86 8.61
8/26/2021 6:15:00 PM 22.99 73.382 0.113 7.58 1.67 8.47
8/26/2021 6:30:00 PM 22.99 73.382 0.113 7.55 1.83 8.4
8/26/2021 6:45:00 PM 22.99 73.382 0.113 7.52 1.76 8.35
8/26/2021 7:00:00 PM 22.98 73.364 0.113 7.52 1.64 8.31
8/26/2021 7:15:00 PM 22.95 73.31 0.113 7.5 1.75 8.25
8/26/2021 7:30:00 PM 22.93 73.274 0.113 7.48 1.69 8.21
8/26/2021 7:45:00 PM 22.89 73.202 0.113 7.46 1.7 8.15
8/26/2021 8:00:00 PM 22.84 73.112 0.113 7.45 1.71 8.09
8/26/2021 8:15:00 PM 22.79 73.022 0.113 7.43 1.68 8.05
8/26/2021 8:30:00 PM 22.75 72.95 0.113 7.41 1.79 8.02
8/26/2021 8:45:00 PM 22.7 72.86 0.113 7.41 1.76 7.99
8/26/2021 9:00:00 PM 22.66 72.788 0.113 7.39 1.99 7.97
8/26/2021 9:15:00 PM 22.61 72.698 0.113 7.38 1.82 7.96
8/26/2021 9:30:00 PM 22.57 72.626 0.113 7.37 2.18 7.95
8/26/2021 9:45:00 PM 22.53 72.554 0.113 7.37 1.81 7.94
8/26/2021 10:00:00 PM 22.48 72.464 0.113 7.36 2.03 7.93
8/26/2021 10:15:00 PM 22.43 72.374 0.113 7.34 2.03 7.93
8/26/2021 10:30:00 PM 22.38 72.284 0.113 7.35 2 7.92
8/26/2021 10:45:00 PM 22.33 72.194 0.114 7.33 2 7.92
8/26/2021 11:00:00 PM 22.27 72.086 0.114 7.33 2.09 7.92
8/26/2021 11:15:00 PM 22.21 71.978 0.114 7.32 1.92 7.93
8/26/2021 11:30:00 PM 22.15 71.87 0.114 7.32 2.25 7.93
8/26/2021 11:45:00 PM 22.09 71.762 0.114 7.32 2.19 7.95
8/27/2021 12:00:00 AM 22.03 71.654 0.114 7.32 2.09 7.96
8/27/2021 12:15:00 AM 21.97 71.546 0.114 7.32 1.98 7.98
8/27/2021 12:30:00 AM 21.91 71.438 0.114 7.32 2.16 7.99
8/27/2021 12:45:00 AM 21.85 71.33 0.114 7.32 2.15 8
8/27/2021 1:00:00 AM 21.79 71.222 0.114 7.32 2.07 8.01
8/27/2021 1:15:00 AM 21.73 71.114 0.114 7.32 2.11 8.02
8/27/2021 1:30:00 AM 21.68 71.024 0.114 7.32 2.16 8.03
8/27/2021 1:45:00 AM 21.62 70.916 0.114 7.32 1.9 8.03
8/27/2021 2:00:00 AM 21.56 70.808 0.114 7.31 2.04 8.03
8/27/2021 2:15:00 AM 21.5 70.7 0.115 7.32 2.21 8.05
8/27/2021 2:30:00 AM 21.45 70.61 0.115 7.31 2.06 8.06
8/27/2021 2:45:00 AM 21.39 70.502 0.115 7.32 2.19 8.08
8/27/2021 3:00:00 AM 21.33 70.394 0.115 7.31 2.99 8.09
8/27/2021 3:15:00 AM 21.28 70.304 0.115 7.31 2.14 8.1
8/27/2021 3:30:00 AM 21.22 70.196 0.115 7.31 2.23 8.11
8/27/2021 3:45:00 AM 21.17 70.106 0.115 7.31 2.07 8.12
8/27/2021 4:00:00 AM 21.13 70.034 0.115 7.3 2.3 8.12
8/27/2021 4:15:00 AM 21.09 69.962 0.115 7.3 3.91 8.12
8/27/2021 4:30:00 AM 21.04 69.872 0.115 7.3 2.19 8.14
8/27/2021 4:45:00 AM 21 69.8 0.115 7.3 2.22 8.14
8/27/2021 5:00:00 AM 20.95 69.71 0.115 7.3 1.96 8.15
8/27/2021 5:15:00 AM 20.91 69.638 0.115 7.3 1.95 8.15
8/27/2021 5:30:00 AM 20.87 69.566 0.115 7.28 2.01 8.16
8/27/2021 5:45:00 AM 20.84 69.512 0.115 7.31 1.95 8.17
8/27/2021 6:00:00 AM 20.81 69.458 0.115 7.3 1.97 8.18
8/27/2021 6:15:00 AM 20.77 69.386 0.115 7.3 2.35 8.2
8/27/2021 6:30:00 AM 20.73 69.314 0.115 7.3 2.09 8.2
8/27/2021 6:45:00 AM 20.7 69.26 0.115 7.31 2.08 8.22
8/27/2021 7:00:00 AM 20.67 69.206 0.115 7.31 1.97 8.25
8/27/2021 7:15:00 AM 20.64 69.152 0.115 7.31 1.85 8.27
8/27/2021 7:30:00 AM 20.61 69.098 0.115 7.32 1.93 8.31
8/27/2021 7:45:00 AM 20.59 69.062 0.115 7.33 1.92 8.34
8/27/2021 8:00:00 AM 20.57 69.026 0.115 7.33 1.91 8.39
8/27/2021 8:15:00 AM 20.56 69.008 0.115 7.34 2.09 8.48
8/27/2021 8:30:00 AM 20.56 69.008 0.115 7.36 1.81 8.58
8/27/2021 8:45:00 AM 20.57 69.026 0.115 7.39 1.74 8.68
8/27/2021 9:00:00 AM 20.6 69.08 0.115 7.39 1.73 8.8
8/27/2021 9:15:00 AM 20.6 69.08 0.115 7.43 1.62 8.9
8/27/2021 9:30:00 AM 20.66 69.188 0.115 7.47 1.59 9.02
8/27/2021 9:45:00 AM 20.74 69.332 0.115 7.51 1.67 9.11
8/27/2021 10:00:00 AM 20.73 69.314 0.115 7.54 1.61 9.16
8/27/2021 10:15:00 AM 20.76 69.368 0.115 7.56 1.67 9.23
8/27/2021 10:30:00 AM 20.79 69.422 0.115 7.57 1.71 9.28
8/27/2021 10:45:00 AM 20.81 69.458 0.115 7.62 1.56 9.32
8/27/2021 11:00:00 AM 20.87 69.566 0.115 7.65 1.65 9.39
8/27/2021 11:15:00 AM 20.91 69.638 0.115 7.67 1.68 9.4
8/27/2021 11:30:00 AM 20.96 69.728 0.115 7.7 1.74 9.47
8/27/2021 11:45:00 AM 21.02 69.836 0.115 7.73 1.58 9.53
8/27/2021 12:00:00 PM 21.1 69.98 0.114 7.76 1.44 9.57
8/27/2021 12:15:00 PM 21.17 70.106 0.114 7.79 1.62 9.6
8/27/2021 12:30:00 PM 21.24 70.232 0.114 7.82 1.45 9.65
8/27/2021 12:45:00 PM 21.3 70.34 0.114 7.85 1.52 9.66
8/27/2021 1:00:00 PM 21.34 70.412 0.114 7.87 1.65 9.67
8/27/2021 1:15:00 PM 21.41 70.538 0.114 7.89 1.57 9.67
8/27/2021 1:30:00 PM 21.47 70.646 0.114 7.91 1.49 9.67
8/27/2021 1:45:00 PM 21.55 70.79 0.114 7.93 1.83 9.68
8/27/2021 2:00:00 PM 21.7 71.06 0.114 7.97 1.64 9.74
8/27/2021 2:15:00 PM 21.83 71.294 0.114 8 1.56 9.77
8/27/2021 2:30:00 PM 21.89 71.402 0.114 8.02 1.56 9.76
8/27/2021 2:45:00 PM 21.92 71.456 0.114 8.03 1.35 9.74
8/27/2021 3:00:00 PM 21.94 71.492 0.114 8.02 1.48 9.7
8/27/2021 3:15:00 PM 22.16 71.888 0.114 8.03 1.47 9.68
8/27/2021 3:30:00 PM 22.31 72.158 0.114 8.05 1.47 9.67
8/27/2021 3:45:00 PM 22.37 72.266 0.114 7.98 1.55 9.61
8/27/2021 4:00:00 PM 22.47 72.446 0.114 8.03 1.51 9.56
8/27/2021 4:15:00 PM 22.44 72.392 0.114 8 1.42 9.5
8/27/2021 4:30:00 PM 22.36 72.248 0.114 7.96 1.39 9.39
8/27/2021 4:45:00 PM 22.33 72.194 0.114 7.9 1.44 9.27
8/27/2021 5:00:00 PM 22.3 72.14 0.114 7.83 1.56 9.17
8/27/2021 5:15:00 PM 22.31 72.158 0.114 7.84 1.47 9.12
8/27/2021 5:30:00 PM 22.34 72.212 0.114 7.8 1.48 9.06
8/27/2021 5:45:00 PM 22.35 72.23 0.114 7.76 1.54 8.96
8/27/2021 6:00:00 PM 22.36 72.248 0.114 7.73 1.55 8.88
8/27/2021 6:15:00 PM 22.36 72.248 0.114 7.69 1.54 8.78
8/27/2021 6:30:00 PM 22.39 72.302 0.114 7.64 1.59 8.7
8/27/2021 6:45:00 PM 22.41 72.338 0.114 7.63 1.45 8.63
8/27/2021 7:00:00 PM 22.43 72.374 0.114 7.56 1.47 8.49
8/27/2021 7:15:00 PM 22.42 72.356 0.114 7.55 1.62 8.36
8/27/2021 7:30:00 PM 22.42 72.356 0.114 7.52 1.64 8.3
8/27/2021 7:45:00 PM 22.4 72.32 0.114 7.5 1.62 8.21
8/27/2021 8:00:00 PM 22.44 72.392 0.108 7.47 7.16 8.17
8/27/2021 8:15:00 PM 22.33 72.194 0.11 7.44 3.12 8.15
8/27/2021 8:30:00 PM 22.22 71.996 0.11 7.4 5.93 8.12
8/27/2021 8:45:00 PM 22.24 72.032 0.11 7.4 10.72 8.11
8/27/2021 9:00:00 PM 22.01 71.618 0.11 7.62 424.78 8.14
8/27/2021 9:15:00 PM 22.02 71.636 0.108 7.69 409.95 8.19
8/27/2021 9:30:00 PM 22.01 71.618 0.104 7.61 313.05 8.18
8/27/2021 9:45:00 PM 21.93 71.474 0.102 7.49 238.4 8.16
8/27/2021 10:00:00 PM 21.84 71.312 0.102 7.42 164.89 8.13
8/27/2021 10:15:00 PM 21.76 71.168 0.105 7.4 114.42 8.1
8/27/2021 10:30:00 PM 21.72 71.096 0.107 7.37 86.59 8.08
8/27/2021 10:45:00 PM 21.68 71.024 0.109 7.36 69.87 8.05
8/27/2021 11:00:00 PM 21.64 70.952 0.11 7.34 52.12 8.04
8/27/2021 11:15:00 PM 21.59 70.862 0.111 7.33 39.66 8.03
8/27/2021 11:30:00 PM 21.54 70.772 0.111 7.33 35.2 8.03
8/27/2021 11:45:00 PM 21.49 70.682 0.112 7.32 27.16 8.04
8/28/2021 12:00:00 AM 21.43 70.574 0.112 7.32 24.24 8.06
8/28/2021 12:15:00 AM 21.38 70.484 0.113 7.32 19 8.07
8/28/2021 12:30:00 AM 21.32 70.376 0.114 7.26 17.04 8.09
8/28/2021 12:45:00 AM 21.27 70.286 0.114 7.32 15.01 8.1
8/28/2021 1:00:00 AM 21.21 70.17799 0.115 7.32 14.94 8.12
8/28/2021 1:15:00 AM 21.16 70.088 0.115 7.31 12.51 8.12
8/28/2021 1:30:00 AM 21.1 69.98 0.116 7.27 12.1 8.13
8/28/2021 1:45:00 AM 21.04 69.872 0.116 7.31 10.81 8.15
8/28/2021 2:00:00 AM 20.98 69.764 0.117 7.31 10.53 8.16
8/28/2021 2:15:00 AM 20.93 69.674 0.117 7.31 10.76 8.16
8/28/2021 2:30:00 AM 20.87 69.566 0.117 7.31 9.73 8.18
8/28/2021 2:45:00 AM 20.81 69.458 0.118 7.31 9.05 8.19
8/28/2021 3:00:00 AM 20.75 69.35 0.118 7.3 9.72 8.21
8/28/2021 3:15:00 AM 20.7 69.26 0.118 7.3 8.7 8.23
8/28/2021 3:30:00 AM 20.65 69.17 0.118 7.29 8.23 8.24
8/28/2021 3:45:00 AM 20.6 69.08 0.117 7.3 7.09 8.26
8/28/2021 4:00:00 AM 20.55 68.99 0.117 7.3 7.51 8.27
8/28/2021 4:15:00 AM 20.51 68.918 0.117 7.3 7.12 8.28
8/28/2021 4:30:00 AM 20.46 68.828 0.117 7.3 7.57 8.3
8/28/2021 4:45:00 AM 20.41 68.738 0.117 7.3 6.26 8.31
8/28/2021 5:00:00 AM 20.37 68.666 0.117 7.3 5.84 8.32
8/28/2021 5:15:00 AM 20.32 68.576 0.117 7.29 6.33 8.33
8/28/2021 5:30:00 AM 20.28 68.504 0.117 7.29 6.26 8.33
8/28/2021 5:45:00 AM 20.23 68.414 0.117 7.29 5.98 8.34
8/28/2021 6:00:00 AM 20.19 68.342 0.117 7.29 6.15 8.35
8/28/2021 6:15:00 AM 20.15 68.27 0.117 7.28 6.22 8.37
8/28/2021 6:30:00 AM 20.11 68.198 0.117 7.29 5.8 8.38
8/28/2021 6:45:00 AM 20.07 68.126 0.117 7.29 5.8 8.4
8/28/2021 7:00:00 AM 20.03 68.054 0.117 7.29 5.7 8.42
8/28/2021 7:15:00 AM 20 68 0.117 7.3 5.29 8.45
8/28/2021 7:30:00 AM 19.97 67.946 0.117 7.28 5.59 8.48
8/28/2021 7:45:00 AM 19.95 67.91 0.117 7.32 5.32 8.53
8/28/2021 8:00:00 AM 19.93 67.874 0.118 7.32 4.91 8.58
8/28/2021 8:15:00 AM 19.91 67.838 0.118 7.33 5.03 8.62
8/28/2021 8:30:00 AM 19.89 67.802 0.118 7.34 5.1 8.63
8/28/2021 8:45:00 AM 19.88 67.784 0.118 7.34 4.28 8.65
8/28/2021 9:00:00 AM 19.87 67.766 0.118 7.35 4.45 8.71
8/28/2021 9:15:00 AM 19.88 67.784 0.118 7.36 4.13 8.8
8/28/2021 9:30:00 AM 19.86 67.748 0.118 7.36 3.89 8.78
8/28/2021 9:45:00 AM 19.85 67.73 0.118 7.36 3.88 8.79
8/28/2021 10:00:00 AM 19.87 67.766 0.118 7.37 3.57 8.88
8/28/2021 10:15:00 AM 19.89 67.802 0.118 7.39 3.43 8.92
8/28/2021 10:30:00 AM 19.88 67.784 0.118 7.37 3.73 8.93
8/28/2021 10:45:00 AM 19.93 67.874 0.118 7.42 3.75 9.05
8/28/2021 11:00:00 AM 19.95 67.91 0.118 7.43 3.55 9.06
8/28/2021 11:15:00 AM 19.94 67.892 0.118 7.43 3.48 8.98
8/28/2021 11:30:00 AM 19.95 67.91 0.118 7.42 3.35 8.94
8/28/2021 11:45:00 AM 19.97 67.946 0.118 7.43 3.42 8.94
8/28/2021 12:00:00 PM 19.98 67.964 0.118 7.42 3.35 8.91
8/28/2021 12:15:00 PM 19.98 67.964 0.118 7.42 3.16 8.88
8/28/2021 12:30:00 PM 19.98 67.964 0.118 7.41 3.04 8.85
8/28/2021 12:45:00 PM 19.99 67.982 0.118 7.43 3.36 8.92
8/28/2021 1:00:00 PM 20.03 68.054 0.118 7.46 3.24 9.03
8/28/2021 1:15:00 PM 20.12 68.216 0.118 7.5 3.02 9.18
8/28/2021 1:30:00 PM 20.24 68.432 0.118 7.54 2.94 9.26
8/28/2021 1:45:00 PM 20.22 68.396 0.118 7.55 3.33 9.26
8/28/2021 2:00:00 PM 20.33 68.594 0.119 7.59 3.08 9.37
8/28/2021 2:15:00 PM 20.35 68.63 0.119 7.59 3.01 9.29
8/28/2021 2:30:00 PM 20.39 68.702 0.119 7.58 3.28 9.28
8/28/2021 2:45:00 PM 20.58 69.044 0.119 7.63 3.22 9.39
8/28/2021 3:00:00 PM 20.63 69.134 0.119 7.66 3.03 9.42
8/28/2021 3:15:00 PM 20.66 69.188 0.119 7.66 3.04 9.38
8/28/2021 3:30:00 PM 20.66 69.188 0.119 7.65 3.15 9.34
8/28/2021 3:45:00 PM 20.68 69.224 0.119 7.65 3.16 9.33
8/28/2021 4:00:00 PM 20.67 69.206 0.119 7.63 3.4 9.23
8/28/2021 4:15:00 PM 20.7 69.26 0.118 7.62 3.02 9.18
8/28/2021 4:30:00 PM 20.78 69.404 0.118 7.63 3.3 9.23
8/28/2021 4:45:00 PM 20.82 69.476 0.118 7.61 3.18 9.2
8/28/2021 5:00:00 PM 20.83 69.494 0.118 7.64 3.11 9.19
8/28/2021 5:15:00 PM 20.83 69.494 0.118 7.62 3.27 9.14
8/28/2021 5:30:00 PM 20.8 69.44 0.118 7.6 3.32 9.03
8/28/2021 5:45:00 PM 20.75 69.35 0.118 7.57 3.15 8.94
8/28/2021 6:00:00 PM 20.73 69.314 0.118 7.55 3.34 8.91
8/28/2021 6:15:00 PM 20.71 69.278 0.118 7.52 3.26 8.84
8/28/2021 6:30:00 PM 20.69 69.242 0.118 7.49 3.07 8.77
8/28/2021 6:45:00 PM 20.66 69.188 0.118 7.48 2.8 8.7
8/28/2021 7:00:00 PM 20.63 69.134 0.118 7.47 2.8 8.66
8/28/2021 7:15:00 PM 20.6 69.08 0.118 7.46 2.92 8.62
8/28/2021 7:30:00 PM 20.56 69.008 0.118 7.44 2.9 8.58
8/28/2021 7:45:00 PM 20.53 68.954 0.118 7.42 2.88 8.55
8/28/2021 8:00:00 PM 20.5 68.9 0.118 7.41 2.76 8.51
8/28/2021 8:15:00 PM 20.46 68.828 0.118 7.4 3.28 8.48
8/28/2021 8:30:00 PM 20.44 68.792 0.118 7.39 3.18 8.47
8/28/2021 8:45:00 PM 20.42 68.756 0.118 7.39 3.16 8.44
8/28/2021 9:00:00 PM 20.39 68.702 0.118 7.38 3.23 8.43
8/28/2021 9:15:00 PM 20.37 68.666 0.118 7.37 3.04 8.41
8/28/2021 9:30:00 PM 20.34 68.612 0.118 7.37 3.2 8.41
8/28/2021 9:45:00 PM 20.32 68.576 0.118 7.36 3.15 8.4
8/28/2021 10:00:00 PM 20.3 68.54 0.118 7.35 2.99 8.4
8/28/2021 10:15:00 PM 20.28 68.504 0.118 7.35 3.14 8.39
8/28/2021 10:30:00 PM 20.26 68.468 0.118 7.35 3.38 8.39
8/28/2021 10:45:00 PM 20.24 68.432 0.118 7.35 2.93 8.38
8/28/2021 11:00:00 PM 20.21 68.378 0.118 7.34 2.96 8.39
8/28/2021 11:15:00 PM 20.19 68.342 0.118 7.34 2.93 8.39
8/28/2021 11:30:00 PM 20.17 68.306 0.118 7.34 3.03 8.39
8/28/2021 11:45:00 PM 20.15 68.27 0.118 7.34 2.82 8.39
8/29/2021 12:00:00 AM 20.13 68.234 0.118 7.34 2.81 8.4
8/29/2021 12:15:00 AM 20.1 68.18 0.118 7.34 2.99 8.4
8/29/2021 12:30:00 AM 20.08 68.144 0.118 7.34 3.14 8.41
8/29/2021 12:45:00 AM 20.06 68.108 0.118 7.33 3.03 8.4
8/29/2021 1:00:00 AM 20.04 68.07201 0.118 7.33 3.15 8.41
8/29/2021 1:15:00 AM 20.01 68.018 0.118 7.33 3.1 8.42
8/29/2021 1:30:00 AM 19.98 67.964 0.118 7.33 3.23 8.42
8/29/2021 1:45:00 AM 19.96 67.92799 0.118 7.33 2.92 8.43
8/29/2021 2:00:00 AM 19.94 67.892 0.118 7.33 2.99 8.44
8/29/2021 2:15:00 AM 19.91 67.838 0.118 7.34 2.89 8.44
8/29/2021 2:30:00 AM 19.88 67.784 0.118 7.34 3.36 8.45
8/29/2021 2:45:00 AM 19.86 67.748 0.118 7.32 3.09 8.44
8/29/2021 3:00:00 AM 19.84 67.712 0.118 7.34 2.94 8.45
8/29/2021 3:15:00 AM 19.81 67.658 0.118 7.32 3.12 8.46
8/29/2021 3:30:00 AM 19.79 67.622 0.118 7.34 2.93 8.46
8/29/2021 3:45:00 AM 19.76 67.568 0.118 7.34 2.74 8.46
8/29/2021 4:00:00 AM 19.74 67.532 0.118 7.34 2.71 8.46
8/29/2021 4:15:00 AM 19.71 67.478 0.118 7.34 2.94 8.47
8/29/2021 4:30:00 AM 19.69 67.442 0.118 7.33 2.57 8.47
8/29/2021 4:45:00 AM 19.67 67.406 0.118 7.34 2.79 8.47
8/29/2021 5:00:00 AM 19.65 67.37 0.118 7.34 2.86 8.48
8/29/2021 5:15:00 AM 19.63 67.334 0.118 7.34 2.62 8.48
8/29/2021 5:30:00 AM 19.6 67.28 0.118 7.34 2.81 8.48
8/29/2021 5:45:00 AM 19.58 67.244 0.119 7.34 2.73 8.48
8/29/2021 6:00:00 AM 19.56 67.208 0.118 7.33 2.85 8.48
8/29/2021 6:15:00 AM 19.54 67.172 0.118 7.34 2.61 8.49
8/29/2021 6:30:00 AM 19.52 67.136 0.118 7.34 2.69 8.49
8/29/2021 6:45:00 AM 19.5 67.1 0.119 7.31 2.63 8.51
8/29/2021 7:00:00 AM 19.48 67.064 0.119 7.35 2.49 8.52
8/29/2021 7:15:00 AM 19.46 67.028 0.119 7.35 2.68 8.54
8/29/2021 7:30:00 AM 19.45 67.01 0.119 7.35 2.42 8.56
8/29/2021 7:45:00 AM 19.43 66.974 0.119 7.35 2.5 8.58
8/29/2021 8:00:00 AM 19.42 66.956 0.118 7.36 2.39 8.62
8/29/2021 8:15:00 AM 19.41 66.938 0.118 7.37 2.43 8.65
8/29/2021 8:30:00 AM 19.4 66.92 0.118 7.38 2.3 8.68
8/29/2021 8:45:00 AM 19.4 66.92 0.118 7.38 2.22 8.73
8/29/2021 9:00:00 AM 19.4 66.92 0.118 7.4 2.13 8.8
8/29/2021 9:15:00 AM 19.41 66.938 0.118 7.41 2.13 8.87
8/29/2021 9:30:00 AM 19.44 66.992 0.118 7.44 2.22 9.02
8/29/2021 9:45:00 AM 19.51 67.118 0.118 7.48 2.08 9.15
8/29/2021 10:00:00 AM 19.5 67.1 0.118 7.49 2.11 9.14
8/29/2021 10:15:00 AM 19.51 67.118 0.118 7.51 1.98 9.19
8/29/2021 10:30:00 AM 19.55 67.19 0.118 7.53 1.9 9.27
8/29/2021 10:45:00 AM 19.59 67.262 0.118 7.56 2.05 9.35
8/29/2021 11:00:00 AM 19.63 67.334 0.118 7.58 1.87 9.39
8/29/2021 11:15:00 AM 19.68 67.424 0.118 7.61 2.08 9.45
8/29/2021 11:30:00 AM 19.73 67.514 0.118 7.63 1.91 9.5
8/29/2021 11:45:00 AM 19.78 67.604 0.118 7.65 1.97 9.54
8/29/2021 12:00:00 PM 19.88 67.784 0.118 7.69 1.9 9.62
8/29/2021 12:15:00 PM 20.06 68.108 0.118 7.72 1.93 9.69
8/29/2021 12:30:00 PM 20.13 68.234 0.118 7.76 2.02 9.73
8/29/2021 12:45:00 PM 20.18 68.324 0.118 7.79 2.06 9.74
8/29/2021 1:00:00 PM 20.24 68.432 0.118 7.81 1.9 9.75
8/29/2021 1:15:00 PM 20.29 68.522 0.117 7.82 1.77 9.75
8/29/2021 1:30:00 PM 20.37 68.666 0.117 7.84 1.94 9.77
8/29/2021 1:45:00 PM 20.45 68.81 0.117 7.84 1.96 9.77
8/29/2021 2:00:00 PM 20.52 68.936 0.117 7.87 1.89 9.76
8/29/2021 2:15:00 PM 20.61 69.098 0.117 7.89 1.99 9.77
8/29/2021 2:30:00 PM 20.7 69.26 0.117 7.91 1.82 9.79
8/29/2021 2:45:00 PM 20.78 69.404 0.117 7.93 1.8 9.77
8/29/2021 3:00:00 PM 20.81 69.458 0.117 7.9 1.74 9.7
8/29/2021 3:15:00 PM 20.85 69.53 0.117 7.9 1.76 9.66
8/29/2021 3:30:00 PM 20.89 69.602 0.117 7.89 1.78 9.63
8/29/2021 3:45:00 PM 20.91 69.638 0.117 7.87 1.83 9.54
8/29/2021 4:00:00 PM 20.92 69.656 0.117 7.84 1.79 9.47
8/29/2021 4:15:00 PM 20.94 69.692 0.117 7.81 1.83 9.41
8/29/2021 4:30:00 PM 20.95 69.71 0.117 7.8 1.84 9.36
8/29/2021 4:45:00 PM 20.96 69.728 0.117 7.78 2.12 9.34
8/29/2021 5:00:00 PM 20.95 69.71 0.117 7.75 1.8 9.22
8/29/2021 5:15:00 PM 20.93 69.674 0.117 7.7 1.87 9.1
8/29/2021 5:30:00 PM 20.92 69.656 0.117 7.67 1.91 9.03
8/29/2021 5:45:00 PM 20.9 69.62 0.117 7.63 1.98 8.95
8/29/2021 6:00:00 PM 20.89 69.602 0.117 7.62 1.96 8.92
8/29/2021 6:15:00 PM 20.87 69.566 0.117 7.58 1.84 8.84
8/29/2021 6:30:00 PM 20.85 69.53 0.117 7.56 1.96 8.74
8/29/2021 6:45:00 PM 20.83 69.494 0.117 7.53 1.97 8.67
8/29/2021 7:00:00 PM 20.81 69.458 0.117 7.51 1.92 8.64
8/29/2021 7:15:00 PM 20.78 69.404 0.117 7.49 1.93 8.57
8/29/2021 7:30:00 PM 20.76 69.368 0.117 7.46 1.82 8.5
8/29/2021 7:45:00 PM 20.73 69.314 0.117 7.45 1.99 8.46
8/29/2021 8:00:00 PM 20.71 69.278 0.117 7.43 1.81 8.41
8/29/2021 8:15:00 PM 20.68 69.224 0.118 7.42 2.19 8.37
8/29/2021 8:30:00 PM 20.66 69.188 0.118 7.4 2.19 8.34
8/29/2021 8:45:00 PM 20.64 69.152 0.118 7.38 2.07 8.32
8/29/2021 9:00:00 PM 20.61 69.098 0.118 7.38 2.1 8.3
8/29/2021 9:15:00 PM 20.59 69.062 0.118 7.37 2.22 8.29
8/29/2021 9:30:00 PM 20.57 69.026 0.118 7.36 2.21 8.28
8/29/2021 9:45:00 PM 20.55 68.99 0.118 7.35 2.14 8.26
8/29/2021 10:00:00 PM 20.53 68.954 0.118 7.35 2.1 8.25
8/29/2021 10:15:00 PM 20.51 68.918 0.118 7.34 3.48 8.25
8/29/2021 10:30:00 PM 20.49 68.882 0.118 7.33 2.24 8.25
8/29/2021 10:45:00 PM 20.47 68.846 0.118 7.34 2.13 8.25
8/29/2021 11:00:00 PM 20.45 68.81 0.118 7.33 2.87 8.25
8/29/2021 11:15:00 PM 20.44 68.792 0.118 7.33 2.1 8.24
8/29/2021 11:30:00 PM 20.41 68.738 0.118 7.32 2.29 8.24
8/29/2021 11:45:00 PM 20.39 68.702 0.118 7.32 2.07 8.24
8/30/2021 12:00:00 AM 20.37 68.666 0.118 7.27 2.26 8.23
8/30/2021 12:15:00 AM 20.35 68.63 0.118 7.32 2.22 8.24
8/30/2021 12:30:00 AM 20.33 68.594 0.118 7.31 2.14 8.23
8/30/2021 12:45:00 AM 20.32 68.576 0.118 7.32 2.11 8.24
8/30/2021 1:00:00 AM 20.3 68.54 0.118 7.31 2.4 8.24
8/30/2021 1:15:00 AM 20.28 68.504 0.118 7.31 2.13 8.23
8/30/2021 1:30:00 AM 20.27 68.486 0.119 7.31 2.42 8.21
8/30/2021 1:45:00 AM 20.24 68.432 0.119 7.31 2.33 8.22
8/30/2021 2:00:00 AM 20.22 68.396 0.119 7.31 2.27 8.23
8/30/2021 2:15:00 AM 20.21 68.378 0.119 7.31 2.36 8.22
8/30/2021 2:30:00 AM 20.19 68.342 0.119 7.31 2.41 8.23
8/30/2021 2:45:00 AM 20.17 68.306 0.119 7.3 2.39 8.23
8/30/2021 3:00:00 AM 20.14 68.252 0.119 7.3 2.46 8.24
8/30/2021 3:15:00 AM 20.12 68.216 0.119 7.3 2.41 8.25
8/30/2021 3:30:00 AM 20.1 68.18 0.119 7.3 2.15 8.25
8/30/2021 3:45:00 AM 20.07 68.126 0.119 7.3 2.15 8.26
8/30/2021 4:00:00 AM 20.04 68.07201 0.119 7.3 2.3 8.27
8/30/2021 4:15:00 AM 20.02 68.036 0.119 7.3 3.35 8.26
8/30/2021 4:30:00 AM 20 68 0.119 7.3 2.51 8.28
8/30/2021 4:45:00 AM 19.98 67.964 0.119 7.3 2.24 8.28
8/30/2021 5:00:00 AM 19.96 67.92799 0.119 7.29 2.36 8.28
8/30/2021 5:15:00 AM 19.94 67.892 0.119 7.3 2.35 8.29
8/30/2021 5:30:00 AM 19.91 67.838 0.119 7.29 2.25 8.3
8/30/2021 5:45:00 AM 19.89 67.802 0.119 7.29 2.67 8.29
8/30/2021 6:00:00 AM 19.86 67.748 0.119 7.27 2.25 8.3
8/30/2021 6:15:00 AM 19.85 67.73 0.119 7.28 2.38 8.3
8/30/2021 6:30:00 AM 19.83 67.694 0.119 7.29 2.13 8.31
8/30/2021 6:45:00 AM 19.81 67.658 0.119 7.29 2.37 8.32
8/30/2021 7:00:00 AM 19.79 67.622 0.119 7.3 2.26 8.35
8/30/2021 7:15:00 AM 19.78 67.604 0.119 7.3 2.34 8.37
8/30/2021 7:30:00 AM 19.78 67.604 0.119 7.31 2.18 8.43
8/30/2021 7:45:00 AM 19.78 67.604 0.119 7.32 2.01 8.49
8/30/2021 8:00:00 AM 19.77 67.586 0.119 7.29 1.97 8.56
8/30/2021 8:15:00 AM 19.78 67.604 0.119 7.34 2.18 8.62
8/30/2021 8:30:00 AM 19.8 67.64 0.119 7.37 1.81 8.75
8/30/2021 8:45:00 AM 19.84 67.712 0.119 7.4 2.07 8.89
8/30/2021 9:00:00 AM 19.84 67.712 0.119 7.4 1.9 8.92
8/30/2021 9:15:00 AM 19.88 67.784 0.119 7.44 2.01 9.02
8/30/2021 9:30:00 AM 19.92 67.856 0.119 7.47 2.56 9.09
8/30/2021 9:45:00 AM 19.97 67.946 0.119 7.5 1.91 9.19
8/30/2021 10:00:00 AM 20.03 68.054 0.119 7.54 1.75 9.26
8/30/2021 10:15:00 AM 20.11 68.198 0.119 7.57 1.72 9.36
8/30/2021 10:30:00 AM 20.19 68.342 0.119 7.63 1.84 9.43
8/30/2021 10:45:00 AM 20.2 68.36 0.119 7.63 1.74 9.4
8/30/2021 11:00:00 AM 20.21 68.378 0.119 7.65 1.75 9.37
8/30/2021 11:15:00 AM 20.32 68.576 0.119 7.66 1.86 9.49
8/30/2021 11:30:00 AM 20.41 68.738 0.119 7.72 1.73 9.52
8/30/2021 11:45:00 AM 20.4 68.72 0.119 7.71 1.69 9.47
8/30/2021 12:00:00 PM 20.44 68.792 0.119 7.69 1.75 9.44
8/30/2021 12:15:00 PM 20.52 68.936 0.118 7.75 1.6 9.52
8/30/2021 12:30:00 PM 20.65 69.17 0.118 7.78 1.57 9.61
8/30/2021 12:45:00 PM 20.69 69.242 0.118 7.81 1.55 9.59
8/30/2021 1:00:00 PM 20.74 69.332 0.118 7.83 1.69 9.61
8/30/2021 1:15:00 PM 20.77 69.386 0.118 7.83 1.66 9.56
8/30/2021 1:30:00 PM 20.76 69.368 0.118 7.79 1.65 9.45
8/30/2021 1:45:00 PM 20.95 69.71 0.118 7.83 1.6 9.56
8/30/2021 2:00:00 PM 21.09 69.962 0.118 7.9 1.74 9.67
8/30/2021 2:15:00 PM 21.08 69.944 0.118 7.91 1.77 9.64
8/30/2021 2:30:00 PM 21.25 70.25 0.118 7.95 1.92 9.71
8/30/2021 2:45:00 PM 21.47 70.646 0.118 7.97 1.92 9.7
8/30/2021 3:00:00 PM 21.45 70.61 0.118 7.96 1.78 9.62
8/30/2021 3:15:00 PM 21.43 70.574 0.118 7.95 1.65 9.57
8/30/2021 3:30:00 PM 21.55 70.79 0.118 7.96 1.72 9.56
8/30/2021 3:45:00 PM 21.64 70.952 0.118 7.95 1.62 9.52
8/30/2021 4:00:00 PM 21.65 70.97 0.118 7.93 1.54 9.48
8/30/2021 4:15:00 PM 21.59 70.862 0.118 7.89 1.55 9.33
8/30/2021 4:30:00 PM 21.68 71.024 0.118 7.9 1.63 9.35
8/30/2021 4:45:00 PM 21.77 71.186 0.118 7.9 1.67 9.31
8/30/2021 5:00:00 PM 21.72 71.096 0.118 7.83 1.65 9.14
8/30/2021 5:15:00 PM 21.75 71.15 0.118 7.8 1.74 9.08
8/30/2021 5:30:00 PM 21.79 71.222 0.118 7.77 1.67 9.01
8/30/2021 5:45:00 PM 21.79 71.222 0.118 7.73 1.66 8.9
8/30/2021 6:00:00 PM 21.76 71.168 0.118 7.69 1.76 8.8
8/30/2021 6:15:00 PM 21.74 71.132 0.118 7.66 1.63 8.73
8/30/2021 6:30:00 PM 21.72 71.096 0.118 7.63 1.72 8.63
8/30/2021 6:45:00 PM 21.71 71.078 0.118 7.59 1.61 8.53
8/30/2021 7:00:00 PM 21.69 71.042 0.118 7.56 1.84 8.43
8/30/2021 7:15:00 PM 21.67 71.006 0.118 7.54 1.63 8.36
8/30/2021 7:30:00 PM 21.66 70.988 0.118 7.51 1.89 8.29
8/30/2021 7:45:00 PM 21.63 70.934 0.118 7.47 1.95 8.22
8/30/2021 8:00:00 PM 21.61 70.898 0.118 7.46 1.72 8.15
8/30/2021 8:15:00 PM 21.58 70.844 0.118 7.44 2.04 8.1
8/30/2021 8:30:00 PM 21.54 70.772 0.119 7.42 1.9 8.07
8/30/2021 8:45:00 PM 21.5 70.7 0.119 7.41 1.89 8.05
8/30/2021 9:00:00 PM 21.46 70.628 0.119 7.4 1.98 8.03
8/30/2021 9:15:00 PM 21.41 70.538 0.119 7.39 1.9 8.02
8/30/2021 9:30:00 PM 21.37 70.466 0.119 7.37 2.08 8.02
8/30/2021 9:45:00 PM 21.32 70.376 0.119 7.37 2.23 8.01
8/30/2021 10:00:00 PM 21.29 70.32201 0.119 7.35 2.11 8
8/30/2021 10:15:00 PM 21.25 70.25 0.119 7.35 1.94 8
8/30/2021 10:30:00 PM 21.21 70.17799 0.119 7.34 2.01 7.99
8/30/2021 10:45:00 PM 21.18 70.124 0.119 7.34 2.24 7.98
8/30/2021 11:00:00 PM 21.14 70.052 0.119 7.33 2.25 7.98
8/30/2021 11:15:00 PM 21.11 69.998 0.119 7.32 2.1 7.99
8/30/2021 11:30:00 PM 21.08 69.944 0.119 7.33 1.97 7.98
8/30/2021 11:45:00 PM 21.04 69.872 0.119 7.33 1.97 7.99
8/31/2021 12:00:00 AM 21.01 69.818 0.119 7.32 2.1 7.99
8/31/2021 12:15:00 AM 20.98 69.764 0.119 7.32 2.27 8
8/31/2021 12:30:00 AM 20.94 69.692 0.119 7.32 2.37 8
8/31/2021 12:45:00 AM 20.9 69.62 0.119 7.32 2.27 7.99
8/31/2021 1:00:00 AM 20.87 69.566 0.119 7.32 2.08 7.99
8/31/2021 1:15:00 AM 20.83 69.494 0.119 7.32 2.06 8
8/31/2021 1:30:00 AM 20.79 69.422 0.119 7.32 2.43 8.01
8/31/2021 1:45:00 AM 20.75 69.35 0.119 7.32 2.08 8.02
8/31/2021 2:00:00 AM 20.72 69.296 0.119 7.32 2.18 8.03
8/31/2021 2:15:00 AM 20.7 69.26 0.119 7.32 2 8.04
8/31/2021 2:30:00 AM 20.66 69.188 0.119 7.32 2.23 8.04
8/31/2021 2:45:00 AM 20.63 69.134 0.119 7.31 1.9 8.05
8/31/2021 3:00:00 AM 20.6 69.08 0.119 7.31 2.27 8.06
8/31/2021 3:15:00 AM 20.56 69.008 0.12 7.31 2.25 8.07
8/31/2021 3:30:00 AM 20.52 68.936 0.12 7.31 2.35 8.07
8/31/2021 3:45:00 AM 20.49 68.882 0.12 7.31 2.5 8.07
8/31/2021 4:00:00 AM 20.46 68.828 0.12 7.31 2.25 8.08
8/31/2021 4:15:00 AM 20.42 68.756 0.12 7.31 2.2 8.1
8/31/2021 4:30:00 AM 20.38 68.684 0.12 7.32 2.22 8.09
8/31/2021 4:45:00 AM 20.35 68.63 0.12 7.32 2.02 8.11
8/31/2021 5:00:00 AM 20.31 68.558 0.12 7.33 2.16 8.11
8/31/2021 5:15:00 AM 20.27 68.486 0.12 7.33 1.99 8.11
8/31/2021 5:30:00 AM 20.22 68.396 0.12 7.33 2.58 8.12
8/31/2021 5:45:00 AM 20.18 68.324 0.12 7.33 2.06 8.13
8/31/2021 6:00:00 AM 20.14 68.252 0.12 7.33 2.07 8.15
8/31/2021 6:15:00 AM 20.09 68.162 0.12 7.33 2.13 8.15
8/31/2021 6:30:00 AM 20.03 68.054 0.12 7.33 2.23 8.17
8/31/2021 6:45:00 AM 19.98 67.964 0.12 7.33 2.01 8.18
8/31/2021 7:00:00 AM 19.93 67.874 0.12 7.34 1.99 8.22
8/31/2021 7:15:00 AM 19.89 67.802 0.12 7.35 1.9 8.27
8/31/2021 7:30:00 AM 19.85 67.73 0.12 7.36 2.02 8.33
8/31/2021 7:45:00 AM 19.82 67.676 0.12 7.37 1.94 8.41
8/31/2021 8:00:00 AM 19.79 67.622 0.12 7.39 1.92 8.51
8/31/2021 8:15:00 AM 19.77 67.586 0.12 7.41 1.96 8.62
8/31/2021 8:30:00 AM 19.77 67.586 0.12 7.44 1.81 8.76
8/31/2021 8:45:00 AM 19.77 67.586 0.119 7.47 1.84 8.88
8/31/2021 9:00:00 AM 19.77 67.586 0.119 7.49 1.9 8.97
8/31/2021 9:15:00 AM 19.78 67.604 0.119 7.53 1.8 9.09
8/31/2021 9:30:00 AM 19.8 67.64 0.119 7.56 1.71 9.18
8/31/2021 9:45:00 AM 19.82 67.676 0.119 7.58 1.74 9.25
8/31/2021 10:00:00 AM 19.84 67.712 0.119 7.62 1.77 9.33
8/31/2021 10:15:00 AM 19.88 67.784 0.119 7.65 1.71 9.42
8/31/2021 10:30:00 AM 19.93 67.874 0.119 7.7 1.79 9.51
8/31/2021 10:45:00 AM 19.99 67.982 0.119 7.75 1.63 9.62
8/31/2021 11:00:00 AM 20.05 68.09 0.119 7.79 1.59 9.67
8/31/2021 11:15:00 AM 20.13 68.234 0.119 7.84 1.73 9.74
8/31/2021 11:30:00 AM 20.19 68.342 0.119 7.87 1.66 9.8
8/31/2021 11:45:00 AM 20.26 68.468 0.119 7.92 1.58 9.84
8/31/2021 12:00:00 PM 20.35 68.63 0.119 7.94 1.58 9.86
8/31/2021 12:15:00 PM 20.42 68.756 0.118 7.99 1.56 9.92
8/31/2021 12:30:00 PM 20.56 69.008 0.118 8.04 1.46 9.96
8/31/2021 12:45:00 PM 20.63 69.134 0.118 8.03 1.54 9.97
8/31/2021 1:00:00 PM 20.67 69.206 0.118 8.06 1.52 9.96
8/31/2021 1:15:00 PM 20.85 69.53 0.118 8.1 1.56 9.98
8/31/2021 1:30:00 PM 20.92 69.656 0.118 8.14 1.49 9.98
8/31/2021 1:45:00 PM 20.95 69.71 0.118 8.15 1.47 9.97
8/31/2021 2:00:00 PM 21.2 70.16 0.118 8.18 1.5 9.99
8/31/2021 2:15:00 PM 21.44 70.592 0.118 8.2 1.65 9.99
8/31/2021 2:30:00 PM 21.52 70.736 0.118 8.22 1.51 9.97
8/31/2021 2:45:00 PM 21.66 70.988 0.118 8.23 1.49 9.95
8/31/2021 3:00:00 PM 21.73 71.114 0.118 8.22 1.54 9.91
8/31/2021 3:15:00 PM 21.71 71.078 0.118 8.22 1.55 9.88
8/31/2021 3:30:00 PM 21.78 71.204 0.118 8.22 1.52 9.86
8/31/2021 3:45:00 PM 21.89 71.402 0.118 8.23 1.75 9.85
8/31/2021 4:00:00 PM 21.86 71.348 0.118 8.2 1.53 9.76
8/31/2021 4:15:00 PM 21.78 71.204 0.118 8.16 1.69 9.65
8/31/2021 4:30:00 PM 21.84 71.312 0.118 8.15 1.4 9.61
8/31/2021 4:45:00 PM 21.83 71.294 0.118 8.09 1.51 9.48
8/31/2021 5:00:00 PM 21.78 71.204 0.118 8.04 1.53 9.35
8/31/2021 5:15:00 PM 21.77 71.186 0.118 7.96 1.47 9.23
8/31/2021 5:30:00 PM 21.72 71.096 0.118 7.93 1.45 9.13
8/31/2021 5:45:00 PM 21.69 71.042 0.118 7.87 1.62 9.02
8/31/2021 6:00:00 PM 21.69 71.042 0.118 7.81 1.58 8.91
8/31/2021 6:15:00 PM 21.68 71.024 0.118 7.78 1.69 8.83
8/31/2021 6:30:00 PM 21.68 71.024 0.118 7.74 1.59 8.74
8/31/2021 6:45:00 PM 21.66 70.988 0.118 7.7 1.61 8.65
8/31/2021 7:00:00 PM 21.63 70.934 0.118 7.66 1.79 8.53
8/31/2021 7:15:00 PM 21.59 70.862 0.118 7.63 1.72 8.42
8/31/2021 7:30:00 PM 21.55 70.79 0.118 7.58 1.77 8.33
8/31/2021 7:45:00 PM 21.5 70.7 0.118 7.56 1.76 8.26
8/31/2021 8:00:00 PM 21.44 70.592 0.118 7.54 1.88 8.2
8/31/2021 8:15:00 PM 21.38 70.484 0.118 7.51 1.83 8.14
8/31/2021 8:30:00 PM 21.32 70.376 0.118 7.49 1.98 8.09
8/31/2021 8:45:00 PM 21.26 70.268 0.118 7.47 1.88 8.08
8/31/2021 9:00:00 PM 21.2 70.16 0.118 7.45 1.92 8.06
8/31/2021 9:15:00 PM 21.14 70.052 0.118 7.44 1.87 8.04
8/31/2021 9:30:00 PM 21.09 69.962 0.118 7.43 1.96 8.02
8/31/2021 9:45:00 PM 21.04 69.872 0.118 7.42 1.86 8.01
8/31/2021 10:00:00 PM 20.99 69.782 0.118 7.41 1.78 8
8/31/2021 10:15:00 PM 20.94 69.692 0.118 7.4 1.77 7.99
8/31/2021 10:30:00 PM 20.9 69.62 0.119 7.4 1.9 7.98
8/31/2021 10:45:00 PM 20.86 69.548 0.119 7.39 2.05 7.97
8/31/2021 11:00:00 PM 20.82 69.476 0.119 7.38 1.86 7.98
8/31/2021 11:15:00 PM 20.78 69.404 0.119 7.38 1.95 7.97
8/31/2021 11:30:00 PM 20.74 69.332 0.119 7.37 1.94 7.98
8/31/2021 11:45:00 PM 20.71 69.278 0.119 7.37 1.88 7.99
9/1/2021 12:00:00 AM 20.68 69.224 0.119 7.37 1.9 7.99
9/1/2021 12:15:00 AM 20.64 69.152 0.119 7.37 2.02 8
9/1/2021 12:30:00 AM 20.61 69.098 0.119 7.36 1.97 8
9/1/2021 12:45:00 AM 20.58 69.044 0.119 7.36 1.96 8.01
9/1/2021 1:00:00 AM 20.55 68.99 0.119 7.36 1.92 8.01
9/1/2021 1:15:00 AM 20.52 68.936 0.119 7.36 2 8.01
9/1/2021 1:30:00 AM 20.49 68.882 0.119 7.35 2 8.02
9/1/2021 1:45:00 AM 20.47 68.846 0.119 7.35 1.86 8.02
9/1/2021 2:00:00 AM 20.43 68.774 0.119 7.35 1.9 8.03
9/1/2021 2:15:00 AM 20.4 68.72 0.119 7.34 2.15 8.03
9/1/2021 2:30:00 AM 20.37 68.666 0.119 7.34 1.96 8.03
9/1/2021 2:45:00 AM 20.34 68.612 0.119 7.35 2.09 8.03
9/1/2021 3:00:00 AM 20.31 68.558 0.119 7.35 1.81 8.05
9/1/2021 3:15:00 AM 20.29 68.522 0.119 7.35 1.93 8.04
9/1/2021 3:30:00 AM 20.26 68.468 0.119 7.34 1.88 8.04
9/1/2021 3:45:00 AM 20.22 68.396 0.119 7.35 2.2 8.04
9/1/2021 4:00:00 AM 20.19 68.342 0.119 7.35 1.98 8.05
9/1/2021 4:15:00 AM 20.16 68.288 0.119 7.35 2.24 8.06
9/1/2021 4:30:00 AM 20.13 68.234 0.119 7.34 2.07 8.07
9/1/2021 4:45:00 AM 20.09 68.162 0.119 7.34 2.27 8.07
9/1/2021 5:00:00 AM 20.06 68.108 0.118 7.34 2.17 8.08
9/1/2021 5:15:00 AM 20.04 68.07201 0.118 7.34 2.45 8.09
9/1/2021 5:30:00 AM 20 68 0.118 7.33 2.14 8.1
9/1/2021 5:45:00 AM 19.96 67.92799 0.118 7.34 2.32 8.12
9/1/2021 6:00:00 AM 19.93 67.874 0.118 7.33 2.4 8.13
9/1/2021 6:15:00 AM 19.89 67.802 0.117 7.34 2.5 8.14
9/1/2021 6:30:00 AM 19.84 67.712 0.117 7.34 2.7 8.16
9/1/2021 6:45:00 AM 19.81 67.658 0.117 7.34 2.77 8.16
9/1/2021 7:00:00 AM 19.76 67.568 0.118 7.33 2.9 8.17
9/1/2021 7:15:00 AM 19.72 67.496 0.118 7.34 2.8 8.2
9/1/2021 7:30:00 AM 19.68 67.424 0.118 7.35 2.83 8.23
9/1/2021 7:45:00 AM 19.63 67.334 0.119 7.36 2.85 8.24
9/1/2021 8:00:00 AM 19.58 67.244 0.119 7.36 2.99 8.28
9/1/2021 8:15:00 AM 19.53 67.154 0.12 7.38 3.23 8.34
9/1/2021 8:30:00 AM 19.48 67.064 0.12 7.38 3.63 8.36
9/1/2021 8:45:00 AM 19.42 66.956 0.12 7.39 4.12 8.4
9/1/2021 9:00:00 AM 19.35 66.83 0.119 7.4 4.48 8.47
9/1/2021 9:15:00 AM 19.3 66.74 0.118 7.4 4.8 8.51
9/1/2021 9:30:00 AM 19.26 66.668 0.117 7.41 5.68 8.55
9/1/2021 9:45:00 AM 19.21 66.578 0.117 7.42 6.61 8.6
9/1/2021 10:00:00 AM 19.16 66.488 0.119 7.43 7.96 8.64
9/1/2021 10:15:00 AM 19.1 66.38 0.123 7.45 16.53 8.63
9/1/2021 10:30:00 AM 19.03 66.254 0.122 7.46 25.1 8.63
9/1/2021 10:45:00 AM 18.99 66.182 0.119 7.47 47.15 8.65
9/1/2021 11:00:00 AM 19.01 66.218 0.118 7.46 49.55 8.65
9/1/2021 11:15:00 AM 19.04 66.272 0.118 7.45 47.4 8.66
9/1/2021 11:30:00 AM 19.06 66.308 0.116 7.45 48.3 8.66
9/1/2021 11:45:00 AM 19.08 66.344 0.114 7.43 58.11 8.67
9/1/2021 12:00:00 PM 19.13 66.434 0.112 7.41 64.29 8.66
9/1/2021 12:15:00 PM 19.18 66.524 0.111 7.37 84.13 8.66
9/1/2021 12:30:00 PM 19.23 66.614 0.109 7.34 97.3 8.66
9/1/2021 12:45:00 PM 19.26 66.668 0.108 7.34 95.28 8.65
9/1/2021 1:00:00 PM 19.27 66.686 0.107 7.32 83.73 8.64
9/1/2021 1:15:00 PM 19.28 66.704 0.106 7.29 66.07 8.63
9/1/2021 1:30:00 PM 19.27 66.686 0.105 7.28 59.52 8.62
9/1/2021 1:45:00 PM 19.26 66.668 0.105 7.27 48.12 8.61
9/1/2021 2:00:00 PM 19.24 66.632 0.104 7.26 45.22 8.61
9/1/2021 2:15:00 PM 19.22 66.596 0.104 7.25 41.49 8.61
9/1/2021 2:30:00 PM 19.2 66.56 0.103 7.25 42.15 8.61
9/1/2021 2:45:00 PM 19.18 66.524 0.103 7.23 43.37 8.61
9/1/2021 3:00:00 PM 19.16 66.488 0.102 7.22 44.53 8.61
9/1/2021 3:15:00 PM 19.13 66.434 0.101 7.23 43.29 8.61
9/1/2021 3:30:00 PM 19.1 66.38 0.101 7.23 44.91 8.62
9/1/2021 3:45:00 PM 19.07 66.326 0.101 7.23 55.35 8.61
9/1/2021 4:00:00 PM 19.04 66.272 0.101 7.22 45.4 8.61
9/1/2021 4:15:00 PM 19.01 66.218 0.101 7.21 43.62 8.6
9/1/2021 4:30:00 PM 18.98 66.164 0.1 7.21 47.76 8.6
9/1/2021 4:45:00 PM 18.97 66.146 0.1 7.21 63.05 8.6
9/1/2021 5:00:00 PM 18.96 66.128 0.099 7.19 90.77 8.61
9/1/2021 5:15:00 PM 18.94 66.092 0.098 7.17 125.01 8.61
9/1/2021 5:30:00 PM 18.92 66.056 0.096 7.15 150.49 8.61
9/1/2021 5:45:00 PM 18.91 66.038 0.095 7.13 191.31 8.61
9/1/2021 6:00:00 PM 18.88 65.984 0.094 7.15 200.79 8.6
9/1/2021 6:15:00 PM 18.84 65.912 0.093 7.12 199.9 8.6
9/1/2021 6:30:00 PM 18.8 65.84 0.092 7.1 178 8.61
9/1/2021 6:45:00 PM 18.74 65.732 0.092 7.07 152.83 8.61
9/1/2021 7:00:00 PM 18.67 65.606 0.092 7.06 130.69 8.62
9/1/2021 7:15:00 PM 18.61 65.498 0.092 7.05 119.94 8.62
9/1/2021 7:30:00 PM 18.55 65.39 0.092 7.03 111.16 8.62
9/1/2021 7:45:00 PM 18.48 65.264 0.093 7.03 103.56 8.63
9/1/2021 8:00:00 PM 18.42 65.156 0.093 7.07 100.54 8.64
9/1/2021 8:15:00 PM 18.36 65.048 0.093 7.05 100.78 8.66
9/1/2021 8:30:00 PM 18.3 64.94 0.092 7.06 93.87 8.67
9/1/2021 8:45:00 PM 18.24 64.832 0.092 7.09 91.91 8.69
9/1/2021 9:00:00 PM 18.2 64.76 0.092 7.09 91.87 8.7
9/1/2021 9:15:00 PM 18.15 64.67 0.091 7 91.46 8.72
9/1/2021 9:30:00 PM 18.12 64.616 0.09 7.02 92.6 8.74
9/1/2021 9:45:00 PM 18.09 64.562 0.09 7.02 88.58 8.74
9/1/2021 10:00:00 PM 18.1 64.58 0.089 7.02 84 8.74
9/1/2021 10:15:00 PM 18.13 64.634 0.089 7.01 76.35 8.74
9/1/2021 10:30:00 PM 18.15 64.67 0.089 7.01 68.89 8.74
9/1/2021 10:45:00 PM 18.16 64.688 0.088 7.03 63.24 8.74
9/1/2021 11:00:00 PM 18.14 64.652 0.088 7.01 57.01 8.74
9/1/2021 11:15:00 PM 18.12 64.616 0.089 7.03 54.27 8.75
9/1/2021 11:30:00 PM 18.1 64.58 0.089 7.02 50.25 8.77
9/1/2021 11:45:00 PM 18.06 64.508 0.089 7.02 46.63 8.78
9/2/2021 12:00:00 AM 18.01 64.418 0.089 7.02 43.61 8.8
9/2/2021 12:15:00 AM 17.97 64.346 0.089 7.02 40.95 8.82
9/2/2021 12:30:00 AM 17.9 64.22 0.089 7.01 38.17 8.83
9/2/2021 12:45:00 AM 17.84 64.112 0.09 7.03 35.78 8.84
9/2/2021 1:00:00 AM 17.77 63.986 0.09 7.01 34.2 8.86
9/2/2021 1:15:00 AM 17.68 63.824 0.091 7.01 33.1 8.88
9/2/2021 1:30:00 AM 17.58 63.644 0.091 7.01 32.25 8.89
9/2/2021 1:45:00 AM 17.48 63.464 0.091 7 30.99 8.91
9/2/2021 2:00:00 AM 17.36 63.248 0.091 6.99 29.53 8.95
9/2/2021 2:15:00 AM 17.25 63.05 0.091 6.98 28.69 8.98
9/2/2021 2:30:00 AM 17.14 62.852 0.092 6.99 28.43 9
9/2/2021 2:45:00 AM 17.03 62.654 0.092 6.99 26.82 9.03
9/2/2021 3:00:00 AM 16.93 62.474 0.092 7 27.39 9.05
9/2/2021 3:15:00 AM 16.83 62.294 0.092 7 27.77 9.06
9/2/2021 3:30:00 AM 16.73 62.114 0.092 6.99 31.69 9.09
9/2/2021 3:45:00 AM 16.64 61.952 0.092 6.99 24.64 9.12
9/2/2021 4:00:00 AM 16.55 61.79 0.092 6.99 23.01 9.15
9/2/2021 4:15:00 AM 16.47 61.646 0.092 7 21.11 9.17
9/2/2021 4:30:00 AM 16.38 61.484 0.092 7 21.79 9.19
9/2/2021 4:45:00 AM 16.3 61.34 0.092 7.01 20.24 9.21
9/2/2021 5:00:00 AM 16.22 61.196 0.092 7.01 20.09 9.21
9/2/2021 5:15:00 AM 16.13 61.034 0.092 7 19.91 9.23
9/2/2021 5:30:00 AM 16.05 60.89 0.092 7.01 19 9.26
9/2/2021 5:45:00 AM 15.97 60.746 0.092 7 16.71 9.28
9/2/2021 6:00:00 AM 15.89 60.602 0.092 7 17.89 9.31
9/2/2021 6:15:00 AM 15.81 60.458 0.092 7.01 17.88 9.33
9/2/2021 6:30:00 AM 15.74 60.332 0.092 7.01 16.7 9.35
9/2/2021 6:45:00 AM 15.67 60.206 0.092 7.03 16.34 9.37
9/2/2021 7:00:00 AM 15.6 60.08 0.092 7.03 16.76 9.38
9/2/2021 7:15:00 AM 15.53 59.954 0.092 7.02 15.57 9.4
9/2/2021 7:30:00 AM 15.47 59.846 0.092 7.02 16.64 9.41
9/2/2021 7:45:00 AM 15.42 59.756 0.092 7.03 20.13 9.43
9/2/2021 8:00:00 AM 15.38 59.684 0.092 7.03 14.05 9.45
9/2/2021 8:15:00 AM 15.34 59.612 0.092 7.03 13.99 9.47
9/2/2021 8:30:00 AM 15.32 59.576 0.092 7.04 13.63 9.5
9/2/2021 8:45:00 AM 15.3 59.54 0.092 7.04 13.35 9.51
9/2/2021 9:00:00 AM 15.29 59.522 0.092 7.05 12.52 9.53
9/2/2021 9:15:00 AM 15.3 59.54 0.092 7.04 12.01 9.54
9/2/2021 9:30:00 AM 15.31 59.558 0.092 7.04 12.41 9.55
9/2/2021 9:45:00 AM 15.35 59.63 0.092 7.05 11.35 9.56
9/2/2021 10:00:00 AM 15.39 59.702 0.092 7.07 11.6 9.56
9/2/2021 10:15:00 AM 15.44 59.792 0.092 7.08 11.15 9.57
9/2/2021 10:30:00 AM 15.49 59.882 0.092 7.08 10.68 9.58
9/2/2021 10:45:00 AM 15.55 59.99 0.092 7.09 10.48 9.59
9/2/2021 11:00:00 AM 15.62 60.116 0.092 7.08 10.24 9.6
9/2/2021 11:15:00 AM 15.7 60.26 0.092 7.1 10.35 9.61
9/2/2021 11:30:00 AM 15.79 60.422 0.092 7.11 9.77 9.61
9/2/2021 11:45:00 AM 15.89 60.602 0.092 7.12 10.03 9.61
9/2/2021 12:00:00 PM 16 60.8 0.092 7.12 9.83 9.6
9/2/2021 12:15:00 PM 16.08 60.944 0.092 7.13 9.63 9.6
9/2/2021 12:30:00 PM 16.16 61.088 0.092 7.12 9.75 9.59